PWSweather.com
Personal Weather Stations
Station Observations
GHWX1
Golden Heights, Sturgeon County, AB T0A1N5

Golden HeightsSturgeon County, AB T0A1N5

Lat: 53.919, Lon: -113.37

Elevation: 2159

Station Type:

http://www.ghwx.ca

High Low Average
Temperature -0.6°F-18.1°C -21.6°F-29.8°C -14.6°F-25.9°C
Dew Point -5.1°F-20.6°C -24.7°F-31.5°C -18.4°F-28.0°C
Winds 13.0 mph 20.9 kmh Calm Calm 3.0 mph WSW4.8 kmh WSW
Wind Gusts -- -- --
Humidity 88% 70% 83%
Pressure 30.46 in1031.5 mb 30.35 in1027.8 mb -
Precipitation 0.00 in0.0 mm - -
Hour Temp Dew Point Humidity Winds Wind Gusts Pressure Precip Precip Rate Daily Precip Total
12:00 AM -18.7°F-28.2°C -21.9°F-29.9°C 85% 8.0 mph W12.9 kmh W -- 30.36 in1028.1 mb 0.00 in0.0 mm 0.00 in0.0 mm 0.00 in0.0 mm
12:02 AM -18.7°F-28.2°C -21.9°F-29.9°C 85% 6.0 mph WNW9.7 kmh WNW -- 30.36 in1028.1 mb 0.00 in0.0 mm 0.00 in0.0 mm 0.00 in0.0 mm
12:03 AM -18.7°F-28.2°C -21.9°F-29.9°C 85% 6.0 mph WNW9.7 kmh WNW -- 30.35 in1027.8 mb 0.00 in0.0 mm 0.00 in0.0 mm 0.00 in0.0 mm
12:04 AM -18.7°F-28.2°C -21.9°F-29.9°C 85% 6.0 mph W9.7 kmh W -- 30.35 in1027.8 mb 0.00 in0.0 mm 0.00 in0.0 mm 0.00 in0.0 mm
12:05 AM -18.7°F-28.2°C -21.9°F-29.9°C 85% 5.0 mph W8.0 kmh W -- 30.35 in1027.8 mb 0.00 in0.0 mm 0.00 in0.0 mm 0.00 in0.0 mm
12:06 AM -18.7°F-28.2°C -21.9°F-29.9°C 85% 6.0 mph W9.7 kmh W -- 30.36 in1028.1 mb 0.00 in0.0 mm 0.00 in0.0 mm 0.00 in0.0 mm
12:07 AM -18.7°F-28.2°C -21.9°F-29.9°C 85% 4.0 mph W6.4 kmh W -- 30.36 in1028.1 mb 0.00 in0.0 mm 0.00 in0.0 mm 0.00 in0.0 mm
12:08 AM -18.7°F-28.2°C -21.9°F-29.9°C 85% 10.0 mph NW16.1 kmh NW -- 30.35 in1027.8 mb 0.00 in0.0 mm 0.00 in0.0 mm 0.00 in0.0 mm
12:09 AM -18.7°F-28.2°C -21.9°F-29.9°C 85% 7.0 mph W11.3 kmh W -- 30.36 in1028.1 mb 0.00 in0.0 mm 0.00 in0.0 mm 0.00 in0.0 mm
12:10 AM -18.7°F-28.2°C -21.9°F-29.9°C 85% 9.0 mph W14.5 kmh W -- 30.36 in1028.1 mb 0.00 in0.0 mm 0.00 in0.0 mm 0.00 in0.0 mm
12:11 AM -18.7°F-28.2°C -21.9°F-29.9°C 85% 7.0 mph W11.3 kmh W -- 30.36 in1028.1 mb 0.00 in0.0 mm 0.00 in0.0 mm 0.00 in0.0 mm
12:12 AM -18.7°F-28.2°C -21.9°F-29.9°C 85% 11.0 mph W17.7 kmh W -- 30.36 in1028.1 mb 0.00 in0.0 mm 0.00 in0.0 mm 0.00 in0.0 mm
12:13 AM -18.7°F-28.2°C -21.9°F-29.9°C 85% 9.0 mph WNW14.5 kmh WNW -- 30.36 in1028.1 mb 0.00 in0.0 mm 0.00 in0.0 mm 0.00 in0.0 mm
12:14 AM -18.7°F-28.2°C -21.9°F-29.9°C 85% 7.0 mph W11.3 kmh W -- 30.35 in1027.8 mb 0.00 in0.0 mm 0.00 in0.0 mm 0.00 in0.0 mm
12:15 AM -18.7°F-28.2°C -21.9°F-29.9°C 85% 5.0 mph W8.0 kmh W -- 30.36 in1028.1 mb 0.00 in0.0 mm 0.00 in0.0 mm 0.00 in0.0 mm
12:16 AM -18.7°F-28.2°C -21.9°F-29.9°C 85% 10.0 mph WNW16.1 kmh WNW -- 30.35 in1027.8 mb 0.00 in0.0 mm 0.00 in0.0 mm 0.00 in0.0 mm
12:17 AM -18.7°F-28.2°C -21.9°F-29.9°C 85% 10.0 mph W16.1 kmh W -- 30.36 in1028.1 mb 0.00 in0.0 mm 0.00 in0.0 mm 0.00 in0.0 mm
12:18 AM -18.7°F-28.2°C -21.9°F-29.9°C 85% 9.0 mph W14.5 kmh W -- 30.36 in1028.1 mb 0.00 in0.0 mm 0.00 in0.0 mm 0.00 in0.0 mm
12:19 AM -18.7°F-28.2°C -21.9°F-29.9°C 85% 6.0 mph W9.7 kmh W -- 30.36 in1028.1 mb 0.00 in0.0 mm 0.00 in0.0 mm 0.00 in0.0 mm
12:20 AM -18.6°F-28.1°C -21.7°F-29.8°C 85% 9.0 mph W14.5 kmh W -- 30.36 in1028.1 mb 0.00 in0.0 mm 0.00 in0.0 mm 0.00 in0.0 mm
12:21 AM -18.6°F-28.1°C -21.7°F-29.8°C 85% 6.0 mph WNW9.7 kmh WNW -- 30.36 in1028.1 mb 0.00 in0.0 mm 0.00 in0.0 mm 0.00 in0.0 mm
12:22 AM -18.6°F-28.1°C -21.7°F-29.8°C 85% 12.0 mph W19.3 kmh W -- 30.36 in1028.1 mb 0.00 in0.0 mm 0.00 in0.0 mm 0.00 in0.0 mm
12:23 AM -18.3°F-27.9°C -21.4°F-29.7°C 85% 8.0 mph W12.9 kmh W -- 30.36 in1028.1 mb 0.00 in0.0 mm 0.00 in0.0 mm 0.00 in0.0 mm
12:24 AM -18.3°F-27.9°C -21.4°F-29.7°C 85% 8.0 mph WNW12.9 kmh WNW -- 30.36 in1028.1 mb 0.00 in0.0 mm 0.00 in0.0 mm 0.00 in0.0 mm
12:25 AM -18.3°F-27.9°C -21.4°F-29.7°C 85% 10.0 mph W16.1 kmh W -- 30.36 in1028.1 mb 0.00 in0.0 mm 0.00 in0.0 mm 0.00 in0.0 mm
12:26 AM -18.3°F-27.9°C -21.4°F-29.7°C 85% 9.0 mph WNW14.5 kmh WNW -- 30.36 in1028.1 mb 0.00 in0.0 mm 0.00 in0.0 mm 0.00 in0.0 mm
12:27 AM -18.3°F-27.9°C -21.4°F-29.7°C 85% 9.0 mph WSW14.5 kmh WSW -- 30.36 in1028.1 mb 0.00 in0.0 mm 0.00 in0.0 mm 0.00 in0.0 mm
12:28 AM -18.3°F-27.9°C -21.4°F-29.7°C 85% 10.0 mph W16.1 kmh W -- 30.37 in1028.4 mb 0.00 in0.0 mm 0.00 in0.0 mm 0.00 in0.0 mm
12:29 AM -18.3°F-27.9°C -21.4°F-29.7°C 85% 7.0 mph NW11.3 kmh NW -- 30.36 in1028.1 mb 0.00 in0.0 mm 0.00 in0.0 mm 0.00 in0.0 mm
12:30 AM -18.2°F-27.9°C -21.4°F-29.7°C 85% 7.0 mph WNW11.3 kmh WNW -- 30.37 in1028.4 mb 0.00 in0.0 mm 0.00 in0.0 mm 0.00 in0.0 mm
12:31 AM -18.2°F-27.9°C -21.4°F-29.7°C 85% 9.0 mph W14.5 kmh W -- 30.36 in1028.1 mb 0.00 in0.0 mm 0.00 in0.0 mm 0.00 in0.0 mm
12:32 AM -18.2°F-27.9°C -21.4°F-29.7°C 85% 5.0 mph WNW8.0 kmh WNW -- 30.36 in1028.1 mb 0.00 in0.0 mm 0.00 in0.0 mm 0.00 in0.0 mm
12:33 AM -18.2°F-27.9°C -21.4°F-29.7°C 85% 11.0 mph W17.7 kmh W -- 30.36 in1028.1 mb 0.00 in0.0 mm 0.00 in0.0 mm 0.00 in0.0 mm
12:34 AM -18.2°F-27.9°C -21.4°F-29.7°C 85% 8.0 mph W12.9 kmh W -- 30.37 in1028.4 mb 0.00 in0.0 mm 0.00 in0.0 mm 0.00 in0.0 mm
12:35 AM -18.2°F-27.9°C -21.4°F-29.7°C 85% 4.0 mph W6.4 kmh W -- 30.36 in1028.1 mb 0.00 in0.0 mm 0.00 in0.0 mm 0.00 in0.0 mm
12:36 AM -18.2°F-27.9°C -21.4°F-29.7°C 85% 9.0 mph W14.5 kmh W -- 30.37 in1028.4 mb 0.00 in0.0 mm 0.00 in0.0 mm 0.00 in0.0 mm
12:37 AM -18.2°F-27.9°C -21.4°F-29.7°C 85% 6.0 mph WNW9.7 kmh WNW -- 30.37 in1028.4 mb 0.00 in0.0 mm 0.00 in0.0 mm 0.00 in0.0 mm
12:38 AM -18.2°F-27.9°C -21.4°F-29.7°C 85% 11.0 mph W17.7 kmh W -- 30.37 in1028.4 mb 0.00 in0.0 mm 0.00 in0.0 mm 0.00 in0.0 mm
12:39 AM -18.2°F-27.9°C -21.4°F-29.7°C 85% 7.0 mph W11.3 kmh W -- 30.37 in1028.4 mb 0.00 in0.0 mm 0.00 in0.0 mm 0.00 in0.0 mm
12:40 AM -17.9°F-27.7°C -21.0°F-29.4°C 85% 11.0 mph W17.7 kmh W -- 30.37 in1028.4 mb 0.00 in0.0 mm 0.00 in0.0 mm 0.00 in0.0 mm
12:41 AM -17.9°F-27.7°C -21.0°F-29.4°C 85% 9.0 mph W14.5 kmh W -- 30.37 in1028.4 mb 0.00 in0.0 mm 0.00 in0.0 mm 0.00 in0.0 mm
12:42 AM -17.9°F-27.7°C -21.0°F-29.4°C 85% 11.0 mph W17.7 kmh W -- 30.37 in1028.4 mb 0.00 in0.0 mm 0.00 in0.0 mm 0.00 in0.0 mm
12:43 AM -17.9°F-27.7°C -21.0°F-29.4°C 85% 9.0 mph W14.5 kmh W -- 30.37 in1028.4 mb 0.00 in0.0 mm 0.00 in0.0 mm 0.00 in0.0 mm
12:44 AM -17.9°F-27.7°C -21.0°F-29.4°C 85% 6.0 mph WNW9.7 kmh WNW -- 30.38 in1028.8 mb 0.00 in0.0 mm 0.00 in0.0 mm 0.00 in0.0 mm
12:45 AM -17.9°F-27.7°C -21.0°F-29.4°C 85% 7.0 mph WNW11.3 kmh WNW -- 30.37 in1028.4 mb 0.00 in0.0 mm 0.00 in0.0 mm 0.00 in0.0 mm
12:46 AM -17.9°F-27.7°C -21.0°F-29.4°C 85% 8.0 mph WNW12.9 kmh WNW -- 30.37 in1028.4 mb 0.00 in0.0 mm 0.00 in0.0 mm 0.00 in0.0 mm
12:47 AM -17.9°F-27.7°C -21.0°F-29.4°C 85% 9.0 mph WNW14.5 kmh WNW -- 30.36 in1028.1 mb 0.00 in0.0 mm 0.00 in0.0 mm 0.00 in0.0 mm
12:48 AM -17.9°F-27.7°C -21.0°F-29.4°C 85% 10.0 mph W16.1 kmh W -- 30.38 in1028.8 mb 0.00 in0.0 mm 0.00 in0.0 mm 0.00 in0.0 mm
12:49 AM -17.9°F-27.7°C -21.0°F-29.4°C 85% 9.0 mph W14.5 kmh W -- 30.37 in1028.4 mb 0.00 in0.0 mm 0.00 in0.0 mm 0.00 in0.0 mm
12:50 AM -17.9°F-27.7°C -21.0°F-29.4°C 85% 8.0 mph W12.9 kmh W -- 30.37 in1028.4 mb 0.00 in0.0 mm 0.00 in0.0 mm 0.00 in0.0 mm
12:51 AM -17.9°F-27.7°C -21.0°F-29.4°C 85% 7.0 mph WSW11.3 kmh WSW -- 30.36 in1028.1 mb 0.00 in0.0 mm 0.00 in0.0 mm 0.00 in0.0 mm
12:52 AM -17.9°F-27.7°C -21.0°F-29.4°C 85% 9.0 mph W14.5 kmh W -- 30.37 in1028.4 mb 0.00 in0.0 mm 0.00 in0.0 mm 0.00 in0.0 mm
12:53 AM -17.9°F-27.7°C -21.0°F-29.4°C 85% 5.0 mph W8.0 kmh W -- 30.37 in1028.4 mb 0.00 in0.0 mm 0.00 in0.0 mm 0.00 in0.0 mm
12:54 AM -17.9°F-27.7°C -21.0°F-29.4°C 85% 8.0 mph W12.9 kmh W -- 30.37 in1028.4 mb 0.00 in0.0 mm 0.00 in0.0 mm 0.00 in0.0 mm
12:55 AM -17.9°F-27.7°C -21.0°F-29.4°C 85% 12.0 mph W19.3 kmh W -- 30.37 in1028.4 mb 0.00 in0.0 mm 0.00 in0.0 mm 0.00 in0.0 mm
12:56 AM -17.9°F-27.7°C -21.0°F-29.4°C 85% 8.0 mph W12.9 kmh W -- 30.37 in1028.4 mb 0.00 in0.0 mm 0.00 in0.0 mm 0.00 in0.0 mm
12:58 AM -17.9°F-27.7°C -21.0°F-29.4°C 85% 5.0 mph W8.0 kmh W -- 30.37 in1028.4 mb 0.00 in0.0 mm 0.00 in0.0 mm 0.00 in0.0 mm
01:00 AM -17.9°F-27.7°C -21.0°F-29.4°C 85% 7.0 mph NW11.3 kmh NW -- 30.37 in1028.4 mb 0.00 in0.0 mm 0.00 in0.0 mm 0.00 in0.0 mm
01:01 AM -17.9°F-27.7°C -21.0°F-29.4°C 85% 12.0 mph WNW19.3 kmh WNW -- 30.38 in1028.8 mb 0.00 in0.0 mm 0.00 in0.0 mm 0.00 in0.0 mm
01:02 AM -17.9°F-27.7°C -21.0°F-29.4°C 85% 11.0 mph W17.7 kmh W -- 30.37 in1028.4 mb 0.00 in0.0 mm 0.00 in0.0 mm 0.00 in0.0 mm
01:03 AM -17.9°F-27.7°C -21.0°F-29.4°C 85% 7.0 mph W11.3 kmh W -- 30.37 in1028.4 mb 0.00 in0.0 mm 0.00 in0.0 mm 0.00 in0.0 mm
01:04 AM -17.9°F-27.7°C -21.0°F-29.4°C 85% 6.0 mph W9.7 kmh W -- 30.37 in1028.4 mb 0.00 in0.0 mm 0.00 in0.0 mm 0.00 in0.0 mm
01:05 AM -17.9°F-27.7°C -21.0°F-29.4°C 85% 6.0 mph WSW9.7 kmh WSW -- 30.37 in1028.4 mb 0.00 in0.0 mm 0.00 in0.0 mm 0.00 in0.0 mm
01:06 AM -18.2°F-27.9°C -21.4°F-29.7°C 85% 8.0 mph W12.9 kmh W -- 30.37 in1028.4 mb 0.00 in0.0 mm 0.00 in0.0 mm 0.00 in0.0 mm
01:07 AM -18.2°F-27.9°C -21.4°F-29.7°C 85% 8.0 mph WNW12.9 kmh WNW -- 30.38 in1028.8 mb 0.00 in0.0 mm 0.00 in0.0 mm 0.00 in0.0 mm
01:08 AM -18.2°F-27.9°C -21.4°F-29.7°C 85% 13.0 mph W20.9 kmh W -- 30.37 in1028.4 mb 0.00 in0.0 mm 0.00 in0.0 mm 0.00 in0.0 mm
01:09 AM -18.2°F-27.9°C -21.4°F-29.7°C 85% 8.0 mph W12.9 kmh W -- 30.37 in1028.4 mb 0.00 in0.0 mm 0.00 in0.0 mm 0.00 in0.0 mm
01:10 AM -18.2°F-27.9°C -21.4°F-29.7°C 85% 10.0 mph W16.1 kmh W -- 30.37 in1028.4 mb 0.00 in0.0 mm 0.00 in0.0 mm 0.00 in0.0 mm
01:11 AM -18.2°F-27.9°C -21.4°F-29.7°C 85% 6.0 mph W9.7 kmh W -- 30.38 in1028.8 mb 0.00 in0.0 mm 0.00 in0.0 mm 0.00 in0.0 mm
01:12 AM -18.2°F-27.9°C -21.4°F-29.7°C 85% 6.0 mph W9.7 kmh W -- 30.37 in1028.4 mb 0.00 in0.0 mm 0.00 in0.0 mm 0.00 in0.0 mm
01:13 AM -18.2°F-27.9°C -21.4°F-29.7°C 85% 6.0 mph W9.7 kmh W -- 30.38 in1028.8 mb 0.00 in0.0 mm 0.00 in0.0 mm 0.00 in0.0 mm
01:14 AM -18.2°F-27.9°C -21.4°F-29.7°C 85% 6.0 mph W9.7 kmh W -- 30.37 in1028.4 mb 0.00 in0.0 mm 0.00 in0.0 mm 0.00 in0.0 mm
01:15 AM -18.2°F-27.9°C -21.4°F-29.7°C 85% 8.0 mph W12.9 kmh W -- 30.37 in1028.4 mb 0.00 in0.0 mm 0.00 in0.0 mm 0.00 in0.0 mm
01:16 AM -18.2°F-27.9°C -21.4°F-29.7°C 85% 8.0 mph WNW12.9 kmh WNW -- 30.37 in1028.4 mb 0.00 in0.0 mm 0.00 in0.0 mm 0.00 in0.0 mm
01:17 AM -18.2°F-27.9°C -21.4°F-29.7°C 85% 7.0 mph SW11.3 kmh SW -- 30.37 in1028.4 mb 0.00 in0.0 mm 0.00 in0.0 mm 0.00 in0.0 mm
01:18 AM -18.2°F-27.9°C -21.4°F-29.7°C 85% 6.0 mph W9.7 kmh W -- 30.37 in1028.4 mb 0.00 in0.0 mm 0.00 in0.0 mm 0.00 in0.0 mm
01:19 AM -18.2°F-27.9°C -21.4°F-29.7°C 85% 11.0 mph W17.7 kmh W -- 30.37 in1028.4 mb 0.00 in0.0 mm 0.00 in0.0 mm 0.00 in0.0 mm
01:20 AM -18.2°F-27.9°C -21.4°F-29.7°C 85% 6.0 mph W9.7 kmh W -- 30.38 in1028.8 mb 0.00 in0.0 mm 0.00 in0.0 mm 0.00 in0.0 mm
01:21 AM -18.2°F-27.9°C -21.4°F-29.7°C 85% 6.0 mph W9.7 kmh W -- 30.37 in1028.4 mb 0.00 in0.0 mm 0.00 in0.0 mm 0.00 in0.0 mm
01:22 AM -18.2°F-27.9°C -21.4°F-29.7°C 85% 6.0 mph WSW9.7 kmh WSW -- 30.38 in1028.8 mb 0.00 in0.0 mm 0.00 in0.0 mm 0.00 in0.0 mm
01:23 AM -18.2°F-27.9°C -21.4°F-29.7°C 85% 6.0 mph W9.7 kmh W -- 30.38 in1028.8 mb 0.00 in0.0 mm 0.00 in0.0 mm 0.00 in0.0 mm
01:25 AM -18.2°F-27.9°C -21.4°F-29.7°C 85% 8.0 mph W12.9 kmh W -- 30.38 in1028.8 mb 0.00 in0.0 mm 0.00 in0.0 mm 0.00 in0.0 mm
01:26 AM -18.2°F-27.9°C -21.4°F-29.7°C 85% 6.0 mph NW9.7 kmh NW -- 30.38 in1028.8 mb 0.00 in0.0 mm 0.00 in0.0 mm 0.00 in0.0 mm
01:27 AM -18.2°F-27.9°C -21.4°F-29.7°C 85% 8.0 mph W12.9 kmh W -- 30.38 in1028.8 mb 0.00 in0.0 mm 0.00 in0.0 mm 0.00 in0.0 mm
01:28 AM -18.2°F-27.9°C -21.4°F-29.7°C 85% 10.0 mph W16.1 kmh W -- 30.37 in1028.4 mb 0.00 in0.0 mm 0.00 in0.0 mm 0.00 in0.0 mm
01:29 AM -18.2°F-27.9°C -21.4°F-29.7°C 85% 8.0 mph W12.9 kmh W -- 30.38 in1028.8 mb 0.00 in0.0 mm 0.00 in0.0 mm 0.00 in0.0 mm
01:30 AM -18.2°F-27.9°C -21.4°F-29.7°C 85% 6.0 mph W9.7 kmh W -- 30.38 in1028.8 mb 0.00 in0.0 mm 0.00 in0.0 mm 0.00 in0.0 mm
01:32 AM -18.2°F-27.9°C -21.4°F-29.7°C 85% 9.0 mph NW14.5 kmh NW -- 30.38 in1028.8 mb 0.00 in0.0 mm 0.00 in0.0 mm 0.00 in0.0 mm
01:33 AM -18.2°F-27.9°C -21.4°F-29.7°C 85% 9.0 mph W14.5 kmh W -- 30.38 in1028.8 mb 0.00 in0.0 mm 0.00 in0.0 mm 0.00 in0.0 mm
01:34 AM -18.2°F-27.9°C -21.4°F-29.7°C 85% 6.0 mph W9.7 kmh W -- 30.39 in1029.1 mb 0.00 in0.0 mm 0.00 in0.0 mm 0.00 in0.0 mm
01:35 AM -18.2°F-27.9°C -21.4°F-29.7°C 85% 8.0 mph W12.9 kmh W -- 30.39 in1029.1 mb 0.00 in0.0 mm 0.00 in0.0 mm 0.00 in0.0 mm
01:36 AM -18.2°F-27.9°C -21.4°F-29.7°C 85% 6.0 mph W9.7 kmh W -- 30.39 in1029.1 mb 0.00 in0.0 mm 0.00 in0.0 mm 0.00 in0.0 mm
01:37 AM -18.2°F-27.9°C -21.4°F-29.7°C 85% 7.0 mph W11.3 kmh W -- 30.38 in1028.8 mb 0.00 in0.0 mm 0.00 in0.0 mm 0.00 in0.0 mm
01:38 AM -18.2°F-27.9°C -21.4°F-29.7°C 85% 8.0 mph W12.9 kmh W -- 30.38 in1028.8 mb 0.00 in0.0 mm 0.00 in0.0 mm 0.00 in0.0 mm
01:39 AM -18.2°F-27.9°C -21.4°F-29.7°C 85% 9.0 mph WNW14.5 kmh WNW -- 30.39 in1029.1 mb 0.00 in0.0 mm 0.00 in0.0 mm 0.00 in0.0 mm
01:40 AM -18.2°F-27.9°C -21.4°F-29.7°C 85% 7.0 mph W11.3 kmh W -- 30.38 in1028.8 mb 0.00 in0.0 mm 0.00 in0.0 mm 0.00 in0.0 mm
01:41 AM -18.2°F-27.9°C -21.4°F-29.7°C 85% 12.0 mph W19.3 kmh W -- 30.38 in1028.8 mb 0.00 in0.0 mm 0.00 in0.0 mm 0.00 in0.0 mm
01:42 AM -18.2°F-27.9°C -21.4°F-29.7°C 85% 12.0 mph NW19.3 kmh NW -- 30.38 in1028.8 mb 0.00 in0.0 mm 0.00 in0.0 mm 0.00 in0.0 mm
01:43 AM -17.9°F-27.7°C -21.0°F-29.4°C 85% 5.0 mph W8.0 kmh W -- 30.38 in1028.8 mb 0.00 in0.0 mm 0.00 in0.0 mm 0.00 in0.0 mm
01:44 AM -17.9°F-27.7°C -21.0°F-29.4°C 85% 9.0 mph W14.5 kmh W -- 30.38 in1028.8 mb 0.00 in0.0 mm 0.00 in0.0 mm 0.00 in0.0 mm
01:45 AM -17.9°F-27.7°C -21.0°F-29.4°C 85% 7.0 mph W11.3 kmh W -- 30.38 in1028.8 mb 0.00 in0.0 mm 0.00 in0.0 mm 0.00 in0.0 mm
01:46 AM -17.9°F-27.7°C -21.0°F-29.4°C 85% 9.0 mph W14.5 kmh W -- 30.38 in1028.8 mb 0.00 in0.0 mm 0.00 in0.0 mm 0.00 in0.0 mm
01:48 AM -17.9°F-27.7°C -21.0°F-29.4°C 85% 10.0 mph WNW16.1 kmh WNW -- 30.38 in1028.8 mb 0.00 in0.0 mm 0.00 in0.0 mm 0.00 in0.0 mm
01:49 AM -17.9°F-27.7°C -21.0°F-29.4°C 85% 7.0 mph WNW11.3 kmh WNW -- 30.38 in1028.8 mb 0.00 in0.0 mm 0.00 in0.0 mm 0.00 in0.0 mm
01:50 AM -17.9°F-27.7°C -21.0°F-29.4°C 85% 6.0 mph WNW9.7 kmh WNW -- 30.38 in1028.8 mb 0.00 in0.0 mm 0.00 in0.0 mm 0.00 in0.0 mm
01:51 AM -17.9°F-27.7°C -21.0°F-29.4°C 85% 7.0 mph W11.3 kmh W -- 30.39 in1029.1 mb 0.00 in0.0 mm 0.00 in0.0 mm 0.00 in0.0 mm
01:52 AM -17.9°F-27.7°C -21.0°F-29.4°C 85% 12.0 mph W19.3 kmh W -- 30.38 in1028.8 mb 0.00 in0.0 mm 0.00 in0.0 mm 0.00 in0.0 mm
01:53 AM -17.9°F-27.7°C -21.0°F-29.4°C 85% 6.0 mph WSW9.7 kmh WSW -- 30.38 in1028.8 mb 0.00 in0.0 mm 0.00 in0.0 mm 0.00 in0.0 mm
01:54 AM -17.9°F-27.7°C -21.0°F-29.4°C 85% 8.0 mph W12.9 kmh W -- 30.39 in1029.1 mb 0.00 in0.0 mm 0.00 in0.0 mm 0.00 in0.0 mm
01:55 AM -17.9°F-27.7°C -21.0°F-29.4°C 85% 10.0 mph WNW16.1 kmh WNW -- 30.39 in1029.1 mb 0.00 in0.0 mm 0.00 in0.0 mm 0.00 in0.0 mm
01:56 AM -17.9°F-27.7°C -21.0°F-29.4°C 85% 9.0 mph W14.5 kmh W -- 30.39 in1029.1 mb 0.00 in0.0 mm 0.00 in0.0 mm 0.00 in0.0 mm
01:57 AM -17.9°F-27.7°C -21.0°F-29.4°C 85% 8.0 mph NW12.9 kmh NW -- 30.39 in1029.1 mb 0.00 in0.0 mm 0.00 in0.0 mm 0.00 in0.0 mm
01:58 AM -17.9°F-27.7°C -21.0°F-29.4°C 85% 8.0 mph W12.9 kmh W -- 30.39 in1029.1 mb 0.00 in0.0 mm 0.00 in0.0 mm 0.00 in0.0 mm
01:59 AM -17.9°F-27.7°C -21.0°F-29.4°C 85% 7.0 mph W11.3 kmh W -- 30.39 in1029.1 mb 0.00 in0.0 mm 0.00 in0.0 mm 0.00 in0.0 mm
02:01 AM -17.9°F-27.7°C -21.0°F-29.4°C 85% 7.0 mph WNW11.3 kmh WNW -- 30.39 in1029.1 mb 0.00 in0.0 mm 0.00 in0.0 mm 0.00 in0.0 mm
02:02 AM -17.9°F-27.7°C -21.0°F-29.4°C 85% 9.0 mph WNW14.5 kmh WNW -- 30.39 in1029.1 mb 0.00 in0.0 mm 0.00 in0.0 mm 0.00 in0.0 mm
02:03 AM -17.9°F-27.7°C -21.0°F-29.4°C 85% 7.0 mph W11.3 kmh W -- 30.39 in1029.1 mb 0.00 in0.0 mm 0.00 in0.0 mm 0.00 in0.0 mm
02:04 AM -17.9°F-27.7°C -21.0°F-29.4°C 85% 8.0 mph W12.9 kmh W -- 30.39 in1029.1 mb 0.00 in0.0 mm 0.00 in0.0 mm 0.00 in0.0 mm
02:05 AM -17.9°F-27.7°C -21.0°F-29.4°C 85% 6.0 mph SW9.7 kmh SW -- 30.39 in1029.1 mb 0.00 in0.0 mm 0.00 in0.0 mm 0.00 in0.0 mm
02:06 AM -17.9°F-27.7°C -21.0°F-29.4°C 85% 11.0 mph SW17.7 kmh SW -- 30.39 in1029.1 mb 0.00 in0.0 mm 0.00 in0.0 mm 0.00 in0.0 mm
02:07 AM -17.9°F-27.7°C -21.0°F-29.4°C 85% 6.0 mph W9.7 kmh W -- 30.39 in1029.1 mb 0.00 in0.0 mm 0.00 in0.0 mm 0.00 in0.0 mm
02:08 AM -17.9°F-27.7°C -21.0°F-29.4°C 85% 9.0 mph W14.5 kmh W -- 30.39 in1029.1 mb 0.00 in0.0 mm 0.00 in0.0 mm 0.00 in0.0 mm
02:09 AM -17.9°F-27.7°C -21.0°F-29.4°C 85% 5.0 mph W8.0 kmh W -- 30.39 in1029.1 mb 0.00 in0.0 mm 0.00 in0.0 mm 0.00 in0.0 mm
02:10 AM -17.9°F-27.7°C -21.0°F-29.4°C 85% 7.0 mph WNW11.3 kmh WNW -- 30.39 in1029.1 mb 0.00 in0.0 mm 0.00 in0.0 mm 0.00 in0.0 mm
02:11 AM -17.9°F-27.7°C -21.0°F-29.4°C 85% 6.0 mph WNW9.7 kmh WNW -- 30.39 in1029.1 mb 0.00 in0.0 mm 0.00 in0.0 mm 0.00 in0.0 mm
02:12 AM -18.0°F-27.8°C -21.2°F-29.6°C 85% 10.0 mph W16.1 kmh W -- 30.39 in1029.1 mb 0.00 in0.0 mm 0.00 in0.0 mm 0.00 in0.0 mm
02:13 AM -17.9°F-27.7°C -21.0°F-29.4°C 85% 5.0 mph W8.0 kmh W -- 30.39 in1029.1 mb 0.00 in0.0 mm 0.00 in0.0 mm 0.00 in0.0 mm
02:14 AM -18.2°F-27.9°C -21.4°F-29.7°C 85% 7.0 mph W11.3 kmh W -- 30.39 in1029.1 mb 0.00 in0.0 mm 0.00 in0.0 mm 0.00 in0.0 mm
02:15 AM -18.2°F-27.9°C -21.4°F-29.7°C 85% 6.0 mph W9.7 kmh W -- 30.39 in1029.1 mb 0.00 in0.0 mm 0.00 in0.0 mm 0.00 in0.0 mm
02:16 AM -18.2°F-27.9°C -21.4°F-29.7°C 85% 5.0 mph WNW8.0 kmh WNW -- 30.39 in1029.1 mb 0.00 in0.0 mm 0.00 in0.0 mm 0.00 in0.0 mm
02:17 AM -18.2°F-27.9°C -21.4°F-29.7°C 85% 9.0 mph W14.5 kmh W -- 30.39 in1029.1 mb 0.00 in0.0 mm 0.00 in0.0 mm 0.00 in0.0 mm
02:18 AM -18.2°F-27.9°C -21.4°F-29.7°C 85% 6.0 mph W9.7 kmh W -- 30.39 in1029.1 mb 0.00 in0.0 mm 0.00 in0.0 mm 0.00 in0.0 mm
02:19 AM -18.2°F-27.9°C -21.4°F-29.7°C 85% 6.0 mph WNW9.7 kmh WNW -- 30.40 in1029.5 mb 0.00 in0.0 mm 0.00 in0.0 mm 0.00 in0.0 mm
02:20 AM -18.3°F-27.9°C -21.4°F-29.7°C 85% 3.0 mph W4.8 kmh W -- 30.39 in1029.1 mb 0.00 in0.0 mm 0.00 in0.0 mm 0.00 in0.0 mm
02:21 AM -18.3°F-27.9°C -21.4°F-29.7°C 85% 4.0 mph WSW6.4 kmh WSW -- 30.40 in1029.5 mb 0.00 in0.0 mm 0.00 in0.0 mm 0.00 in0.0 mm
02:22 AM -18.3°F-27.9°C -21.4°F-29.7°C 85% 6.0 mph NW9.7 kmh NW -- 30.39 in1029.1 mb 0.00 in0.0 mm 0.00 in0.0 mm 0.00 in0.0 mm
02:23 AM -18.6°F-28.1°C -21.7°F-29.8°C 85% 8.0 mph NW12.9 kmh NW -- 30.40 in1029.5 mb 0.00 in0.0 mm 0.00 in0.0 mm 0.00 in0.0 mm
02:24 AM -18.6°F-28.1°C -21.7°F-29.8°C 85% 6.0 mph W9.7 kmh W -- 30.39 in1029.1 mb 0.00 in0.0 mm 0.00 in0.0 mm 0.00 in0.0 mm
02:25 AM -18.6°F-28.1°C -21.7°F-29.8°C 85% 5.0 mph NW8.0 kmh NW -- 30.40 in1029.5 mb 0.00 in0.0 mm 0.00 in0.0 mm 0.00 in0.0 mm
02:26 AM -18.6°F-28.1°C -21.7°F-29.8°C 85% 8.0 mph W12.9 kmh W -- 30.39 in1029.1 mb 0.00 in0.0 mm 0.00 in0.0 mm 0.00 in0.0 mm
02:27 AM -18.6°F-28.1°C -21.7°F-29.8°C 85% 5.0 mph W8.0 kmh W -- 30.39 in1029.1 mb 0.00 in0.0 mm 0.00 in0.0 mm 0.00 in0.0 mm
02:28 AM -18.6°F-28.1°C -21.7°F-29.8°C 85% 3.0 mph WNW4.8 kmh WNW -- 30.40 in1029.5 mb 0.00 in0.0 mm 0.00 in0.0 mm 0.00 in0.0 mm
02:29 AM -18.6°F-28.1°C -21.7°F-29.8°C 85% 7.0 mph W11.3 kmh W -- 30.40 in1029.5 mb 0.00 in0.0 mm 0.00 in0.0 mm 0.00 in0.0 mm
02:30 AM -18.6°F-28.1°C -21.7°F-29.8°C 85% 3.0 mph WNW4.8 kmh WNW -- 30.40 in1029.5 mb 0.00 in0.0 mm 0.00 in0.0 mm 0.00 in0.0 mm
02:31 AM -18.6°F-28.1°C -21.7°F-29.8°C 85% 6.0 mph WNW9.7 kmh WNW -- 30.39 in1029.1 mb 0.00 in0.0 mm 0.00 in0.0 mm 0.00 in0.0 mm
02:32 AM -18.6°F-28.1°C -21.7°F-29.8°C 85% 7.0 mph SW11.3 kmh SW -- 30.39 in1029.1 mb 0.00 in0.0 mm 0.00 in0.0 mm 0.00 in0.0 mm
02:33 AM -18.6°F-28.1°C -21.7°F-29.8°C 85% 4.0 mph W6.4 kmh W -- 30.40 in1029.5 mb 0.00 in0.0 mm 0.00 in0.0 mm 0.00 in0.0 mm
02:34 AM -18.6°F-28.1°C -21.7°F-29.8°C 85% 6.0 mph WSW9.7 kmh WSW -- 30.40 in1029.5 mb 0.00 in0.0 mm 0.00 in0.0 mm 0.00 in0.0 mm
02:35 AM -18.6°F-28.1°C -21.7°F-29.8°C 85% 5.0 mph NNW8.0 kmh NNW -- 30.40 in1029.5 mb 0.00 in0.0 mm 0.00 in0.0 mm 0.00 in0.0 mm
02:36 AM -18.6°F-28.1°C -21.7°F-29.8°C 85% 7.0 mph W11.3 kmh W -- 30.40 in1029.5 mb 0.00 in0.0 mm 0.00 in0.0 mm 0.00 in0.0 mm
02:37 AM -18.6°F-28.1°C -21.7°F-29.8°C 85% 6.0 mph WNW9.7 kmh WNW -- 30.40 in1029.5 mb 0.00 in0.0 mm 0.00 in0.0 mm 0.00 in0.0 mm
02:38 AM -18.3°F-27.9°C -21.4°F-29.7°C 85% 4.0 mph W6.4 kmh W -- 30.40 in1029.5 mb 0.00 in0.0 mm 0.00 in0.0 mm 0.00 in0.0 mm
02:39 AM -18.3°F-27.9°C -21.4°F-29.7°C 85% 6.0 mph W9.7 kmh W -- 30.39 in1029.1 mb 0.00 in0.0 mm 0.00 in0.0 mm 0.00 in0.0 mm
02:40 AM -18.3°F-27.9°C -21.4°F-29.7°C 85% 6.0 mph SSW9.7 kmh SSW -- 30.40 in1029.5 mb 0.00 in0.0 mm 0.00 in0.0 mm 0.00 in0.0 mm
02:41 AM -18.3°F-27.9°C -21.4°F-29.7°C 85% 5.0 mph W8.0 kmh W -- 30.40 in1029.5 mb 0.00 in0.0 mm 0.00 in0.0 mm 0.00 in0.0 mm
02:42 AM -18.3°F-27.9°C -21.4°F-29.7°C 85% 7.0 mph W11.3 kmh W -- 30.40 in1029.5 mb 0.00 in0.0 mm 0.00 in0.0 mm 0.00 in0.0 mm
02:43 AM -18.3°F-27.9°C -21.4°F-29.7°C 85% 8.0 mph W12.9 kmh W -- 30.40 in1029.5 mb 0.00 in0.0 mm 0.00 in0.0 mm 0.00 in0.0 mm
02:44 AM -18.2°F-27.9°C -21.4°F-29.7°C 85% 6.0 mph W9.7 kmh W -- 30.40 in1029.5 mb 0.00 in0.0 mm 0.00 in0.0 mm 0.00 in0.0 mm
02:45 AM -18.2°F-27.9°C -21.4°F-29.7°C 85% 10.0 mph W16.1 kmh W -- 30.39 in1029.1 mb 0.00 in0.0 mm 0.00 in0.0 mm 0.00 in0.0 mm
02:46 AM -18.2°F-27.9°C -21.4°F-29.7°C 85% 5.0 mph W8.0 kmh W -- 30.40 in1029.5 mb 0.00 in0.0 mm 0.00 in0.0 mm 0.00 in0.0 mm
02:47 AM -18.2°F-27.9°C -21.4°F-29.7°C 85% 8.0 mph WSW12.9 kmh WSW -- 30.40 in1029.5 mb 0.00 in0.0 mm 0.00 in0.0 mm 0.00 in0.0 mm
02:48 AM -18.2°F-27.9°C -21.4°F-29.7°C 85% 5.0 mph W8.0 kmh W -- 30.40 in1029.5 mb 0.00 in0.0 mm 0.00 in0.0 mm 0.00 in0.0 mm
02:49 AM -18.2°F-27.9°C -21.4°F-29.7°C 85% 5.0 mph WNW8.0 kmh WNW -- 30.40 in1029.5 mb 0.00 in0.0 mm 0.00 in0.0 mm 0.00 in0.0 mm
02:50 AM -18.2°F-27.9°C -21.4°F-29.7°C 85% 6.0 mph W9.7 kmh W -- 30.40 in1029.5 mb 0.00 in0.0 mm 0.00 in0.0 mm 0.00 in0.0 mm
02:51 AM -18.2°F-27.9°C -21.4°F-29.7°C 85% 9.0 mph WNW14.5 kmh WNW -- 30.40 in1029.5 mb 0.00 in0.0 mm 0.00 in0.0 mm 0.00 in0.0 mm
02:53 AM -18.2°F-27.9°C -21.4°F-29.7°C 85% 6.0 mph W9.7 kmh W -- 30.40 in1029.5 mb 0.00 in0.0 mm 0.00 in0.0 mm 0.00 in0.0 mm
02:54 AM -18.2°F-27.9°C -21.4°F-29.7°C 85% 10.0 mph W16.1 kmh W -- 30.40 in1029.5 mb 0.00 in0.0 mm 0.00 in0.0 mm 0.00 in0.0 mm
02:55 AM -18.2°F-27.9°C -21.4°F-29.7°C 85% 5.0 mph W8.0 kmh W -- 30.40 in1029.5 mb 0.00 in0.0 mm 0.00 in0.0 mm 0.00 in0.0 mm
02:56 AM -18.2°F-27.9°C -21.4°F-29.7°C 85% 10.0 mph W16.1 kmh W -- 30.40 in1029.5 mb 0.00 in0.0 mm 0.00 in0.0 mm 0.00 in0.0 mm
02:57 AM -18.2°F-27.9°C -21.4°F-29.7°C 85% 6.0 mph SSW9.7 kmh SSW -- 30.40 in1029.5 mb 0.00 in0.0 mm 0.00 in0.0 mm 0.00 in0.0 mm
02:58 AM -18.2°F-27.9°C -21.4°F-29.7°C 85% 5.0 mph WNW8.0 kmh WNW -- 30.41 in1029.8 mb 0.00 in0.0 mm 0.00 in0.0 mm 0.00 in0.0 mm
02:59 AM -18.2°F-27.9°C -21.4°F-29.7°C 85% 5.0 mph WNW8.0 kmh WNW -- 30.40 in1029.5 mb 0.00 in0.0 mm 0.00 in0.0 mm 0.00 in0.0 mm
03:00 AM -18.2°F-27.9°C -21.4°F-29.7°C 85% 7.0 mph W11.3 kmh W -- 30.40 in1029.5 mb 0.00 in0.0 mm 0.00 in0.0 mm 0.00 in0.0 mm
03:01 AM -18.2°F-27.9°C -21.4°F-29.7°C 85% 9.0 mph WNW14.5 kmh WNW -- 30.40 in1029.5 mb 0.00 in0.0 mm 0.00 in0.0 mm 0.00 in0.0 mm
03:02 AM -18.2°F-27.9°C -21.4°F-29.7°C 85% 7.0 mph SW11.3 kmh SW -- 30.40 in1029.5 mb 0.00 in0.0 mm 0.00 in0.0 mm 0.00 in0.0 mm
03:03 AM -18.2°F-27.9°C -21.4°F-29.7°C 85% 8.0 mph W12.9 kmh W -- 30.40 in1029.5 mb 0.00 in0.0 mm 0.00 in0.0 mm 0.00 in0.0 mm
03:04 AM -18.2°F-27.9°C -21.4°F-29.7°C 85% 7.0 mph W11.3 kmh W -- 30.40 in1029.5 mb 0.00 in0.0 mm 0.00 in0.0 mm 0.00 in0.0 mm
03:05 AM -18.2°F-27.9°C -21.4°F-29.7°C 85% 6.0 mph W9.7 kmh W -- 30.40 in1029.5 mb 0.00 in0.0 mm 0.00 in0.0 mm 0.00 in0.0 mm
03:06 AM -18.2°F-27.9°C -21.4°F-29.7°C 85% 7.0 mph W11.3 kmh W -- 30.40 in1029.5 mb 0.00 in0.0 mm 0.00 in0.0 mm 0.00 in0.0 mm
03:08 AM -18.2°F-27.9°C -21.4°F-29.7°C 85% 5.0 mph W8.0 kmh W -- 30.41 in1029.8 mb 0.00 in0.0 mm 0.00 in0.0 mm 0.00 in0.0 mm
03:09 AM -18.2°F-27.9°C -21.4°F-29.7°C 85% 5.0 mph WNW8.0 kmh WNW -- 30.41 in1029.8 mb 0.00 in0.0 mm 0.00 in0.0 mm 0.00 in0.0 mm
03:10 AM -18.2°F-27.9°C -21.4°F-29.7°C 85% 8.0 mph WNW12.9 kmh WNW -- 30.41 in1029.8 mb 0.00 in0.0 mm 0.00 in0.0 mm 0.00 in0.0 mm
03:11 AM -18.2°F-27.9°C -21.4°F-29.7°C 85% 3.0 mph NW4.8 kmh NW -- 30.40 in1029.5 mb 0.00 in0.0 mm 0.00 in0.0 mm 0.00 in0.0 mm
03:12 AM -18.2°F-27.9°C -21.4°F-29.7°C 85% 6.0 mph WNW9.7 kmh WNW -- 30.41 in1029.8 mb 0.00 in0.0 mm 0.00 in0.0 mm 0.00 in0.0 mm
03:13 AM -18.2°F-27.9°C -21.4°F-29.7°C 85% 7.0 mph NNW11.3 kmh NNW -- 30.41 in1029.8 mb 0.00 in0.0 mm 0.00 in0.0 mm 0.00 in0.0 mm
03:14 AM -18.2°F-27.9°C -21.4°F-29.7°C 85% 8.0 mph W12.9 kmh W -- 30.41 in1029.8 mb 0.00 in0.0 mm 0.00 in0.0 mm 0.00 in0.0 mm
03:15 AM -18.2°F-27.9°C -21.4°F-29.7°C 85% 4.0 mph WSW6.4 kmh WSW -- 30.41 in1029.8 mb 0.00 in0.0 mm 0.00 in0.0 mm 0.00 in0.0 mm
03:16 AM -18.2°F-27.9°C -21.4°F-29.7°C 85% 7.0 mph WNW11.3 kmh WNW -- 30.41 in1029.8 mb 0.00 in0.0 mm 0.00 in0.0 mm 0.00 in0.0 mm
03:17 AM -18.2°F-27.9°C -21.4°F-29.7°C 85% 9.0 mph W14.5 kmh W -- 30.41 in1029.8 mb 0.00 in0.0 mm 0.00 in0.0 mm 0.00 in0.0 mm
03:18 AM -18.2°F-27.9°C -21.4°F-29.7°C 85% 7.0 mph W11.3 kmh W -- 30.41 in1029.8 mb 0.00 in0.0 mm 0.00 in0.0 mm 0.00 in0.0 mm
03:19 AM -18.2°F-27.9°C -21.4°F-29.7°C 85% 10.0 mph WNW16.1 kmh WNW -- 30.41 in1029.8 mb 0.00 in0.0 mm 0.00 in0.0 mm 0.00 in0.0 mm
03:20 AM -18.2°F-27.9°C -21.4°F-29.7°C 85% 8.0 mph WNW12.9 kmh WNW -- 30.42 in1030.1 mb 0.00 in0.0 mm 0.00 in0.0 mm 0.00 in0.0 mm
03:21 AM -18.2°F-27.9°C -21.4°F-29.7°C 85% 5.0 mph W8.0 kmh W -- 30.41 in1029.8 mb 0.00 in0.0 mm 0.00 in0.0 mm 0.00 in0.0 mm
03:22 AM -18.2°F-27.9°C -21.4°F-29.7°C 85% 8.0 mph WNW12.9 kmh WNW -- 30.41 in1029.8 mb 0.00 in0.0 mm 0.00 in0.0 mm 0.00 in0.0 mm
03:23 AM -18.2°F-27.9°C -21.4°F-29.7°C 85% 7.0 mph WNW11.3 kmh WNW -- 30.41 in1029.8 mb 0.00 in0.0 mm 0.00 in0.0 mm 0.00 in0.0 mm
03:24 AM -18.2°F-27.9°C -21.4°F-29.7°C 85% 9.0 mph W14.5 kmh W -- 30.41 in1029.8 mb 0.00 in0.0 mm 0.00 in0.0 mm 0.00 in0.0 mm
03:25 AM -18.2°F-27.9°C -21.4°F-29.7°C 85% 7.0 mph WNW11.3 kmh WNW -- 30.41 in1029.8 mb 0.00 in0.0 mm 0.00 in0.0 mm 0.00 in0.0 mm
03:26 AM -18.2°F-27.9°C -21.4°F-29.7°C 85% 7.0 mph W11.3 kmh W -- 30.41 in1029.8 mb 0.00 in0.0 mm 0.00 in0.0 mm 0.00 in0.0 mm
03:27 AM -18.2°F-27.9°C -21.4°F-29.7°C 85% 8.0 mph 12.9 kmh -- 30.41 in1029.8 mb 0.00 in0.0 mm 0.00 in0.0 mm 0.00 in0.0 mm
03:28 AM -18.2°F-27.9°C -21.4°F-29.7°C 85% 8.0 mph W12.9 kmh W -- 30.41 in1029.8 mb 0.00 in0.0 mm 0.00 in0.0 mm 0.00 in0.0 mm
03:30 AM -18.2°F-27.9°C -21.4°F-29.7°C 85% 8.0 mph W12.9 kmh W -- 30.42 in1030.1 mb 0.00 in0.0 mm 0.00 in0.0 mm 0.00 in0.0 mm
03:31 AM -18.2°F-27.9°C -21.4°F-29.7°C 85% 9.0 mph W14.5 kmh W -- 30.41 in1029.8 mb 0.00 in0.0 mm 0.00 in0.0 mm 0.00 in0.0 mm
03:32 AM -18.2°F-27.9°C -21.4°F-29.7°C 85% 7.0 mph W11.3 kmh W -- 30.41 in1029.8 mb 0.00 in0.0 mm 0.00 in0.0 mm 0.00 in0.0 mm
03:33 AM -18.2°F-27.9°C -21.4°F-29.7°C 85% 4.0 mph W6.4 kmh W -- 30.41 in1029.8 mb 0.00 in0.0 mm 0.00 in0.0 mm 0.00 in0.0 mm
03:34 AM -18.2°F-27.9°C -21.4°F-29.7°C 85% 8.0 mph W12.9 kmh W -- 30.42 in1030.1 mb 0.00 in0.0 mm 0.00 in0.0 mm 0.00 in0.0 mm
03:36 AM -18.2°F-27.9°C -21.4°F-29.7°C 85% 5.0 mph W8.0 kmh W -- 30.41 in1029.8 mb 0.00 in0.0 mm 0.00 in0.0 mm 0.00 in0.0 mm
03:37 AM -18.3°F-27.9°C -21.4°F-29.7°C 85% 6.0 mph WNW9.7 kmh WNW -- 30.41 in1029.8 mb 0.00 in0.0 mm 0.00 in0.0 mm 0.00 in0.0 mm
03:38 AM -18.3°F-27.9°C -21.4°F-29.7°C 85% 5.0 mph W8.0 kmh W -- 30.41 in1029.8 mb 0.00 in0.0 mm 0.00 in0.0 mm 0.00 in0.0 mm
03:39 AM -18.6°F-28.1°C -21.7°F-29.8°C 85% 10.0 mph W16.1 kmh W -- 30.41 in1029.8 mb 0.00 in0.0 mm 0.00 in0.0 mm 0.00 in0.0 mm
03:40 AM -18.6°F-28.1°C -21.7°F-29.8°C 85% 9.0 mph WNW14.5 kmh WNW -- 30.41 in1029.8 mb 0.00 in0.0 mm 0.00 in0.0 mm 0.00 in0.0 mm
03:41 AM -18.6°F-28.1°C -21.7°F-29.8°C 85% 8.0 mph W12.9 kmh W -- 30.41 in1029.8 mb 0.00 in0.0 mm 0.00 in0.0 mm 0.00 in0.0 mm
03:42 AM -18.6°F-28.1°C -21.7°F-29.8°C 85% 7.0 mph WNW11.3 kmh WNW -- 30.41 in1029.8 mb 0.00 in0.0 mm 0.00 in0.0 mm 0.00 in0.0 mm
03:43 AM -18.6°F-28.1°C -21.7°F-29.8°C 85% 8.0 mph WNW12.9 kmh WNW -- 30.41 in1029.8 mb 0.00 in0.0 mm 0.00 in0.0 mm 0.00 in0.0 mm
03:44 AM -18.7°F-28.2°C -21.9°F-29.9°C 85% 6.0 mph W9.7 kmh W -- 30.41 in1029.8 mb 0.00 in0.0 mm 0.00 in0.0 mm 0.00 in0.0 mm
03:45 AM -18.7°F-28.2°C -21.9°F-29.9°C 85% 7.0 mph WNW11.3 kmh WNW -- 30.41 in1029.8 mb 0.00 in0.0 mm 0.00 in0.0 mm 0.00 in0.0 mm
03:46 AM -18.7°F-28.2°C -21.9°F-29.9°C 85% 9.0 mph WSW14.5 kmh WSW -- 30.41 in1029.8 mb 0.00 in0.0 mm 0.00 in0.0 mm 0.00 in0.0 mm
03:47 AM -18.7°F-28.2°C -21.9°F-29.9°C 85% 7.0 mph SW11.3 kmh SW -- 30.41 in1029.8 mb 0.00 in0.0 mm 0.00 in0.0 mm 0.00 in0.0 mm
03:48 AM -18.7°F-28.2°C -21.9°F-29.9°C 85% 9.0 mph W14.5 kmh W -- 30.42 in1030.1 mb 0.00 in0.0 mm 0.00 in0.0 mm 0.00 in0.0 mm
03:49 AM -18.8°F-28.2°C -21.9°F-29.9°C 85% 6.0 mph W9.7 kmh W -- 30.42 in1030.1 mb 0.00 in0.0 mm 0.00 in0.0 mm 0.00 in0.0 mm
03:52 AM -18.8°F-28.2°C -21.9°F-29.9°C 85% 5.0 mph W8.0 kmh W -- 30.42 in1030.1 mb 0.00 in0.0 mm 0.00 in0.0 mm 0.00 in0.0 mm
03:54 AM -18.8°F-28.2°C -21.9°F-29.9°C 85% 6.0 mph WNW9.7 kmh WNW -- 30.42 in1030.1 mb 0.00 in0.0 mm 0.00 in0.0 mm 0.00 in0.0 mm
03:55 AM -18.8°F-28.2°C -21.9°F-29.9°C 85% 3.0 mph NNW4.8 kmh NNW -- 30.41 in1029.8 mb 0.00 in0.0 mm 0.00 in0.0 mm 0.00 in0.0 mm
03:56 AM -19.1°F-28.4°C -22.2°F-30.1°C 85% 4.0 mph SW6.4 kmh SW -- 30.41 in1029.8 mb 0.00 in0.0 mm 0.00 in0.0 mm 0.00 in0.0 mm
03:57 AM -19.1°F-28.4°C -22.2°F-30.1°C 85% 5.0 mph W8.0 kmh W -- 30.42 in1030.1 mb 0.00 in0.0 mm 0.00 in0.0 mm 0.00 in0.0 mm
03:58 AM -19.1°F-28.4°C -22.2°F-30.1°C 85% 10.0 mph WNW16.1 kmh WNW -- 30.42 in1030.1 mb 0.00 in0.0 mm 0.00 in0.0 mm 0.00 in0.0 mm
03:59 AM -19.1°F-28.4°C -22.2°F-30.1°C 85% 5.0 mph WNW8.0 kmh WNW -- 30.42 in1030.1 mb 0.00 in0.0 mm 0.00 in0.0 mm 0.00 in0.0 mm
04:00 AM -19.1°F-28.4°C -22.2°F-30.1°C 85% 5.0 mph W8.0 kmh W -- 30.42 in1030.1 mb 0.00 in0.0 mm 0.00 in0.0 mm 0.00 in0.0 mm
04:01 AM -19.1°F-28.4°C -22.2°F-30.1°C 85% 5.0 mph WNW8.0 kmh WNW -- 30.41 in1029.8 mb 0.00 in0.0 mm 0.00 in0.0 mm 0.00 in0.0 mm
04:02 AM -19.2°F-28.4°C -22.2°F-30.1°C 85% 7.0 mph W11.3 kmh W -- 30.42 in1030.1 mb 0.00 in0.0 mm 0.00 in0.0 mm 0.00 in0.0 mm
04:03 AM -19.2°F-28.4°C -22.2°F-30.1°C 85% 7.0 mph WNW11.3 kmh WNW -- 30.42 in1030.1 mb 0.00 in0.0 mm 0.00 in0.0 mm 0.00 in0.0 mm
04:04 AM -19.2°F-28.4°C -22.2°F-30.1°C 85% 4.0 mph WSW6.4 kmh WSW -- 30.42 in1030.1 mb 0.00 in0.0 mm 0.00 in0.0 mm 0.00 in0.0 mm
04:05 AM -19.2°F-28.4°C -22.2°F-30.1°C 85% 7.0 mph W11.3 kmh W -- 30.42 in1030.1 mb 0.00 in0.0 mm 0.00 in0.0 mm 0.00 in0.0 mm
04:06 AM -19.2°F-28.4°C -22.2°F-30.1°C 85% 8.0 mph W12.9 kmh W -- 30.41 in1029.8 mb 0.00 in0.0 mm 0.00 in0.0 mm 0.00 in0.0 mm
04:07 AM -19.2°F-28.4°C -22.2°F-30.1°C 85% 8.0 mph SW12.9 kmh SW -- 30.41 in1029.8 mb 0.00 in0.0 mm 0.00 in0.0 mm 0.00 in0.0 mm
04:08 AM -19.2°F-28.4°C -22.2°F-30.1°C 85% 6.0 mph W9.7 kmh W -- 30.41 in1029.8 mb 0.00 in0.0 mm 0.00 in0.0 mm 0.00 in0.0 mm
04:09 AM -19.2°F-28.4°C -22.2°F-30.1°C 85% 4.0 mph WSW6.4 kmh WSW -- 30.41 in1029.8 mb 0.00 in0.0 mm 0.00 in0.0 mm 0.00 in0.0 mm
04:10 AM -19.2°F-28.4°C -22.2°F-30.1°C 85% 6.0 mph WNW9.7 kmh WNW -- 30.41 in1029.8 mb 0.00 in0.0 mm 0.00 in0.0 mm 0.00 in0.0 mm
04:11 AM -19.5°F-28.6°C -22.6°F-30.3°C 85% 5.0 mph WNW8.0 kmh WNW -- 30.41 in1029.8 mb 0.00 in0.0 mm 0.00 in0.0 mm 0.00 in0.0 mm
04:12 AM -19.5°F-28.6°C -22.6°F-30.3°C 85% 6.0 mph W9.7 kmh W -- 30.42 in1030.1 mb 0.00 in0.0 mm 0.00 in0.0 mm 0.00 in0.0 mm
04:13 AM -19.5°F-28.6°C -22.6°F-30.3°C 85% 5.0 mph W8.0 kmh W -- 30.42 in1030.1 mb 0.00 in0.0 mm 0.00 in0.0 mm 0.00 in0.0 mm
04:14 AM -19.5°F-28.6°C -22.6°F-30.3°C 85% 7.0 mph W11.3 kmh W -- 30.42 in1030.1 mb 0.00 in0.0 mm 0.00 in0.0 mm 0.00 in0.0 mm
04:15 AM -19.5°F-28.6°C -22.6°F-30.3°C 85% 8.0 mph WNW12.9 kmh WNW -- 30.41 in1029.8 mb 0.00 in0.0 mm 0.00 in0.0 mm 0.00 in0.0 mm
04:16 AM -19.5°F-28.6°C -22.6°F-30.3°C 85% 7.0 mph WNW11.3 kmh WNW -- 30.42 in1030.1 mb 0.00 in0.0 mm 0.00 in0.0 mm 0.00 in0.0 mm
04:17 AM -19.7°F-28.7°C -22.8°F-30.4°C 85% 4.0 mph W6.4 kmh W -- 30.41 in1029.8 mb 0.00 in0.0 mm 0.00 in0.0 mm 0.00 in0.0 mm
04:18 AM -19.7°F-28.7°C -22.8°F-30.4°C 85% 9.0 mph W14.5 kmh W -- 30.41 in1029.8 mb 0.00 in0.0 mm 0.00 in0.0 mm 0.00 in0.0 mm
04:19 AM -19.7°F-28.7°C -22.8°F-30.4°C 85% 6.0 mph WNW9.7 kmh WNW -- 30.41 in1029.8 mb 0.00 in0.0 mm 0.00 in0.0 mm 0.00 in0.0 mm
04:20 AM -19.7°F-28.7°C -22.8°F-30.4°C 85% 6.0 mph NW9.7 kmh NW -- 30.42 in1030.1 mb 0.00 in0.0 mm 0.00 in0.0 mm 0.00 in0.0 mm
04:21 AM -19.7°F-28.7°C -22.8°F-30.4°C 85% 5.0 mph WNW8.0 kmh WNW -- 30.42 in1030.1 mb 0.00 in0.0 mm 0.00 in0.0 mm 0.00 in0.0 mm
04:22 AM -19.7°F-28.7°C -22.8°F-30.4°C 85% 4.0 mph WNW6.4 kmh WNW -- 30.41 in1029.8 mb 0.00 in0.0 mm 0.00 in0.0 mm 0.00 in0.0 mm
04:23 AM -19.7°F-28.7°C -22.8°F-30.4°C 85% 7.0 mph WNW11.3 kmh WNW -- 30.42 in1030.1 mb 0.00 in0.0 mm 0.00 in0.0 mm 0.00 in0.0 mm
04:24 AM -19.7°F-28.7°C -22.8°F-30.4°C 85% 6.0 mph W9.7 kmh W -- 30.42 in1030.1 mb 0.00 in0.0 mm 0.00 in0.0 mm 0.00 in0.0 mm
04:26 AM -19.7°F-28.7°C -22.8°F-30.4°C 85% 7.0 mph W11.3 kmh W -- 30.42 in1030.1 mb 0.00 in0.0 mm 0.00 in0.0 mm 0.00 in0.0 mm
04:27 AM -19.7°F-28.7°C -22.8°F-30.4°C 85% 5.0 mph WNW8.0 kmh WNW -- 30.41 in1029.8 mb 0.00 in0.0 mm 0.00 in0.0 mm 0.00 in0.0 mm
04:28 AM -19.7°F-28.7°C -22.8°F-30.4°C 85% 4.0 mph WSW6.4 kmh WSW -- 30.41 in1029.8 mb 0.00 in0.0 mm 0.00 in0.0 mm 0.00 in0.0 mm
04:29 AM -19.7°F-28.7°C -22.8°F-30.4°C 85% 5.0 mph WSW8.0 kmh WSW -- 30.41 in1029.8 mb 0.00 in0.0 mm 0.00 in0.0 mm 0.00 in0.0 mm
04:30 AM -19.7°F-28.7°C -22.8°F-30.4°C 85% 4.0 mph WNW6.4 kmh WNW -- 30.42 in1030.1 mb 0.00 in0.0 mm 0.00 in0.0 mm 0.00 in0.0 mm
04:32 AM -19.7°F-28.7°C -22.8°F-30.4°C 85% 5.0 mph WNW8.0 kmh WNW -- 30.42 in1030.1 mb 0.00 in0.0 mm 0.00 in0.0 mm 0.00 in0.0 mm
04:33 AM -19.7°F-28.7°C -22.8°F-30.4°C 85% 4.0 mph SW6.4 kmh SW -- 30.42 in1030.1 mb 0.00 in0.0 mm 0.00 in0.0 mm 0.00 in0.0 mm
04:34 AM -19.7°F-28.7°C -22.8°F-30.4°C 85% 6.0 mph WNW9.7 kmh WNW -- 30.42 in1030.1 mb 0.00 in0.0 mm 0.00 in0.0 mm 0.00 in0.0 mm
04:35 AM -19.7°F-28.7°C -22.8°F-30.4°C 85% 5.0 mph W8.0 kmh W -- 30.41 in1029.8 mb 0.00 in0.0 mm 0.00 in0.0 mm 0.00 in0.0 mm
04:36 AM -19.7°F-28.7°C -22.8°F-30.4°C 85% 7.0 mph NW11.3 kmh NW -- 30.42 in1030.1 mb 0.00 in0.0 mm 0.00 in0.0 mm 0.00 in0.0 mm
04:37 AM -19.7°F-28.7°C -22.8°F-30.4°C 85% 8.0 mph W12.9 kmh W -- 30.41 in1029.8 mb 0.00 in0.0 mm 0.00 in0.0 mm 0.00 in0.0 mm
04:38 AM -19.7°F-28.7°C -22.8°F-30.4°C 85% 5.0 mph W8.0 kmh W -- 30.41 in1029.8 mb 0.00 in0.0 mm 0.00 in0.0 mm 0.00 in0.0 mm
04:39 AM -19.7°F-28.7°C -22.8°F-30.4°C 85% 7.0 mph W11.3 kmh W -- 30.41 in1029.8 mb 0.00 in0.0 mm 0.00 in0.0 mm 0.00 in0.0 mm
04:40 AM -19.7°F-28.7°C -22.8°F-30.4°C 85% 5.0 mph W8.0 kmh W -- 30.42 in1030.1 mb 0.00 in0.0 mm 0.00 in0.0 mm 0.00 in0.0 mm
04:41 AM -19.7°F-28.7°C -22.8°F-30.4°C 85% 5.0 mph WNW8.0 kmh WNW -- 30.42 in1030.1 mb 0.00 in0.0 mm 0.00 in0.0 mm 0.00 in0.0 mm
04:42 AM -19.7°F-28.7°C -22.8°F-30.4°C 85% 4.0 mph W6.4 kmh W -- 30.42 in1030.1 mb 0.00 in0.0 mm 0.00 in0.0 mm 0.00 in0.0 mm
04:43 AM -19.7°F-28.7°C -22.8°F-30.4°C 85% 7.0 mph NW11.3 kmh NW -- 30.41 in1029.8 mb 0.00 in0.0 mm 0.00 in0.0 mm 0.00 in0.0 mm
04:44 AM -19.7°F-28.7°C -22.8°F-30.4°C 85% 6.0 mph WNW9.7 kmh WNW -- 30.41 in1029.8 mb 0.00 in0.0 mm 0.00 in0.0 mm 0.00 in0.0 mm
04:45 AM -19.7°F-28.7°C -22.8°F-30.4°C 85% 4.0 mph WSW6.4 kmh WSW -- 30.41 in1029.8 mb 0.00 in0.0 mm 0.00 in0.0 mm 0.00 in0.0 mm
04:46 AM -19.7°F-28.7°C -22.8°F-30.4°C 85% 4.0 mph WNW6.4 kmh WNW -- 30.41 in1029.8 mb 0.00 in0.0 mm 0.00 in0.0 mm 0.00 in0.0 mm
04:47 AM -19.8°F-28.8°C -23.0°F-30.6°C 85% 6.0 mph WNW9.7 kmh WNW -- 30.41 in1029.8 mb 0.00 in0.0 mm 0.00 in0.0 mm 0.00 in0.0 mm
04:48 AM -19.7°F-28.7°C -22.8°F-30.4°C 85% 2.0 mph W3.2 kmh W -- 30.41 in1029.8 mb 0.00 in0.0 mm 0.00 in0.0 mm 0.00 in0.0 mm
04:49 AM -19.7°F-28.7°C -22.8°F-30.4°C 85% 4.0 mph WNW6.4 kmh WNW -- 30.41 in1029.8 mb 0.00 in0.0 mm 0.00 in0.0 mm 0.00 in0.0 mm
04:51 AM -19.7°F-28.7°C -22.8°F-30.4°C 85% 3.0 mph W4.8 kmh W -- 30.41 in1029.8 mb 0.00 in0.0 mm 0.00 in0.0 mm 0.00 in0.0 mm
04:52 AM -19.7°F-28.7°C -22.8°F-30.4°C 85% 4.0 mph WNW6.4 kmh WNW -- 30.41 in1029.8 mb 0.00 in0.0 mm 0.00 in0.0 mm 0.00 in0.0 mm
04:53 AM -19.7°F-28.7°C -22.8°F-30.4°C 85% 4.0 mph W6.4 kmh W -- 30.42 in1030.1 mb 0.00 in0.0 mm 0.00 in0.0 mm 0.00 in0.0 mm
04:54 AM -19.7°F-28.7°C -22.8°F-30.4°C 85% 4.0 mph NNW6.4 kmh NNW -- 30.42 in1030.1 mb 0.00 in0.0 mm 0.00 in0.0 mm 0.00 in0.0 mm
04:55 AM -19.7°F-28.7°C -22.8°F-30.4°C 85% 6.0 mph WNW9.7 kmh WNW -- 30.41 in1029.8 mb 0.00 in0.0 mm 0.00 in0.0 mm 0.00 in0.0 mm
04:56 AM -19.7°F-28.7°C -22.8°F-30.4°C 85% 3.0 mph WNW4.8 kmh WNW -- 30.41 in1029.8 mb 0.00 in0.0 mm 0.00 in0.0 mm 0.00 in0.0 mm
04:57 AM -19.7°F-28.7°C -22.6°F-30.3°C 86% 7.0 mph W11.3 kmh W -- 30.41 in1029.8 mb 0.00 in0.0 mm 0.00 in0.0 mm 0.00 in0.0 mm
04:58 AM -19.7°F-28.7°C -22.6°F-30.3°C 86% 5.0 mph WNW8.0 kmh WNW -- 30.42 in1030.1 mb 0.00 in0.0 mm 0.00 in0.0 mm 0.00 in0.0 mm
04:59 AM -19.7°F-28.7°C -22.6°F-30.3°C 86% 4.0 mph W6.4 kmh W -- 30.42 in1030.1 mb 0.00 in0.0 mm 0.00 in0.0 mm 0.00 in0.0 mm
05:01 AM -19.7°F-28.7°C -22.6°F-30.3°C 86% 5.0 mph W8.0 kmh W -- 30.42 in1030.1 mb 0.00 in0.0 mm 0.00 in0.0 mm 0.00 in0.0 mm
05:02 AM -19.7°F-28.7°C -22.6°F-30.3°C 86% 6.0 mph W9.7 kmh W -- 30.42 in1030.1 mb 0.00 in0.0 mm 0.00 in0.0 mm 0.00 in0.0 mm
05:03 AM -19.7°F-28.7°C -22.6°F-30.3°C 86% 5.0 mph WNW8.0 kmh WNW -- 30.42 in1030.1 mb 0.00 in0.0 mm 0.00 in0.0 mm 0.00 in0.0 mm
05:04 AM -19.7°F-28.7°C -22.6°F-30.3°C 86% 6.0 mph WNW9.7 kmh WNW -- 30.42 in1030.1 mb 0.00 in0.0 mm 0.00 in0.0 mm 0.00 in0.0 mm
05:05 AM -19.7°F-28.7°C -22.6°F-30.3°C 86% 5.0 mph WNW8.0 kmh WNW -- 30.42 in1030.1 mb 0.00 in0.0 mm 0.00 in0.0 mm 0.00 in0.0 mm
05:07 AM -19.7°F-28.7°C -22.6°F-30.3°C 86% 4.0 mph WNW6.4 kmh WNW -- 30.42 in1030.1 mb 0.00 in0.0 mm 0.00 in0.0 mm 0.00 in0.0 mm
05:08 AM -19.7°F-28.7°C -22.6°F-30.3°C 86% 5.0 mph W8.0 kmh W -- 30.42 in1030.1 mb 0.00 in0.0 mm 0.00 in0.0 mm 0.00 in0.0 mm
05:09 AM -19.7°F-28.7°C -22.6°F-30.3°C 86% 5.0 mph WNW8.0 kmh WNW -- 30.41 in1029.8 mb 0.00 in0.0 mm 0.00 in0.0 mm 0.00 in0.0 mm
05:10 AM -20.0°F-28.9°C -22.9°F-30.5°C 86% 3.0 mph WNW4.8 kmh WNW -- 30.42 in1030.1 mb 0.00 in0.0 mm 0.00 in0.0 mm 0.00 in0.0 mm
05:11 AM -20.0°F-28.9°C -22.9°F-30.5°C 86% 4.0 mph WNW6.4 kmh WNW -- 30.41 in1029.8 mb 0.00 in0.0 mm 0.00 in0.0 mm 0.00 in0.0 mm
05:12 AM -20.0°F-28.9°C -22.9°F-30.5°C 86% 3.0 mph W4.8 kmh W -- 30.42 in1030.1 mb 0.00 in0.0 mm 0.00 in0.0 mm 0.00 in0.0 mm
05:13 AM -20.0°F-28.9°C -22.9°F-30.5°C 86% 5.0 mph WNW8.0 kmh WNW -- 30.42 in1030.1 mb 0.00 in0.0 mm 0.00 in0.0 mm 0.00 in0.0 mm
05:14 AM -20.0°F-28.9°C -22.9°F-30.5°C 86% 4.0 mph WNW6.4 kmh WNW -- 30.42 in1030.1 mb 0.00 in0.0 mm 0.00 in0.0 mm 0.00 in0.0 mm
05:16 AM -20.0°F-28.9°C -22.9°F-30.5°C 86% 5.0 mph W8.0 kmh W -- 30.42 in1030.1 mb 0.00 in0.0 mm 0.00 in0.0 mm 0.00 in0.0 mm
05:17 AM -20.0°F-28.9°C -22.9°F-30.5°C 86% 5.0 mph WNW8.0 kmh WNW -- 30.42 in1030.1 mb 0.00 in0.0 mm 0.00 in0.0 mm 0.00 in0.0 mm
05:18 AM -20.0°F-28.9°C -22.9°F-30.5°C 86% 5.0 mph W8.0 kmh W -- 30.42 in1030.1 mb 0.00 in0.0 mm 0.00 in0.0 mm 0.00 in0.0 mm
05:19 AM -20.0°F-28.9°C -22.9°F-30.5°C 86% 4.0 mph W6.4 kmh W -- 30.42 in1030.1 mb 0.00 in0.0 mm 0.00 in0.0 mm 0.00 in0.0 mm
05:21 AM -20.0°F-28.9°C -22.9°F-30.5°C 86% 3.0 mph W4.8 kmh W -- 30.42 in1030.1 mb 0.00 in0.0 mm 0.00 in0.0 mm 0.00 in0.0 mm
05:22 AM -20.0°F-28.9°C -22.9°F-30.5°C 86% 6.0 mph W9.7 kmh W -- 30.42 in1030.1 mb 0.00 in0.0 mm 0.00 in0.0 mm 0.00 in0.0 mm
05:23 AM -20.1°F-28.9°C -22.9°F-30.5°C 86% 5.0 mph W8.0 kmh W -- 30.43 in1030.5 mb 0.00 in0.0 mm 0.00 in0.0 mm 0.00 in0.0 mm
05:24 AM -20.1°F-28.9°C -22.9°F-30.5°C 86% 5.0 mph WNW8.0 kmh WNW -- 30.43 in1030.5 mb 0.00 in0.0 mm 0.00 in0.0 mm 0.00 in0.0 mm
05:25 AM -20.1°F-28.9°C -22.9°F-30.5°C 86% 5.0 mph W8.0 kmh W -- 30.42 in1030.1 mb 0.00 in0.0 mm 0.00 in0.0 mm 0.00 in0.0 mm
05:26 AM -20.1°F-28.9°C -22.9°F-30.5°C 86% 7.0 mph W11.3 kmh W -- 30.42 in1030.1 mb 0.00 in0.0 mm 0.00 in0.0 mm 0.00 in0.0 mm
05:27 AM -20.1°F-28.9°C -22.9°F-30.5°C 86% 4.0 mph WNW6.4 kmh WNW -- 30.43 in1030.5 mb 0.00 in0.0 mm 0.00 in0.0 mm 0.00 in0.0 mm
05:28 AM -20.1°F-28.9°C -22.9°F-30.5°C 86% 5.0 mph WNW8.0 kmh WNW -- 30.42 in1030.1 mb 0.00 in0.0 mm 0.00 in0.0 mm 0.00 in0.0 mm
05:29 AM -20.1°F-28.9°C -22.9°F-30.5°C 86% 5.0 mph WSW8.0 kmh WSW -- 30.43 in1030.5 mb 0.00 in0.0 mm 0.00 in0.0 mm 0.00 in0.0 mm
05:30 AM -20.1°F-28.9°C -22.9°F-30.5°C 86% 4.0 mph WNW6.4 kmh WNW -- 30.42 in1030.1 mb 0.00 in0.0 mm 0.00 in0.0 mm 0.00 in0.0 mm
05:31 AM -20.1°F-28.9°C -22.9°F-30.5°C 86% 6.0 mph WNW9.7 kmh WNW -- 30.42 in1030.1 mb 0.00 in0.0 mm 0.00 in0.0 mm 0.00 in0.0 mm
05:32 AM -20.1°F-28.9°C -22.9°F-30.5°C 86% 6.0 mph W9.7 kmh W -- 30.42 in1030.1 mb 0.00 in0.0 mm 0.00 in0.0 mm 0.00 in0.0 mm
05:34 AM -20.0°F-28.9°C -22.9°F-30.5°C 86% 4.0 mph W6.4 kmh W -- 30.42 in1030.1 mb 0.00 in0.0 mm 0.00 in0.0 mm 0.00 in0.0 mm
05:35 AM -20.0°F-28.9°C -22.9°F-30.5°C 86% 4.0 mph W6.4 kmh W -- 30.43 in1030.5 mb 0.00 in0.0 mm 0.00 in0.0 mm 0.00 in0.0 mm
05:36 AM -20.0°F-28.9°C -22.9°F-30.5°C 86% 5.0 mph W8.0 kmh W -- 30.43 in1030.5 mb 0.00 in0.0 mm 0.00 in0.0 mm 0.00 in0.0 mm
05:38 AM -20.0°F-28.9°C -22.9°F-30.5°C 86% 4.0 mph W6.4 kmh W -- 30.43 in1030.5 mb 0.00 in0.0 mm 0.00 in0.0 mm 0.00 in0.0 mm
05:39 AM -20.0°F-28.9°C -22.9°F-30.5°C 86% 5.0 mph W8.0 kmh W -- 30.43 in1030.5 mb 0.00 in0.0 mm 0.00 in0.0 mm 0.00 in0.0 mm
05:40 AM -20.1°F-28.9°C -22.9°F-30.5°C 86% 5.0 mph W8.0 kmh W -- 30.43 in1030.5 mb 0.00 in0.0 mm 0.00 in0.0 mm 0.00 in0.0 mm
05:41 AM -20.1°F-28.9°C -22.9°F-30.5°C 86% 4.0 mph W6.4 kmh W -- 30.44 in1030.8 mb 0.00 in0.0 mm 0.00 in0.0 mm 0.00 in0.0 mm
05:42 AM -20.3°F-29.1°C -23.3°F-30.7°C 86% 3.0 mph W4.8 kmh W -- 30.43 in1030.5 mb 0.00 in0.0 mm 0.00 in0.0 mm 0.00 in0.0 mm
05:43 AM -20.5°F-29.2°C -23.7°F-30.9°C 85% 4.0 mph WNW6.4 kmh WNW -- 30.43 in1030.5 mb 0.00 in0.0 mm 0.00 in0.0 mm 0.00 in0.0 mm
05:44 AM -20.5°F-29.2°C -23.7°F-30.9°C 85% 3.0 mph W4.8 kmh W -- 30.43 in1030.5 mb 0.00 in0.0 mm 0.00 in0.0 mm 0.00 in0.0 mm
05:45 AM -20.5°F-29.2°C -23.7°F-30.9°C 85% 4.0 mph W6.4 kmh W -- 30.43 in1030.5 mb 0.00 in0.0 mm 0.00 in0.0 mm 0.00 in0.0 mm
05:46 AM -20.7°F-29.3°C -23.8°F-31.0°C 85% 3.0 mph W4.8 kmh W -- 30.43 in1030.5 mb 0.00 in0.0 mm 0.00 in0.0 mm 0.00 in0.0 mm
05:47 AM -20.8°F-29.3°C -23.8°F-31.0°C 85% 3.0 mph W4.8 kmh W -- 30.43 in1030.5 mb 0.00 in0.0 mm 0.00 in0.0 mm 0.00 in0.0 mm
05:48 AM -20.8°F-29.3°C -23.8°F-31.0°C 85% 2.0 mph W3.2 kmh W -- 30.43 in1030.5 mb 0.00 in0.0 mm 0.00 in0.0 mm 0.00 in0.0 mm
05:49 AM -20.8°F-29.3°C -23.8°F-31.0°C 85% 2.0 mph WNW3.2 kmh WNW -- 30.43 in1030.5 mb 0.00 in0.0 mm 0.00 in0.0 mm 0.00 in0.0 mm
05:50 AM -21.1°F-29.5°C -24.2°F-31.2°C 85% 3.0 mph W4.8 kmh W -- 30.43 in1030.5 mb 0.00 in0.0 mm 0.00 in0.0 mm 0.00 in0.0 mm
05:51 AM -21.1°F-29.5°C -24.2°F-31.2°C 85% 5.0 mph W8.0 kmh W -- 30.43 in1030.5 mb 0.00 in0.0 mm 0.00 in0.0 mm 0.00 in0.0 mm
05:52 AM -21.1°F-29.5°C -24.2°F-31.2°C 85% 4.0 mph W6.4 kmh W -- 30.43 in1030.5 mb 0.00 in0.0 mm 0.00 in0.0 mm 0.00 in0.0 mm
05:53 AM -21.1°F-29.5°C -24.2°F-31.2°C 85% 3.0 mph WNW4.8 kmh WNW -- 30.43 in1030.5 mb 0.00 in0.0 mm 0.00 in0.0 mm 0.00 in0.0 mm
05:54 AM -21.2°F-29.6°C -24.4°F-31.3°C 85% 3.0 mph W4.8 kmh W -- 30.44 in1030.8 mb 0.00 in0.0 mm 0.00 in0.0 mm 0.00 in0.0 mm
05:55 AM -21.2°F-29.6°C -24.4°F-31.3°C 85% 3.0 mph W4.8 kmh W -- 30.43 in1030.5 mb 0.00 in0.0 mm 0.00 in0.0 mm 0.00 in0.0 mm
05:56 AM -21.2°F-29.6°C -24.4°F-31.3°C 85% 4.0 mph W6.4 kmh W -- 30.43 in1030.5 mb 0.00 in0.0 mm 0.00 in0.0 mm 0.00 in0.0 mm
05:58 AM -21.2°F-29.6°C -24.4°F-31.3°C 85% 3.0 mph W4.8 kmh W -- 30.43 in1030.5 mb 0.00 in0.0 mm 0.00 in0.0 mm 0.00 in0.0 mm
05:59 AM -21.2°F-29.6°C -24.4°F-31.3°C 85% 4.0 mph W6.4 kmh W -- 30.43 in1030.5 mb 0.00 in0.0 mm 0.00 in0.0 mm 0.00 in0.0 mm
06:00 AM -21.2°F-29.6°C -24.4°F-31.3°C 85% 5.0 mph W8.0 kmh W -- 30.44 in1030.8 mb 0.00 in0.0 mm 0.00 in0.0 mm 0.00 in0.0 mm
06:01 AM -21.2°F-29.6°C -24.4°F-31.3°C 85% 6.0 mph W9.7 kmh W -- 30.43 in1030.5 mb 0.00 in0.0 mm 0.00 in0.0 mm 0.00 in0.0 mm
06:02 AM -21.2°F-29.6°C -24.4°F-31.3°C 85% 5.0 mph W8.0 kmh W -- 30.43 in1030.5 mb 0.00 in0.0 mm 0.00 in0.0 mm 0.00 in0.0 mm
06:03 AM -21.2°F-29.6°C -24.4°F-31.3°C 85% 4.0 mph W6.4 kmh W -- 30.43 in1030.5 mb 0.00 in0.0 mm 0.00 in0.0 mm 0.00 in0.0 mm
06:07 AM -21.3°F-29.6°C -24.4°F-31.3°C 85% 4.0 mph W6.4 kmh W -- 30.43 in1030.5 mb 0.00 in0.0 mm 0.00 in0.0 mm 0.00 in0.0 mm
06:08 AM -21.5°F-29.7°C -24.5°F-31.4°C 85% 4.0 mph W6.4 kmh W -- 30.43 in1030.5 mb 0.00 in0.0 mm 0.00 in0.0 mm 0.00 in0.0 mm
06:09 AM -21.5°F-29.7°C -24.5°F-31.4°C 85% 4.0 mph W6.4 kmh W -- 30.44 in1030.8 mb 0.00 in0.0 mm 0.00 in0.0 mm 0.00 in0.0 mm
06:10 AM -21.5°F-29.7°C -24.5°F-31.4°C 85% 4.0 mph SW6.4 kmh SW -- 30.44 in1030.8 mb 0.00 in0.0 mm 0.00 in0.0 mm 0.00 in0.0 mm
06:11 AM -21.5°F-29.7°C -24.5°F-31.4°C 85% 4.0 mph W6.4 kmh W -- 30.43 in1030.5 mb 0.00 in0.0 mm 0.00 in0.0 mm 0.00 in0.0 mm
06:13 AM -21.5°F-29.7°C -24.5°F-31.4°C 85% 4.0 mph NW6.4 kmh NW -- 30.43 in1030.5 mb 0.00 in0.0 mm 0.00 in0.0 mm 0.00 in0.0 mm
06:14 AM -21.5°F-29.7°C -24.5°F-31.4°C 85% 6.0 mph WNW9.7 kmh WNW -- 30.43 in1030.5 mb 0.00 in0.0 mm 0.00 in0.0 mm 0.00 in0.0 mm
06:15 AM -21.2°F-29.6°C -24.1°F-31.2°C 86% 5.0 mph WSW8.0 kmh WSW -- 30.43 in1030.5 mb 0.00 in0.0 mm 0.00 in0.0 mm 0.00 in0.0 mm
06:16 AM -21.2°F-29.6°C -24.1°F-31.2°C 86% 3.0 mph WSW4.8 kmh WSW -- 30.43 in1030.5 mb 0.00 in0.0 mm 0.00 in0.0 mm 0.00 in0.0 mm
06:17 AM -21.2°F-29.6°C -24.1°F-31.2°C 86% 4.0 mph W6.4 kmh W -- 30.43 in1030.5 mb 0.00 in0.0 mm 0.00 in0.0 mm 0.00 in0.0 mm
06:18 AM -21.2°F-29.6°C -24.1°F-31.2°C 86% 6.0 mph W9.7 kmh W -- 30.43 in1030.5 mb 0.00 in0.0 mm 0.00 in0.0 mm 0.00 in0.0 mm
06:21 AM -21.1°F-29.5°C -24.0°F-31.1°C 86% 4.0 mph W6.4 kmh W -- 30.43 in1030.5 mb 0.00 in0.0 mm 0.00 in0.0 mm 0.00 in0.0 mm
06:22 AM -21.1°F-29.5°C -24.0°F-31.1°C 86% 5.0 mph W8.0 kmh W -- 30.43 in1030.5 mb 0.00 in0.0 mm 0.00 in0.0 mm 0.00 in0.0 mm
06:23 AM -21.1°F-29.5°C -24.0°F-31.1°C 86% 3.0 mph W4.8 kmh W -- 30.43 in1030.5 mb 0.00 in0.0 mm 0.00 in0.0 mm 0.00 in0.0 mm
06:24 AM -21.1°F-29.5°C -24.0°F-31.1°C 86% 4.0 mph W6.4 kmh W -- 30.43 in1030.5 mb 0.00 in0.0 mm 0.00 in0.0 mm 0.00 in0.0 mm
06:25 AM -21.1°F-29.5°C -24.0°F-31.1°C 86% 6.0 mph W9.7 kmh W -- 30.43 in1030.5 mb 0.00 in0.0 mm 0.00 in0.0 mm 0.00 in0.0 mm
06:26 AM -21.1°F-29.5°C -24.0°F-31.1°C 86% 5.0 mph W8.0 kmh W -- 30.43 in1030.5 mb 0.00 in0.0 mm 0.00 in0.0 mm 0.00 in0.0 mm
06:27 AM -20.8°F-29.3°C -23.6°F-30.9°C 86% 4.0 mph W6.4 kmh W -- 30.43 in1030.5 mb 0.00 in0.0 mm 0.00 in0.0 mm 0.00 in0.0 mm
06:28 AM -20.8°F-29.3°C -23.6°F-30.9°C 86% 4.0 mph W6.4 kmh W -- 30.44 in1030.8 mb 0.00 in0.0 mm 0.00 in0.0 mm 0.00 in0.0 mm
06:29 AM -20.8°F-29.3°C -23.6°F-30.9°C 86% 5.0 mph W8.0 kmh W -- 30.44 in1030.8 mb 0.00 in0.0 mm 0.00 in0.0 mm 0.00 in0.0 mm
06:31 AM -20.8°F-29.3°C -23.6°F-30.9°C 86% 4.0 mph W6.4 kmh W -- 30.44 in1030.8 mb 0.00 in0.0 mm 0.00 in0.0 mm 0.00 in0.0 mm
06:32 AM -20.8°F-29.3°C -23.6°F-30.9°C 86% 4.0 mph W6.4 kmh W -- 30.43 in1030.5 mb 0.00 in0.0 mm 0.00 in0.0 mm 0.00 in0.0 mm
06:33 AM -20.8°F-29.3°C -23.6°F-30.9°C 86% 4.0 mph WNW6.4 kmh WNW -- 30.43 in1030.5 mb 0.00 in0.0 mm 0.00 in0.0 mm 0.00 in0.0 mm
06:34 AM -20.8°F-29.3°C -23.6°F-30.9°C 86% 4.0 mph W6.4 kmh W -- 30.44 in1030.8 mb 0.00 in0.0 mm 0.00 in0.0 mm 0.00 in0.0 mm
06:35 AM -20.8°F-29.3°C -23.6°F-30.9°C 86% 5.0 mph W8.0 kmh W -- 30.44 in1030.8 mb 0.00 in0.0 mm 0.00 in0.0 mm 0.00 in0.0 mm
06:36 AM -20.7°F-29.3°C -23.6°F-30.9°C 86% 3.0 mph W4.8 kmh W -- 30.43 in1030.5 mb 0.00 in0.0 mm 0.00 in0.0 mm 0.00 in0.0 mm
06:37 AM -20.7°F-29.3°C -23.6°F-30.9°C 86% 6.0 mph WSW9.7 kmh WSW -- 30.44 in1030.8 mb 0.00 in0.0 mm 0.00 in0.0 mm 0.00 in0.0 mm
06:38 AM -20.5°F-29.2°C -23.4°F-30.8°C 86% 7.0 mph W11.3 kmh W -- 30.44 in1030.8 mb 0.00 in0.0 mm 0.00 in0.0 mm 0.00 in0.0 mm
06:39 AM -20.3°F-29.1°C -23.3°F-30.7°C 86% 6.0 mph W9.7 kmh W -- 30.44 in1030.8 mb 0.00 in0.0 mm 0.00 in0.0 mm 0.00 in0.0 mm
06:40 AM -20.1°F-28.9°C -22.9°F-30.5°C 86% 7.0 mph W11.3 kmh W -- 30.44 in1030.8 mb 0.00 in0.0 mm 0.00 in0.0 mm 0.00 in0.0 mm
06:41 AM -20.1°F-28.9°C -22.9°F-30.5°C 86% 8.0 mph W12.9 kmh W -- 30.44 in1030.8 mb 0.00 in0.0 mm 0.00 in0.0 mm 0.00 in0.0 mm
06:42 AM -20.1°F-28.9°C -22.9°F-30.5°C 86% 6.0 mph W9.7 kmh W -- 30.44 in1030.8 mb 0.00 in0.0 mm 0.00 in0.0 mm 0.00 in0.0 mm
06:43 AM -20.0°F-28.9°C -22.9°F-30.5°C 86% 9.0 mph WNW14.5 kmh WNW -- 30.44 in1030.8 mb 0.00 in0.0 mm 0.00 in0.0 mm 0.00 in0.0 mm
06:44 AM -20.0°F-28.9°C -22.9°F-30.5°C 86% 7.0 mph W11.3 kmh W -- 30.43 in1030.5 mb 0.00 in0.0 mm 0.00 in0.0 mm 0.00 in0.0 mm
06:45 AM -20.0°F-28.9°C -22.9°F-30.5°C 86% 6.0 mph W9.7 kmh W -- 30.43 in1030.5 mb 0.00 in0.0 mm 0.00 in0.0 mm 0.00 in0.0 mm
06:46 AM -19.7°F-28.7°C -22.6°F-30.3°C 86% 7.0 mph W11.3 kmh W -- 30.44 in1030.8 mb 0.00 in0.0 mm 0.00 in0.0 mm 0.00 in0.0 mm
06:47 AM -19.7°F-28.7°C -22.6°F-30.3°C 86% 6.0 mph W9.7 kmh W -- 30.43 in1030.5 mb 0.00 in0.0 mm 0.00 in0.0 mm 0.00 in0.0 mm
06:48 AM -19.7°F-28.7°C -22.6°F-30.3°C 86% 7.0 mph W11.3 kmh W -- 30.44 in1030.8 mb 0.00 in0.0 mm 0.00 in0.0 mm 0.00 in0.0 mm
06:49 AM -19.7°F-28.7°C -22.6°F-30.3°C 86% 6.0 mph W9.7 kmh W -- 30.43 in1030.5 mb 0.00 in0.0 mm 0.00 in0.0 mm 0.00 in0.0 mm
06:50 AM -19.7°F-28.7°C -22.6°F-30.3°C 86% 7.0 mph W11.3 kmh W -- 30.44 in1030.8 mb 0.00 in0.0 mm 0.00 in0.0 mm 0.00 in0.0 mm
06:51 AM -19.7°F-28.7°C -22.6°F-30.3°C 86% 5.0 mph W8.0 kmh W -- 30.45 in1031.2 mb 0.00 in0.0 mm 0.00 in0.0 mm 0.00 in0.0 mm
06:52 AM -19.7°F-28.7°C -22.6°F-30.3°C 86% 7.0 mph W11.3 kmh W -- 30.45 in1031.2 mb 0.00 in0.0 mm 0.00 in0.0 mm 0.00 in0.0 mm
06:53 AM -19.7°F-28.7°C -22.6°F-30.3°C 86% 5.0 mph W8.0 kmh W -- 30.45 in1031.2 mb 0.00 in0.0 mm 0.00 in0.0 mm 0.00 in0.0 mm
06:54 AM -19.7°F-28.7°C -22.6°F-30.3°C 86% 6.0 mph W9.7 kmh W -- 30.44 in1030.8 mb 0.00 in0.0 mm 0.00 in0.0 mm 0.00 in0.0 mm
06:57 AM -19.7°F-28.7°C -22.6°F-30.3°C 86% 5.0 mph WNW8.0 kmh WNW -- 30.45 in1031.2 mb 0.00 in0.0 mm 0.00 in0.0 mm 0.00 in0.0 mm
06:58 AM -19.7°F-28.7°C -22.6°F-30.3°C 86% 4.0 mph W6.4 kmh W -- 30.45 in1031.2 mb 0.00 in0.0 mm 0.00 in0.0 mm 0.00 in0.0 mm
06:59 AM -19.7°F-28.7°C -22.6°F-30.3°C 86% 5.0 mph W8.0 kmh W -- 30.45 in1031.2 mb 0.00 in0.0 mm 0.00 in0.0 mm 0.00 in0.0 mm
07:00 AM -19.7°F-28.7°C -22.6°F-30.3°C 86% 6.0 mph W9.7 kmh W -- 30.45 in1031.2 mb 0.00 in0.0 mm 0.00 in0.0 mm 0.00 in0.0 mm
07:01 AM -19.7°F-28.7°C -22.6°F-30.3°C 86% 5.0 mph W8.0 kmh W -- 30.45 in1031.2 mb 0.00 in0.0 mm 0.00 in0.0 mm 0.00 in0.0 mm
07:02 AM -19.7°F-28.7°C -22.6°F-30.3°C 86% 6.0 mph W9.7 kmh W -- 30.45 in1031.2 mb 0.00 in0.0 mm 0.00 in0.0 mm 0.00 in0.0 mm
07:03 AM -19.7°F-28.7°C -22.6°F-30.3°C 86% 6.0 mph WNW9.7 kmh WNW -- 30.45 in1031.2 mb 0.00 in0.0 mm 0.00 in0.0 mm 0.00 in0.0 mm
07:04 AM -19.7°F-28.7°C -22.6°F-30.3°C 86% 5.0 mph W8.0 kmh W -- 30.45 in1031.2 mb 0.00 in0.0 mm 0.00 in0.0 mm 0.00 in0.0 mm
07:06 AM -19.7°F-28.7°C -22.6°F-30.3°C 86% 8.0 mph W12.9 kmh W -- 30.45 in1031.2 mb 0.00 in0.0 mm 0.00 in0.0 mm 0.00 in0.0 mm
07:07 AM -19.8°F-28.8°C -22.7°F-30.4°C 86% 9.0 mph W14.5 kmh W -- 30.45 in1031.2 mb 0.00 in0.0 mm 0.00 in0.0 mm 0.00 in0.0 mm
07:08 AM -19.8°F-28.8°C -22.7°F-30.4°C 86% 8.0 mph W12.9 kmh W -- 30.45 in1031.2 mb 0.00 in0.0 mm 0.00 in0.0 mm 0.00 in0.0 mm
07:09 AM -19.7°F-28.7°C -22.6°F-30.3°C 86% 5.0 mph WNW8.0 kmh WNW -- 30.45 in1031.2 mb 0.00 in0.0 mm 0.00 in0.0 mm 0.00 in0.0 mm
07:10 AM -19.7°F-28.7°C -22.6°F-30.3°C 86% 6.0 mph W9.7 kmh W -- 30.45 in1031.2 mb 0.00 in0.0 mm 0.00 in0.0 mm 0.00 in0.0 mm
07:11 AM -19.7°F-28.7°C -22.6°F-30.3°C 86% 6.0 mph W9.7 kmh W -- 30.44 in1030.8 mb 0.00 in0.0 mm 0.00 in0.0 mm 0.00 in0.0 mm
07:12 AM -19.7°F-28.7°C -22.6°F-30.3°C 86% 5.0 mph W8.0 kmh W -- 30.44 in1030.8 mb 0.00 in0.0 mm 0.00 in0.0 mm 0.00 in0.0 mm
07:13 AM -19.7°F-28.7°C -22.6°F-30.3°C 86% 4.0 mph W6.4 kmh W -- 30.45 in1031.2 mb 0.00 in0.0 mm 0.00 in0.0 mm 0.00 in0.0 mm
07:14 AM -19.7°F-28.7°C -22.6°F-30.3°C 86% 7.0 mph WNW11.3 kmh WNW -- 30.45 in1031.2 mb 0.00 in0.0 mm 0.00 in0.0 mm 0.00 in0.0 mm
07:15 AM -19.7°F-28.7°C -22.6°F-30.3°C 86% 6.0 mph W9.7 kmh W -- 30.45 in1031.2 mb 0.00 in0.0 mm 0.00 in0.0 mm 0.00 in0.0 mm
07:16 AM -19.7°F-28.7°C -22.6°F-30.3°C 86% 6.0 mph WNW9.7 kmh WNW -- 30.45 in1031.2 mb 0.00 in0.0 mm 0.00 in0.0 mm 0.00 in0.0 mm
07:17 AM -19.7°F-28.7°C -22.6°F-30.3°C 86% 7.0 mph W11.3 kmh W -- 30.45 in1031.2 mb 0.00 in0.0 mm 0.00 in0.0 mm 0.00 in0.0 mm
07:18 AM -19.7°F-28.7°C -22.6°F-30.3°C 86% 7.0 mph W11.3 kmh W -- 30.44 in1030.8 mb 0.00 in0.0 mm 0.00 in0.0 mm 0.00 in0.0 mm
07:19 AM -19.7°F-28.7°C -22.6°F-30.3°C 86% 7.0 mph WNW11.3 kmh WNW -- 30.45 in1031.2 mb 0.00 in0.0 mm 0.00 in0.0 mm 0.00 in0.0 mm
07:20 AM -19.7°F-28.7°C -22.6°F-30.3°C 86% 6.0 mph W9.7 kmh W -- 30.45 in1031.2 mb 0.00 in0.0 mm 0.00 in0.0 mm 0.00 in0.0 mm
07:21 AM -19.7°F-28.7°C -22.6°F-30.3°C 86% 8.0 mph W12.9 kmh W -- 30.44 in1030.8 mb 0.00 in0.0 mm 0.00 in0.0 mm 0.00 in0.0 mm
07:22 AM -19.7°F-28.7°C -22.6°F-30.3°C 86% 7.0 mph WNW11.3 kmh WNW -- 30.44 in1030.8 mb 0.00 in0.0 mm 0.00 in0.0 mm 0.00 in0.0 mm
07:23 AM -19.7°F-28.7°C -22.6°F-30.3°C 86% 4.0 mph W6.4 kmh W -- 30.44 in1030.8 mb 0.00 in0.0 mm 0.00 in0.0 mm 0.00 in0.0 mm
07:24 AM -19.7°F-28.7°C -22.6°F-30.3°C 86% 6.0 mph W9.7 kmh W -- 30.44 in1030.8 mb 0.00 in0.0 mm 0.00 in0.0 mm 0.00 in0.0 mm
07:26 AM -19.7°F-28.7°C -22.6°F-30.3°C 86% 5.0 mph NNW8.0 kmh NNW -- 30.44 in1030.8 mb 0.00 in0.0 mm 0.00 in0.0 mm 0.00 in0.0 mm
07:27 AM -19.7°F-28.7°C -22.6°F-30.3°C 86% 8.0 mph WNW12.9 kmh WNW -- 30.44 in1030.8 mb 0.00 in0.0 mm 0.00 in0.0 mm 0.00 in0.0 mm
07:28 AM -19.7°F-28.7°C -22.6°F-30.3°C 86% 6.0 mph WSW9.7 kmh WSW -- 30.44 in1030.8 mb 0.00 in0.0 mm 0.00 in0.0 mm 0.00 in0.0 mm
07:29 AM -19.7°F-28.7°C -22.6°F-30.3°C 86% 6.0 mph W9.7 kmh W -- 30.44 in1030.8 mb 0.00 in0.0 mm 0.00 in0.0 mm 0.00 in0.0 mm
07:30 AM -19.7°F-28.7°C -22.6°F-30.3°C 86% 7.0 mph W11.3 kmh W -- 30.45 in1031.2 mb 0.00 in0.0 mm 0.00 in0.0 mm 0.00 in0.0 mm
07:31 AM -19.7°F-28.7°C -22.6°F-30.3°C 86% 6.0 mph W9.7 kmh W -- 30.45 in1031.2 mb 0.00 in0.0 mm 0.00 in0.0 mm 0.00 in0.0 mm
07:32 AM -19.7°F-28.7°C -22.6°F-30.3°C 86% 4.0 mph WNW6.4 kmh WNW -- 30.45 in1031.2 mb 0.00 in0.0 mm 0.00 in0.0 mm 0.00 in0.0 mm
07:34 AM -20.0°F-28.9°C -23.1°F-30.6°C 85% 6.0 mph W9.7 kmh W -- 30.44 in1030.8 mb 0.00 in0.0 mm 0.00 in0.0 mm 0.00 in0.0 mm
07:36 AM -20.0°F-28.9°C -23.1°F-30.6°C 85% 4.0 mph W6.4 kmh W -- 30.44 in1030.8 mb 0.00 in0.0 mm 0.00 in0.0 mm 0.00 in0.0 mm
07:37 AM -20.0°F-28.9°C -23.1°F-30.6°C 85% 5.0 mph W8.0 kmh W -- 30.44 in1030.8 mb 0.00 in0.0 mm 0.00 in0.0 mm 0.00 in0.0 mm
07:39 AM -20.0°F-28.9°C -23.1°F-30.6°C 85% 3.0 mph NW4.8 kmh NW -- 30.45 in1031.2 mb 0.00 in0.0 mm 0.00 in0.0 mm 0.00 in0.0 mm
07:40 AM -20.1°F-28.9°C -23.1°F-30.6°C 85% 5.0 mph W8.0 kmh W -- 30.44 in1030.8 mb 0.00 in0.0 mm 0.00 in0.0 mm 0.00 in0.0 mm
07:41 AM -20.1°F-28.9°C -23.1°F-30.6°C 85% 3.0 mph W4.8 kmh W -- 30.44 in1030.8 mb 0.00 in0.0 mm 0.00 in0.0 mm 0.00 in0.0 mm
07:42 AM -20.3°F-29.1°C -23.5°F-30.8°C 85% 6.0 mph W9.7 kmh W -- 30.44 in1030.8 mb 0.00 in0.0 mm 0.00 in0.0 mm 0.00 in0.0 mm
07:43 AM -20.3°F-29.1°C -23.5°F-30.8°C 85% 5.0 mph W8.0 kmh W -- 30.45 in1031.2 mb 0.00 in0.0 mm 0.00 in0.0 mm 0.00 in0.0 mm
07:44 AM -20.3°F-29.1°C -23.5°F-30.8°C 85% 4.0 mph W6.4 kmh W -- 30.44 in1030.8 mb 0.00 in0.0 mm 0.00 in0.0 mm 0.00 in0.0 mm
07:45 AM -20.3°F-29.1°C -23.5°F-30.8°C 85% 3.0 mph W4.8 kmh W -- 30.44 in1030.8 mb 0.00 in0.0 mm 0.00 in0.0 mm 0.00 in0.0 mm
07:46 AM -20.3°F-29.1°C -23.5°F-30.8°C 85% 4.0 mph W6.4 kmh W -- 30.44 in1030.8 mb 0.00 in0.0 mm 0.00 in0.0 mm 0.00 in0.0 mm
07:47 AM -20.3°F-29.1°C -23.5°F-30.8°C 85% 2.0 mph W3.2 kmh W -- 30.44 in1030.8 mb 0.00 in0.0 mm 0.00 in0.0 mm 0.00 in0.0 mm
07:48 AM -20.3°F-29.1°C -23.5°F-30.8°C 85% 4.0 mph W6.4 kmh W -- 30.44 in1030.8 mb 0.00 in0.0 mm 0.00 in0.0 mm 0.00 in0.0 mm
07:49 AM -20.5°F-29.2°C -23.7°F-30.9°C 85% 3.0 mph WNW4.8 kmh WNW -- 30.45 in1031.2 mb 0.00 in0.0 mm 0.00 in0.0 mm 0.00 in0.0 mm
07:50 AM -20.5°F-29.2°C -23.7°F-30.9°C 85% 5.0 mph WNW8.0 kmh WNW -- 30.44 in1030.8 mb 0.00 in0.0 mm 0.00 in0.0 mm 0.00 in0.0 mm
07:51 AM -20.5°F-29.2°C -23.7°F-30.9°C 85% 4.0 mph WNW6.4 kmh WNW -- 30.45 in1031.2 mb 0.00 in0.0 mm 0.00 in0.0 mm 0.00 in0.0 mm
07:52 AM -20.5°F-29.2°C -23.7°F-30.9°C 85% 6.0 mph W9.7 kmh W -- 30.44 in1030.8 mb 0.00 in0.0 mm 0.00 in0.0 mm 0.00 in0.0 mm
07:53 AM -20.5°F-29.2°C -23.7°F-30.9°C 85% 4.0 mph WNW6.4 kmh WNW -- 30.44 in1030.8 mb 0.00 in0.0 mm 0.00 in0.0 mm 0.00 in0.0 mm
07:54 AM -20.5°F-29.2°C -23.7°F-30.9°C 85% 3.0 mph WNW4.8 kmh WNW -- 30.44 in1030.8 mb 0.00 in0.0 mm 0.00 in0.0 mm 0.00 in0.0 mm
07:55 AM -20.5°F-29.2°C -23.7°F-30.9°C 85% 4.0 mph WSW6.4 kmh WSW -- 30.44 in1030.8 mb 0.00 in0.0 mm 0.00 in0.0 mm 0.00 in0.0 mm
07:56 AM -20.5°F-29.2°C -23.7°F-30.9°C 85% 4.0 mph W6.4 kmh W -- 30.43 in1030.5 mb 0.00 in0.0 mm 0.00 in0.0 mm 0.00 in0.0 mm
07:57 AM -20.6°F-29.2°C -23.7°F-30.9°C 85% 4.0 mph W6.4 kmh W -- 30.43 in1030.5 mb 0.00 in0.0 mm 0.00 in0.0 mm 0.00 in0.0 mm
07:58 AM -20.5°F-29.2°C -23.7°F-30.9°C 85% 3.0 mph W4.8 kmh W -- 30.43 in1030.5 mb 0.00 in0.0 mm 0.00 in0.0 mm 0.00 in0.0 mm
08:00 AM -20.5°F-29.2°C -23.7°F-30.9°C 85% 4.0 mph W6.4 kmh W -- 30.44 in1030.8 mb 0.00 in0.0 mm 0.00 in0.0 mm 0.00 in0.0 mm
08:01 AM -20.5°F-29.2°C -23.7°F-30.9°C 85% 2.0 mph W3.2 kmh W -- 30.44 in1030.8 mb 0.00 in0.0 mm 0.00 in0.0 mm 0.00 in0.0 mm
08:02 AM -20.6°F-29.2°C -23.7°F-30.9°C 85% 2.0 mph WNW3.2 kmh WNW -- 30.44 in1030.8 mb 0.00 in0.0 mm 0.00 in0.0 mm 0.00 in0.0 mm
08:03 AM -20.7°F-29.3°C -23.8°F-31.0°C 85% 4.0 mph WNW6.4 kmh WNW -- 30.44 in1030.8 mb 0.00 in0.0 mm 0.00 in0.0 mm 0.00 in0.0 mm
08:04 AM -20.8°F-29.3°C -23.8°F-31.0°C 85% 4.0 mph WNW6.4 kmh WNW -- 30.44 in1030.8 mb 0.00 in0.0 mm 0.00 in0.0 mm 0.00 in0.0 mm
08:05 AM -20.8°F-29.3°C -23.8°F-31.0°C 85% 5.0 mph NW8.0 kmh NW -- 30.44 in1030.8 mb 0.00 in0.0 mm 0.00 in0.0 mm 0.00 in0.0 mm
08:06 AM -20.8°F-29.3°C -23.8°F-31.0°C 85% 5.0 mph W8.0 kmh W -- 30.44 in1030.8 mb 0.00 in0.0 mm 0.00 in0.0 mm 0.00 in0.0 mm
08:07 AM -20.8°F-29.3°C -23.8°F-31.0°C 85% 4.0 mph WSW6.4 kmh WSW -- 30.44 in1030.8 mb 0.00 in0.0 mm 0.00 in0.0 mm 0.00 in0.0 mm
08:08 AM -20.8°F-29.3°C -23.8°F-31.0°C 85% 3.0 mph W4.8 kmh W -- 30.44 in1030.8 mb 0.00 in0.0 mm 0.00 in0.0 mm 0.00 in0.0 mm
08:09 AM -20.8°F-29.3°C -23.8°F-31.0°C 85% 2.0 mph W3.2 kmh W -- 30.44 in1030.8 mb 0.00 in0.0 mm 0.00 in0.0 mm 0.00 in0.0 mm
08:10 AM -21.1°F-29.5°C -24.2°F-31.2°C 85% 2.0 mph W3.2 kmh W -- 30.44 in1030.8 mb 0.00 in0.0 mm 0.00 in0.0 mm 0.00 in0.0 mm
08:11 AM -21.1°F-29.5°C -24.2°F-31.2°C 85% 5.0 mph W8.0 kmh W -- 30.44 in1030.8 mb 0.00 in0.0 mm 0.00 in0.0 mm 0.00 in0.0 mm
08:12 AM -21.1°F-29.5°C -24.2°F-31.2°C 85% 3.0 mph WNW4.8 kmh WNW -- 30.44 in1030.8 mb 0.00 in0.0 mm 0.00 in0.0 mm 0.00 in0.0 mm
08:13 AM -21.1°F-29.5°C -24.2°F-31.2°C 85% 2.0 mph WNW3.2 kmh WNW -- 30.44 in1030.8 mb 0.00 in0.0 mm 0.00 in0.0 mm 0.00 in0.0 mm
08:14 AM -21.1°F-29.5°C -24.2°F-31.2°C 85% 2.0 mph W3.2 kmh W -- 30.44 in1030.8 mb 0.00 in0.0 mm 0.00 in0.0 mm 0.00 in0.0 mm
08:16 AM -21.1°F-29.5°C -24.2°F-31.2°C 85% 2.0 mph W3.2 kmh W -- 30.45 in1031.2 mb 0.00 in0.0 mm 0.00 in0.0 mm 0.00 in0.0 mm
08:17 AM -21.1°F-29.5°C -24.2°F-31.2°C 85% 4.0 mph WNW6.4 kmh WNW -- 30.45 in1031.2 mb 0.00 in0.0 mm 0.00 in0.0 mm 0.00 in0.0 mm
08:18 AM -21.2°F-29.6°C -24.4°F-31.3°C 85% 4.0 mph W6.4 kmh W -- 30.44 in1030.8 mb 0.00 in0.0 mm 0.00 in0.0 mm 0.00 in0.0 mm
08:19 AM -21.2°F-29.6°C -24.4°F-31.3°C 85% 3.0 mph W4.8 kmh W -- 30.44 in1030.8 mb 0.00 in0.0 mm 0.00 in0.0 mm 0.00 in0.0 mm
08:20 AM -21.2°F-29.6°C -24.4°F-31.3°C 85% 3.0 mph WNW4.8 kmh WNW -- 30.44 in1030.8 mb 0.00 in0.0 mm 0.00 in0.0 mm 0.00 in0.0 mm
08:21 AM -21.2°F-29.6°C -24.4°F-31.3°C 85% 3.0 mph W4.8 kmh W -- 30.44 in1030.8 mb 0.00 in0.0 mm 0.00 in0.0 mm 0.00 in0.0 mm
08:22 AM -21.2°F-29.6°C -24.4°F-31.3°C 85% 2.0 mph W3.2 kmh W -- 30.44 in1030.8 mb 0.00 in0.0 mm 0.00 in0.0 mm 0.00 in0.0 mm
08:24 AM -21.5°F-29.7°C -24.5°F-31.4°C 85% 4.0 mph W6.4 kmh W -- 30.44 in1030.8 mb 0.00 in0.0 mm 0.00 in0.0 mm 0.00 in0.0 mm
08:27 AM -21.5°F-29.7°C -24.5°F-31.4°C 85% 3.0 mph WNW4.8 kmh WNW -- 30.44 in1030.8 mb 0.00 in0.0 mm 0.00 in0.0 mm 0.00 in0.0 mm
08:28 AM -21.5°F-29.7°C -24.5°F-31.4°C 85% 3.0 mph W4.8 kmh W -- 30.44 in1030.8 mb 0.00 in0.0 mm 0.00 in0.0 mm 0.00 in0.0 mm
08:29 AM -21.5°F-29.7°C -24.5°F-31.4°C 85% 3.0 mph WNW4.8 kmh WNW -- 30.45 in1031.2 mb 0.00 in0.0 mm 0.00 in0.0 mm 0.00 in0.0 mm
08:30 AM -21.5°F-29.7°C -24.5°F-31.4°C 85% 5.0 mph W8.0 kmh W -- 30.45 in1031.2 mb 0.00 in0.0 mm 0.00 in0.0 mm 0.00 in0.0 mm
08:31 AM -21.5°F-29.7°C -24.5°F-31.4°C 85% 4.0 mph WNW6.4 kmh WNW -- 30.44 in1030.8 mb 0.00 in0.0 mm 0.00 in0.0 mm 0.00 in0.0 mm
08:32 AM -21.5°F-29.7°C -24.5°F-31.4°C 85% 2.0 mph WNW3.2 kmh WNW -- 30.44 in1030.8 mb 0.00 in0.0 mm 0.00 in0.0 mm 0.00 in0.0 mm
08:33 AM -21.5°F-29.7°C -24.5°F-31.4°C 85% 3.0 mph W4.8 kmh W -- 30.44 in1030.8 mb 0.00 in0.0 mm 0.00 in0.0 mm 0.00 in0.0 mm
08:34 AM -21.5°F-29.7°C -24.5°F-31.4°C 85% 2.0 mph W3.2 kmh W -- 30.44 in1030.8 mb 0.00 in0.0 mm 0.00 in0.0 mm 0.00 in0.0 mm
08:35 AM -21.5°F-29.7°C -24.5°F-31.4°C 85% 3.0 mph W4.8 kmh W -- 30.45 in1031.2 mb 0.00 in0.0 mm 0.00 in0.0 mm 0.00 in0.0 mm
08:38 AM -21.5°F-29.7°C -24.5°F-31.4°C 85% 3.0 mph W4.8 kmh W -- 30.44 in1030.8 mb 0.00 in0.0 mm 0.00 in0.0 mm 0.00 in0.0 mm
08:42 AM -21.5°F-29.7°C -24.5°F-31.4°C 85% 2.0 mph W3.2 kmh W -- 30.44 in1030.8 mb 0.00 in0.0 mm 0.00 in0.0 mm 0.00 in0.0 mm
08:46 AM -21.6°F-29.8°C -24.7°F-31.5°C 85% 3.0 mph WNW4.8 kmh WNW -- 30.44 in1030.8 mb 0.00 in0.0 mm 0.00 in0.0 mm 0.00 in0.0 mm
08:47 AM -21.6°F-29.8°C -24.7°F-31.5°C 85% 5.0 mph W8.0 kmh W -- 30.44 in1030.8 mb 0.00 in0.0 mm 0.00 in0.0 mm 0.00 in0.0 mm
08:48 AM -21.6°F-29.8°C -24.7°F-31.5°C 85% 4.0 mph W6.4 kmh W -- 30.44 in1030.8 mb 0.00 in0.0 mm 0.00 in0.0 mm 0.00 in0.0 mm
08:49 AM -21.6°F-29.8°C -24.7°F-31.5°C 85% 5.0 mph W8.0 kmh W -- 30.44 in1030.8 mb 0.00 in0.0 mm 0.00 in0.0 mm 0.00 in0.0 mm
08:50 AM -21.6°F-29.8°C -24.7°F-31.5°C 85% 3.0 mph W4.8 kmh W -- 30.44 in1030.8 mb 0.00 in0.0 mm 0.00 in0.0 mm 0.00 in0.0 mm
08:51 AM -21.6°F-29.8°C -24.7°F-31.5°C 85% 4.0 mph W6.4 kmh W -- 30.44 in1030.8 mb 0.00 in0.0 mm 0.00 in0.0 mm 0.00 in0.0 mm
08:52 AM -21.6°F-29.8°C -24.7°F-31.5°C 85% 5.0 mph W8.0 kmh W -- 30.45 in1031.2 mb 0.00 in0.0 mm 0.00 in0.0 mm 0.00 in0.0 mm
08:53 AM -21.5°F-29.7°C -24.5°F-31.4°C 85% 4.0 mph W6.4 kmh W -- 30.44 in1030.8 mb 0.00 in0.0 mm 0.00 in0.0 mm 0.00 in0.0 mm
08:56 AM -21.5°F-29.7°C -24.5°F-31.4°C 85% 4.0 mph W6.4 kmh W -- 30.45 in1031.2 mb 0.00 in0.0 mm 0.00 in0.0 mm 0.00 in0.0 mm
08:57 AM -21.5°F-29.7°C -24.5°F-31.4°C 85% 5.0 mph W8.0 kmh W -- 30.44 in1030.8 mb 0.00 in0.0 mm 0.00 in0.0 mm 0.00 in0.0 mm
08:58 AM -21.5°F-29.7°C -24.5°F-31.4°C 85% 4.0 mph W6.4 kmh W -- 30.44 in1030.8 mb 0.00 in0.0 mm 0.00 in0.0 mm 0.00 in0.0 mm
08:59 AM -21.5°F-29.7°C -24.5°F-31.4°C 85% 3.0 mph W4.8 kmh W -- 30.44 in1030.8 mb 0.00 in0.0 mm 0.00 in0.0 mm 0.00 in0.0 mm
09:00 AM -21.2°F-29.6°C -24.4°F-31.3°C 85% 3.0 mph WNW4.8 kmh WNW -- 30.44 in1030.8 mb 0.00 in0.0 mm 0.00 in0.0 mm 0.00 in0.0 mm
09:01 AM -21.2°F-29.6°C -24.4°F-31.3°C 85% 2.0 mph W3.2 kmh W -- 30.44 in1030.8 mb 0.00 in0.0 mm 0.00 in0.0 mm 0.00 in0.0 mm
09:02 AM -21.2°F-29.6°C -24.4°F-31.3°C 85% 4.0 mph WNW6.4 kmh WNW -- 30.44 in1030.8 mb 0.00 in0.0 mm 0.00 in0.0 mm 0.00 in0.0 mm
09:03 AM -21.2°F-29.6°C -24.4°F-31.3°C 85% 3.0 mph W4.8 kmh W -- 30.44 in1030.8 mb 0.00 in0.0 mm 0.00 in0.0 mm 0.00 in0.0 mm
09:04 AM -21.2°F-29.6°C -24.4°F-31.3°C 85% 4.0 mph W6.4 kmh W -- 30.44 in1030.8 mb 0.00 in0.0 mm 0.00 in0.0 mm 0.00 in0.0 mm
09:05 AM -21.1°F-29.5°C -24.2°F-31.2°C 85% 4.0 mph W6.4 kmh W -- 30.44 in1030.8 mb 0.00 in0.0 mm 0.00 in0.0 mm 0.00 in0.0 mm
09:07 AM -21.1°F-29.5°C -24.2°F-31.2°C 85% 5.0 mph W8.0 kmh W -- 30.44 in1030.8 mb 0.00 in0.0 mm 0.00 in0.0 mm 0.00 in0.0 mm
09:08 AM -21.1°F-29.5°C -24.2°F-31.2°C 85% 4.0 mph W6.4 kmh W -- 30.44 in1030.8 mb 0.00 in0.0 mm 0.00 in0.0 mm 0.00 in0.0 mm
09:09 AM -20.8°F-29.3°C -23.8°F-31.0°C 85% 4.0 mph W6.4 kmh W -- 30.45 in1031.2 mb 0.00 in0.0 mm 0.00 in0.0 mm 0.00 in0.0 mm
09:10 AM -20.8°F-29.3°C -23.8°F-31.0°C 85% 3.0 mph W4.8 kmh W -- 30.45 in1031.2 mb 0.00 in0.0 mm 0.00 in0.0 mm 0.00 in0.0 mm
09:11 AM -20.8°F-29.3°C -23.8°F-31.0°C 85% 3.0 mph WNW4.8 kmh WNW -- 30.44 in1030.8 mb 0.00 in0.0 mm 0.00 in0.0 mm 0.00 in0.0 mm
09:12 AM -20.7°F-29.3°C -23.8°F-31.0°C 85% 4.0 mph W6.4 kmh W -- 30.45 in1031.2 mb 0.00 in0.0 mm 0.00 in0.0 mm 0.00 in0.0 mm
09:13 AM -20.7°F-29.3°C -23.8°F-31.0°C 85% 2.0 mph WNW3.2 kmh WNW -- 30.45 in1031.2 mb 0.00 in0.0 mm 0.00 in0.0 mm 0.00 in0.0 mm
09:14 AM -20.5°F-29.2°C -23.7°F-30.9°C 85% 3.0 mph W4.8 kmh W -- 30.44 in1030.8 mb 0.00 in0.0 mm 0.00 in0.0 mm 0.00 in0.0 mm
09:15 AM -20.5°F-29.2°C -23.7°F-30.9°C 85% 3.0 mph W4.8 kmh W -- 30.45 in1031.2 mb 0.00 in0.0 mm 0.00 in0.0 mm 0.00 in0.0 mm
09:16 AM -20.3°F-29.1°C -23.5°F-30.8°C 85% 3.0 mph W4.8 kmh W -- 30.44 in1030.8 mb 0.00 in0.0 mm 0.00 in0.0 mm 0.00 in0.0 mm
09:17 AM -20.1°F-28.9°C -23.1°F-30.6°C 85% 2.0 mph WNW3.2 kmh WNW -- 30.45 in1031.2 mb 0.00 in0.0 mm 0.00 in0.0 mm 0.00 in0.0 mm
09:18 AM -20.1°F-28.9°C -23.1°F-30.6°C 85% 2.0 mph W3.2 kmh W -- 30.44 in1030.8 mb 0.00 in0.0 mm 0.00 in0.0 mm 0.00 in0.0 mm
09:19 AM -20.1°F-28.9°C -23.1°F-30.6°C 85% 4.0 mph W6.4 kmh W -- 30.44 in1030.8 mb 0.00 in0.0 mm 0.00 in0.0 mm 0.00 in0.0 mm
09:20 AM -20.0°F-28.9°C -23.1°F-30.6°C 85% 2.0 mph WNW3.2 kmh WNW -- 30.45 in1031.2 mb 0.00 in0.0 mm 0.00 in0.0 mm 0.00 in0.0 mm
09:22 AM -19.7°F-28.7°C -22.8°F-30.4°C 85% 5.0 mph W8.0 kmh W -- 30.44 in1030.8 mb 0.00 in0.0 mm 0.00 in0.0 mm 0.00 in0.0 mm
09:23 AM -19.7°F-28.7°C -22.8°F-30.4°C 85% 3.0 mph WNW4.8 kmh WNW -- 30.45 in1031.2 mb 0.00 in0.0 mm 0.00 in0.0 mm 0.00 in0.0 mm
09:24 AM -19.7°F-28.7°C -22.8°F-30.4°C 85% 3.0 mph W4.8 kmh W -- 30.45 in1031.2 mb 0.00 in0.0 mm 0.00 in0.0 mm 0.00 in0.0 mm
09:25 AM -19.7°F-28.7°C -22.8°F-30.4°C 85% 4.0 mph W6.4 kmh W -- 30.45 in1031.2 mb 0.00 in0.0 mm 0.00 in0.0 mm 0.00 in0.0 mm
09:26 AM -19.7°F-28.7°C -22.8°F-30.4°C 85% 3.0 mph W4.8 kmh W -- 30.45 in1031.2 mb 0.00 in0.0 mm 0.00 in0.0 mm 0.00 in0.0 mm
09:27 AM -19.5°F-28.6°C -22.6°F-30.3°C 85% 2.0 mph W3.2 kmh W -- 30.45 in1031.2 mb 0.00 in0.0 mm 0.00 in0.0 mm 0.00 in0.0 mm
09:28 AM -19.5°F-28.6°C -22.6°F-30.3°C 85% 4.0 mph WNW6.4 kmh WNW -- 30.45 in1031.2 mb 0.00 in0.0 mm 0.00 in0.0 mm 0.00 in0.0 mm
09:29 AM -19.2°F-28.4°C -22.7°F-30.4°C 83% 2.0 mph WNW3.2 kmh WNW -- 30.45 in1031.2 mb 0.00 in0.0 mm 0.00 in0.0 mm 0.00 in0.0 mm
09:30 AM -19.2°F-28.4°C -22.7°F-30.4°C 83% 3.0 mph W4.8 kmh W -- 30.45 in1031.2 mb 0.00 in0.0 mm 0.00 in0.0 mm 0.00 in0.0 mm
09:31 AM -19.1°F-28.4°C -22.7°F-30.4°C 83% 2.0 mph W3.2 kmh W -- 30.44 in1030.8 mb 0.00 in0.0 mm 0.00 in0.0 mm 0.00 in0.0 mm
09:32 AM -18.8°F-28.2°C -22.3°F-30.2°C 83% 2.0 mph W3.2 kmh W -- 30.45 in1031.2 mb 0.00 in0.0 mm 0.00 in0.0 mm 0.00 in0.0 mm
09:34 AM -18.8°F-28.2°C -22.3°F-30.2°C 83% 3.0 mph W4.8 kmh W -- 30.45 in1031.2 mb 0.00 in0.0 mm 0.00 in0.0 mm 0.00 in0.0 mm
09:35 AM -18.7°F-28.2°C -22.3°F-30.2°C 83% 3.0 mph W4.8 kmh W -- 30.44 in1030.8 mb 0.00 in0.0 mm 0.00 in0.0 mm 0.00 in0.0 mm
09:36 AM -18.7°F-28.2°C -22.3°F-30.2°C 83% 3.0 mph W4.8 kmh W -- 30.45 in1031.2 mb 0.00 in0.0 mm 0.00 in0.0 mm 0.00 in0.0 mm
09:38 AM -18.7°F-28.2°C -22.3°F-30.2°C 83% 2.0 mph W3.2 kmh W -- 30.44 in1030.8 mb 0.00 in0.0 mm 0.00 in0.0 mm 0.00 in0.0 mm
09:40 AM -18.7°F-28.2°C -22.3°F-30.2°C 83% 2.0 mph WNW3.2 kmh WNW -- 30.44 in1030.8 mb 0.00 in0.0 mm 0.00 in0.0 mm 0.00 in0.0 mm
09:41 AM -18.7°F-28.2°C -22.3°F-30.2°C 83% 3.0 mph WNW4.8 kmh WNW -- 30.44 in1030.8 mb 0.00 in0.0 mm 0.00 in0.0 mm 0.00 in0.0 mm
09:42 AM -18.7°F-28.2°C -22.3°F-30.2°C 83% 3.0 mph WNW4.8 kmh WNW -- 30.45 in1031.2 mb 0.00 in0.0 mm 0.00 in0.0 mm 0.00 in0.0 mm
09:43 AM -18.7°F-28.2°C -22.3°F-30.2°C 83% 4.0 mph W6.4 kmh W -- 30.45 in1031.2 mb 0.00 in0.0 mm 0.00 in0.0 mm 0.00 in0.0 mm
09:44 AM -18.7°F-28.2°C -22.3°F-30.2°C 83% 1.0 mph W1.6 kmh W -- 30.45 in1031.2 mb 0.00 in0.0 mm 0.00 in0.0 mm 0.00 in0.0 mm
09:45 AM -18.7°F-28.2°C -22.3°F-30.2°C 83% 3.0 mph NW4.8 kmh NW -- 30.45 in1031.2 mb 0.00 in0.0 mm 0.00 in0.0 mm 0.00 in0.0 mm
09:46 AM -18.6°F-28.1°C -22.2°F-30.1°C 83% 2.0 mph W3.2 kmh W -- 30.45 in1031.2 mb 0.00 in0.0 mm 0.00 in0.0 mm 0.00 in0.0 mm
09:48 AM -18.3°F-27.9°C -21.8°F-29.9°C 83% 2.0 mph NW3.2 kmh NW -- 30.45 in1031.2 mb 0.00 in0.0 mm 0.00 in0.0 mm 0.00 in0.0 mm
09:49 AM -18.2°F-27.9°C -21.8°F-29.9°C 83% 3.0 mph W4.8 kmh W -- 30.45 in1031.2 mb 0.00 in0.0 mm 0.00 in0.0 mm 0.00 in0.0 mm
09:50 AM -17.9°F-27.7°C -21.5°F-29.7°C 83% 4.0 mph W6.4 kmh W -- 30.46 in1031.5 mb 0.00 in0.0 mm 0.00 in0.0 mm 0.00 in0.0 mm
09:51 AM -17.8°F-27.7°C -21.5°F-29.7°C 83% 1.0 mph W1.6 kmh W -- 30.45 in1031.2 mb 0.00 in0.0 mm 0.00 in0.0 mm 0.00 in0.0 mm
09:52 AM -17.7°F-27.6°C -21.3°F-29.6°C 83% 1.0 mph WNW1.6 kmh WNW -- 30.45 in1031.2 mb 0.00 in0.0 mm 0.00 in0.0 mm 0.00 in0.0 mm
09:53 AM -17.7°F-27.6°C -21.3°F-29.6°C 83% 1.0 mph W1.6 kmh W -- 30.45 in1031.2 mb 0.00 in0.0 mm 0.00 in0.0 mm 0.00 in0.0 mm
09:54 AM -17.5°F-27.5°C -21.1°F-29.5°C 83% 3.0 mph W4.8 kmh W -- 30.45 in1031.2 mb 0.00 in0.0 mm 0.00 in0.0 mm 0.00 in0.0 mm
09:56 AM -17.5°F-27.5°C -21.6°F-29.8°C 81% 3.0 mph W4.8 kmh W -- 30.45 in1031.2 mb 0.00 in0.0 mm 0.00 in0.0 mm 0.00 in0.0 mm
09:58 AM -17.5°F-27.5°C -21.6°F-29.8°C 81% 3.0 mph WNW4.8 kmh WNW -- 30.45 in1031.2 mb 0.00 in0.0 mm 0.00 in0.0 mm 0.00 in0.0 mm
09:59 AM -17.2°F-27.3°C -21.2°F-29.6°C 81% 4.0 mph WNW6.4 kmh WNW -- 30.45 in1031.2 mb 0.00 in0.0 mm 0.00 in0.0 mm 0.00 in0.0 mm
10:00 AM -17.2°F-27.3°C -21.2°F-29.6°C 81% 3.0 mph WNW4.8 kmh WNW -- 30.45 in1031.2 mb 0.00 in0.0 mm 0.00 in0.0 mm 0.00 in0.0 mm
10:01 AM -17.1°F-27.3°C -21.2°F-29.6°C 81% 3.0 mph W4.8 kmh W -- 30.45 in1031.2 mb 0.00 in0.0 mm 0.00 in0.0 mm 0.00 in0.0 mm
10:02 AM -17.0°F-27.2°C -21.1°F-29.5°C 81% 3.0 mph WNW4.8 kmh WNW -- 30.45 in1031.2 mb 0.00 in0.0 mm 0.00 in0.0 mm 0.00 in0.0 mm
10:03 AM -16.7°F-27.1°C -20.9°F-29.4°C 81% 3.0 mph W4.8 kmh W -- 30.46 in1031.5 mb 0.00 in0.0 mm 0.00 in0.0 mm 0.00 in0.0 mm
10:04 AM -16.7°F-27.1°C -20.9°F-29.4°C 81% 2.0 mph WNW3.2 kmh WNW -- 30.46 in1031.5 mb 0.00 in0.0 mm 0.00 in0.0 mm 0.00 in0.0 mm
10:05 AM -16.7°F-27.1°C -20.9°F-29.4°C 81% 2.0 mph W3.2 kmh W -- 30.46 in1031.5 mb 0.00 in0.0 mm 0.00 in0.0 mm 0.00 in0.0 mm
10:07 AM -16.4°F-26.9°C -20.5°F-29.2°C 81% 5.0 mph W8.0 kmh W -- 30.46 in1031.5 mb 0.00 in0.0 mm 0.00 in0.0 mm 0.00 in0.0 mm
10:08 AM -16.2°F-26.8°C -20.4°F-29.1°C 81% 2.0 mph W3.2 kmh W -- 30.46 in1031.5 mb 0.00 in0.0 mm 0.00 in0.0 mm 0.00 in0.0 mm
10:10 AM -15.6°F-26.4°C -19.6°F-28.7°C 81% 2.0 mph W3.2 kmh W -- 30.45 in1031.2 mb 0.00 in0.0 mm 0.00 in0.0 mm 0.00 in0.0 mm
10:11 AM -15.6°F-26.4°C -19.6°F-28.7°C 81% 4.0 mph WNW6.4 kmh WNW -- 30.45 in1031.2 mb 0.00 in0.0 mm 0.00 in0.0 mm 0.00 in0.0 mm
10:12 AM -15.4°F-26.3°C -19.5°F-28.6°C 81% 2.0 mph NW3.2 kmh NW -- 30.45 in1031.2 mb 0.00 in0.0 mm 0.00 in0.0 mm 0.00 in0.0 mm
10:13 AM -15.2°F-26.2°C -19.3°F-28.5°C 81% 3.0 mph W4.8 kmh W -- 30.45 in1031.2 mb 0.00 in0.0 mm 0.00 in0.0 mm 0.00 in0.0 mm
10:14 AM -15.0°F-26.1°C -19.1°F-28.4°C 81% 2.0 mph W3.2 kmh W -- 30.46 in1031.5 mb 0.00 in0.0 mm 0.00 in0.0 mm 0.00 in0.0 mm
10:15 AM -14.8°F-26.0°C -18.9°F-28.3°C 81% 3.0 mph W4.8 kmh W -- 30.46 in1031.5 mb 0.00 in0.0 mm 0.00 in0.0 mm 0.00 in0.0 mm
10:16 AM -14.6°F-25.9°C -18.8°F-28.2°C 81% 2.0 mph W3.2 kmh W -- 30.46 in1031.5 mb 0.00 in0.0 mm 0.00 in0.0 mm 0.00 in0.0 mm
10:17 AM -14.6°F-25.9°C -18.8°F-28.2°C 81% 2.0 mph NW3.2 kmh NW -- 30.46 in1031.5 mb 0.00 in0.0 mm 0.00 in0.0 mm 0.00 in0.0 mm
10:18 AM -14.3°F-25.7°C -18.4°F-28.0°C 81% 2.0 mph WNW3.2 kmh WNW -- 30.46 in1031.5 mb 0.00 in0.0 mm 0.00 in0.0 mm 0.00 in0.0 mm
10:19 AM -14.3°F-25.7°C -18.4°F-28.0°C 81% 2.0 mph NW3.2 kmh NW -- 30.46 in1031.5 mb 0.00 in0.0 mm 0.00 in0.0 mm 0.00 in0.0 mm
10:21 AM -14.3°F-25.7°C -18.4°F-28.0°C 81% 3.0 mph WNW4.8 kmh WNW -- 30.46 in1031.5 mb 0.00 in0.0 mm 0.00 in0.0 mm 0.00 in0.0 mm
10:22 AM -14.3°F-25.7°C -18.7°F-28.2°C 80% 3.0 mph NW4.8 kmh NW -- 30.46 in1031.5 mb 0.00 in0.0 mm 0.00 in0.0 mm 0.00 in0.0 mm
10:23 AM -14.3°F-25.7°C -18.7°F-28.2°C 80% 4.0 mph WNW6.4 kmh WNW -- 30.45 in1031.2 mb 0.00 in0.0 mm 0.00 in0.0 mm 0.00 in0.0 mm
10:24 AM -14.3°F-25.7°C -18.7°F-28.2°C 80% 2.0 mph WNW3.2 kmh WNW -- 30.46 in1031.5 mb 0.00 in0.0 mm 0.00 in0.0 mm 0.00 in0.0 mm
10:25 AM -14.3°F-25.7°C -18.7°F-28.2°C 80% 4.0 mph W6.4 kmh W -- 30.46 in1031.5 mb 0.00 in0.0 mm 0.00 in0.0 mm 0.00 in0.0 mm
10:26 AM -14.3°F-25.7°C -18.7°F-28.2°C 80% 3.0 mph W4.8 kmh W -- 30.46 in1031.5 mb 0.00 in0.0 mm 0.00 in0.0 mm 0.00 in0.0 mm
10:27 AM -14.3°F-25.7°C -18.7°F-28.2°C 80% 3.0 mph W4.8 kmh W -- 30.45 in1031.2 mb 0.00 in0.0 mm 0.00 in0.0 mm 0.00 in0.0 mm
10:28 AM -14.3°F-25.7°C -18.7°F-28.2°C 80% 2.0 mph W3.2 kmh W -- 30.45 in1031.2 mb 0.00 in0.0 mm 0.00 in0.0 mm 0.00 in0.0 mm
10:29 AM -14.3°F-25.7°C -18.7°F-28.2°C 80% 4.0 mph W6.4 kmh W -- 30.45 in1031.2 mb 0.00 in0.0 mm 0.00 in0.0 mm 0.00 in0.0 mm
10:30 AM -14.3°F-25.7°C -18.7°F-28.2°C 80% 3.0 mph W4.8 kmh W -- 30.46 in1031.5 mb 0.00 in0.0 mm 0.00 in0.0 mm 0.00 in0.0 mm
10:31 AM -14.3°F-25.7°C -18.7°F-28.2°C 80% 4.0 mph W6.4 kmh W -- 30.45 in1031.2 mb 0.00 in0.0 mm 0.00 in0.0 mm 0.00 in0.0 mm
10:32 AM -14.3°F-25.7°C -18.7°F-28.2°C 80% 3.0 mph WNW4.8 kmh WNW -- 30.45 in1031.2 mb 0.00 in0.0 mm 0.00 in0.0 mm 0.00 in0.0 mm
10:33 AM -14.1°F-25.6°C -18.5°F-28.1°C 80% 2.0 mph W3.2 kmh W -- 30.45 in1031.2 mb 0.00 in0.0 mm 0.00 in0.0 mm 0.00 in0.0 mm
10:34 AM -13.8°F-25.4°C -18.1°F-27.8°C 80% 2.0 mph W3.2 kmh W -- 30.45 in1031.2 mb 0.00 in0.0 mm 0.00 in0.0 mm 0.00 in0.0 mm
10:35 AM -13.5°F-25.3°C -18.0°F-27.8°C 80% 3.0 mph W4.8 kmh W -- 30.45 in1031.2 mb 0.00 in0.0 mm 0.00 in0.0 mm 0.00 in0.0 mm
10:36 AM -13.5°F-25.3°C -18.0°F-27.8°C 80% 2.0 mph W3.2 kmh W -- 30.45 in1031.2 mb 0.00 in0.0 mm 0.00 in0.0 mm 0.00 in0.0 mm
10:37 AM -13.3°F-25.2°C -17.8°F-27.7°C 80% 1.0 mph W1.6 kmh W -- 30.45 in1031.2 mb 0.00 in0.0 mm 0.00 in0.0 mm 0.00 in0.0 mm
10:38 AM -12.9°F-24.9°C -17.5°F-27.5°C 79% 1.0 mph W1.6 kmh W -- 30.45 in1031.2 mb 0.00 in0.0 mm 0.00 in0.0 mm 0.00 in0.0 mm
10:39 AM -12.9°F-24.9°C -17.5°F-27.5°C 79% 1.0 mph W1.6 kmh W -- 30.46 in1031.5 mb 0.00 in0.0 mm 0.00 in0.0 mm 0.00 in0.0 mm
10:40 AM -12.7°F-24.8°C -17.3°F-27.4°C 79% 3.0 mph WSW4.8 kmh WSW -- 30.45 in1031.2 mb 0.00 in0.0 mm 0.00 in0.0 mm 0.00 in0.0 mm
10:41 AM -12.5°F-24.7°C -17.2°F-27.3°C 79% 2.0 mph W3.2 kmh W -- 30.46 in1031.5 mb 0.00 in0.0 mm 0.00 in0.0 mm 0.00 in0.0 mm
10:42 AM -12.6°F-24.8°C -17.3°F-27.4°C 79% 3.0 mph W4.8 kmh W -- 30.46 in1031.5 mb 0.00 in0.0 mm 0.00 in0.0 mm 0.00 in0.0 mm
10:43 AM -12.5°F-24.7°C -17.2°F-27.3°C 79% 3.0 mph W4.8 kmh W -- 30.45 in1031.2 mb 0.00 in0.0 mm 0.00 in0.0 mm 0.00 in0.0 mm
10:44 AM -12.3°F-24.6°C -17.0°F-27.2°C 79% 4.0 mph WNW6.4 kmh WNW -- 30.45 in1031.2 mb 0.00 in0.0 mm 0.00 in0.0 mm 0.00 in0.0 mm
10:45 AM -12.3°F-24.6°C -17.0°F-27.2°C 79% 2.0 mph W3.2 kmh W -- 30.45 in1031.2 mb 0.00 in0.0 mm 0.00 in0.0 mm 0.00 in0.0 mm
10:46 AM -12.1°F-24.5°C -16.8°F-27.1°C 79% 3.0 mph W4.8 kmh W -- 30.45 in1031.2 mb 0.00 in0.0 mm 0.00 in0.0 mm 0.00 in0.0 mm
10:47 AM -11.6°F-24.2°C -16.3°F-26.8°C 79% 4.0 mph W6.4 kmh W -- 30.46 in1031.5 mb 0.00 in0.0 mm 0.00 in0.0 mm 0.00 in0.0 mm
10:48 AM -11.6°F-24.2°C -16.3°F-26.8°C 79% 5.0 mph W8.0 kmh W -- 30.45 in1031.2 mb 0.00 in0.0 mm 0.00 in0.0 mm 0.00 in0.0 mm
10:49 AM -11.8°F-24.3°C -16.5°F-26.9°C 79% 3.0 mph SW4.8 kmh SW -- 30.46 in1031.5 mb 0.00 in0.0 mm 0.00 in0.0 mm 0.00 in0.0 mm
10:50 AM -11.6°F-24.2°C -16.3°F-26.8°C 79% 3.0 mph W4.8 kmh W -- 30.45 in1031.2 mb 0.00 in0.0 mm 0.00 in0.0 mm 0.00 in0.0 mm
10:51 AM -11.6°F-24.2°C -16.3°F-26.8°C 79% 4.0 mph W6.4 kmh W -- 30.46 in1031.5 mb 0.00 in0.0 mm 0.00 in0.0 mm 0.00 in0.0 mm
10:52 AM -11.6°F-24.2°C -16.5°F-26.9°C 78% 2.0 mph W3.2 kmh W -- 30.45 in1031.2 mb 0.00 in0.0 mm 0.00 in0.0 mm 0.00 in0.0 mm
10:53 AM -11.6°F-24.2°C -16.5°F-26.9°C 78% 3.0 mph W4.8 kmh W -- 30.46 in1031.5 mb 0.00 in0.0 mm 0.00 in0.0 mm 0.00 in0.0 mm
10:54 AM -11.6°F-24.2°C -16.5°F-26.9°C 78% 4.0 mph NW6.4 kmh NW -- 30.45 in1031.2 mb 0.00 in0.0 mm 0.00 in0.0 mm 0.00 in0.0 mm
10:55 AM -11.6°F-24.2°C -16.5°F-26.9°C 78% 2.0 mph WNW3.2 kmh WNW -- 30.46 in1031.5 mb 0.00 in0.0 mm 0.00 in0.0 mm 0.00 in0.0 mm
10:56 AM -11.2°F-24.0°C -16.2°F-26.8°C 78% 2.0 mph W3.2 kmh W -- 30.45 in1031.2 mb 0.00 in0.0 mm 0.00 in0.0 mm 0.00 in0.0 mm
10:57 AM -11.0°F-23.9°C -16.0°F-26.7°C 78% 3.0 mph W4.8 kmh W -- 30.46 in1031.5 mb 0.00 in0.0 mm 0.00 in0.0 mm 0.00 in0.0 mm
10:58 AM -11.2°F-24.0°C -16.2°F-26.8°C 78% 4.0 mph WNW6.4 kmh WNW -- 30.45 in1031.2 mb 0.00 in0.0 mm 0.00 in0.0 mm 0.00 in0.0 mm
10:59 AM -11.6°F-24.2°C -17.0°F-27.2°C 76% 4.0 mph WNW6.4 kmh WNW -- 30.45 in1031.2 mb 0.00 in0.0 mm 0.00 in0.0 mm 0.00 in0.0 mm
11:00 AM -11.3°F-24.1°C -16.9°F-27.2°C 76% 1.0 mph W1.6 kmh W -- 30.45 in1031.2 mb 0.00 in0.0 mm 0.00 in0.0 mm 0.00 in0.0 mm
11:01 AM -11.0°F-23.9°C -16.5°F-26.9°C 76% 2.0 mph WNW3.2 kmh WNW -- 30.45 in1031.2 mb 0.00 in0.0 mm 0.00 in0.0 mm 0.00 in0.0 mm
11:02 AM -11.0°F-23.9°C -16.3°F-26.8°C 77% 4.0 mph WNW6.4 kmh WNW -- 30.45 in1031.2 mb 0.00 in0.0 mm 0.00 in0.0 mm 0.00 in0.0 mm
11:03 AM -10.6°F-23.7°C -16.2°F-26.8°C 76% 3.0 mph W4.8 kmh W -- 30.45 in1031.2 mb 0.00 in0.0 mm 0.00 in0.0 mm 0.00 in0.0 mm
11:04 AM -10.4°F-23.6°C -16.0°F-26.7°C 76% 4.0 mph W6.4 kmh W -- 30.45 in1031.2 mb 0.00 in0.0 mm 0.00 in0.0 mm 0.00 in0.0 mm
11:05 AM -10.4°F-23.6°C -16.0°F-26.7°C 76% 3.0 mph WNW4.8 kmh WNW -- 30.45 in1031.2 mb 0.00 in0.0 mm 0.00 in0.0 mm 0.00 in0.0 mm
11:06 AM -10.6°F-23.7°C -16.2°F-26.8°C 76% 5.0 mph W8.0 kmh W -- 30.45 in1031.2 mb 0.00 in0.0 mm 0.00 in0.0 mm 0.00 in0.0 mm
11:07 AM -10.8°F-23.8°C -16.3°F-26.8°C 76% 3.0 mph WNW4.8 kmh WNW -- 30.45 in1031.2 mb 0.00 in0.0 mm 0.00 in0.0 mm 0.00 in0.0 mm
11:08 AM -11.0°F-23.9°C -16.5°F-26.9°C 76% 4.0 mph WNW6.4 kmh WNW -- 30.45 in1031.2 mb 0.00 in0.0 mm 0.00 in0.0 mm 0.00 in0.0 mm
11:09 AM -11.2°F-24.0°C -16.7°F-27.1°C 76% 3.0 mph WNW4.8 kmh WNW -- 30.45 in1031.2 mb 0.00 in0.0 mm 0.00 in0.0 mm 0.00 in0.0 mm
11:11 AM -11.2°F-24.0°C -16.7°F-27.1°C 76% 3.0 mph NW4.8 kmh NW -- 30.45 in1031.2 mb 0.00 in0.0 mm 0.00 in0.0 mm 0.00 in0.0 mm
11:12 AM -11.2°F-24.0°C -16.4°F-26.9°C 77% 2.0 mph NW3.2 kmh NW -- 30.45 in1031.2 mb 0.00 in0.0 mm 0.00 in0.0 mm 0.00 in0.0 mm
11:13 AM -10.8°F-23.8°C -16.3°F-26.8°C 76% 2.0 mph W3.2 kmh W -- 30.45 in1031.2 mb 0.00 in0.0 mm 0.00 in0.0 mm 0.00 in0.0 mm
11:14 AM -10.4°F-23.6°C -16.0°F-26.7°C 76% Calm Calm -- 30.45 in1031.2 mb 0.00 in0.0 mm 0.00 in0.0 mm 0.00 in0.0 mm
11:15 AM -10.0°F-23.3°C -15.5°F-26.4°C 76% 1.0 mph W1.6 kmh W -- 30.44 in1030.8 mb 0.00 in0.0 mm 0.00 in0.0 mm 0.00 in0.0 mm
11:16 AM -10.0°F-23.3°C -15.5°F-26.4°C 76% 1.0 mph WNW1.6 kmh WNW -- 30.45 in1031.2 mb 0.00 in0.0 mm 0.00 in0.0 mm 0.00 in0.0 mm
11:17 AM -9.6°F-23.1°C -15.1°F-26.2°C 76% 3.0 mph W4.8 kmh W -- 30.44 in1030.8 mb 0.00 in0.0 mm 0.00 in0.0 mm 0.00 in0.0 mm
11:18 AM -9.3°F-22.9°C -14.8°F-26.0°C 76% 3.0 mph WSW4.8 kmh WSW -- 30.45 in1031.2 mb 0.00 in0.0 mm 0.00 in0.0 mm 0.00 in0.0 mm
11:19 AM -9.6°F-23.1°C -15.1°F-26.2°C 76% 3.0 mph W4.8 kmh W -- 30.44 in1030.8 mb 0.00 in0.0 mm 0.00 in0.0 mm 0.00 in0.0 mm
11:20 AM -9.8°F-23.2°C -15.3°F-26.3°C 76% 4.0 mph W6.4 kmh W -- 30.45 in1031.2 mb 0.00 in0.0 mm 0.00 in0.0 mm 0.00 in0.0 mm
11:22 AM -10.0°F-23.3°C -15.5°F-26.4°C 76% 4.0 mph W6.4 kmh W -- 30.45 in1031.2 mb 0.00 in0.0 mm 0.00 in0.0 mm 0.00 in0.0 mm
11:23 AM -10.0°F-23.3°C -15.5°F-26.4°C 76% 3.0 mph W4.8 kmh W -- 30.45 in1031.2 mb 0.00 in0.0 mm 0.00 in0.0 mm 0.00 in0.0 mm
11:24 AM -10.0°F-23.3°C -15.5°F-26.4°C 76% 3.0 mph WNW4.8 kmh WNW -- 30.45 in1031.2 mb 0.00 in0.0 mm 0.00 in0.0 mm 0.00 in0.0 mm
11:26 AM -10.0°F-23.3°C -15.5°F-26.4°C 76% 3.0 mph W4.8 kmh W -- 30.45 in1031.2 mb 0.00 in0.0 mm 0.00 in0.0 mm 0.00 in0.0 mm
11:27 AM -10.0°F-23.3°C -15.5°F-26.4°C 76% 2.0 mph W3.2 kmh W -- 30.45 in1031.2 mb 0.00 in0.0 mm 0.00 in0.0 mm 0.00 in0.0 mm
11:28 AM -9.8°F-23.2°C -15.3°F-26.3°C 76% 2.0 mph NNW3.2 kmh NNW -- 30.44 in1030.8 mb 0.00 in0.0 mm 0.00 in0.0 mm 0.00 in0.0 mm
11:29 AM -9.8°F-23.2°C -15.3°F-26.3°C 76% 1.0 mph WNW1.6 kmh WNW -- 30.44 in1030.8 mb 0.00 in0.0 mm 0.00 in0.0 mm 0.00 in0.0 mm
11:30 AM -9.8°F-23.2°C -15.3°F-26.3°C 76% 3.0 mph WNW4.8 kmh WNW -- 30.44 in1030.8 mb 0.00 in0.0 mm 0.00 in0.0 mm 0.00 in0.0 mm
11:32 AM -9.1°F-22.8°C -14.9°F-26.1°C 75% Calm Calm -- 30.44 in1030.8 mb 0.00 in0.0 mm 0.00 in0.0 mm 0.00 in0.0 mm
11:33 AM -9.0°F-22.8°C -14.9°F-26.1°C 75% 2.0 mph W3.2 kmh W -- 30.44 in1030.8 mb 0.00 in0.0 mm 0.00 in0.0 mm 0.00 in0.0 mm
11:34 AM -8.6°F-22.6°C -14.2°F-25.7°C 76% 2.0 mph WNW3.2 kmh WNW -- 30.44 in1030.8 mb 0.00 in0.0 mm 0.00 in0.0 mm 0.00 in0.0 mm
11:35 AM -8.6°F-22.6°C -14.2°F-25.7°C 76% 2.0 mph W3.2 kmh W -- 30.44 in1030.8 mb 0.00 in0.0 mm 0.00 in0.0 mm 0.00 in0.0 mm
11:36 AM -8.3°F-22.4°C -14.2°F-25.7°C 75% Calm Calm -- 30.44 in1030.8 mb 0.00 in0.0 mm 0.00 in0.0 mm 0.00 in0.0 mm
11:37 AM -8.1°F-22.3°C -14.0°F-25.6°C 75% 1.0 mph WNW1.6 kmh WNW -- 30.44 in1030.8 mb 0.00 in0.0 mm 0.00 in0.0 mm 0.00 in0.0 mm
11:38 AM -8.0°F-22.2°C -13.8°F-25.4°C 75% 2.0 mph W3.2 kmh W -- 30.44 in1030.8 mb 0.00 in0.0 mm 0.00 in0.0 mm 0.00 in0.0 mm
11:39 AM -7.8°F-22.1°C -13.6°F-25.3°C 75% 1.0 mph 1.6 kmh -- 30.44 in1030.8 mb 0.00 in0.0 mm 0.00 in0.0 mm 0.00 in0.0 mm
11:40 AM -7.1°F-21.7°C -12.9°F-24.9°C 75% 2.0 mph WSW3.2 kmh WSW -- 30.44 in1030.8 mb 0.00 in0.0 mm 0.00 in0.0 mm 0.00 in0.0 mm
11:41 AM -6.9°F-21.6°C -12.8°F-24.9°C 75% 4.0 mph W6.4 kmh W -- 30.44 in1030.8 mb 0.00 in0.0 mm 0.00 in0.0 mm 0.00 in0.0 mm
11:43 AM -7.1°F-21.7°C -12.9°F-24.9°C 75% 3.0 mph W4.8 kmh W -- 30.44 in1030.8 mb 0.00 in0.0 mm 0.00 in0.0 mm 0.00 in0.0 mm
11:44 AM -7.4°F-21.9°C -13.3°F-25.2°C 75% 2.0 mph WSW3.2 kmh WSW -- 30.44 in1030.8 mb 0.00 in0.0 mm 0.00 in0.0 mm 0.00 in0.0 mm
11:45 AM -7.4°F-21.9°C -13.3°F-25.2°C 75% 4.0 mph W6.4 kmh W -- 30.45 in1031.2 mb 0.00 in0.0 mm 0.00 in0.0 mm 0.00 in0.0 mm
11:46 AM -7.5°F-21.9°C -13.3°F-25.2°C 75% 3.0 mph WNW4.8 kmh WNW -- 30.44 in1030.8 mb 0.00 in0.0 mm 0.00 in0.0 mm 0.00 in0.0 mm
11:47 AM -7.8°F-22.1°C -13.6°F-25.3°C 75% 4.0 mph WSW6.4 kmh WSW -- 30.45 in1031.2 mb 0.00 in0.0 mm 0.00 in0.0 mm 0.00 in0.0 mm
11:48 AM -7.8°F-22.1°C -13.6°F-25.3°C 75% 3.0 mph W4.8 kmh W -- 30.44 in1030.8 mb 0.00 in0.0 mm 0.00 in0.0 mm 0.00 in0.0 mm
11:51 AM -7.8°F-22.1°C -13.6°F-25.3°C 75% 3.0 mph SW4.8 kmh SW -- 30.44 in1030.8 mb 0.00 in0.0 mm 0.00 in0.0 mm 0.00 in0.0 mm
11:52 AM -7.8°F-22.1°C -13.6°F-25.3°C 75% 3.0 mph W4.8 kmh W -- 30.44 in1030.8 mb 0.00 in0.0 mm 0.00 in0.0 mm 0.00 in0.0 mm
11:53 AM -8.1°F-22.3°C -14.0°F-25.6°C 75% 4.0 mph W6.4 kmh W -- 30.44 in1030.8 mb 0.00 in0.0 mm 0.00 in0.0 mm 0.00 in0.0 mm
11:56 AM -8.3°F-22.4°C -14.2°F-25.7°C 75% 3.0 mph W4.8 kmh W -- 30.44 in1030.8 mb 0.00 in0.0 mm 0.00 in0.0 mm 0.00 in0.0 mm
11:57 AM -8.6°F-22.6°C -14.5°F-25.8°C 75% 3.0 mph W4.8 kmh W -- 30.45 in1031.2 mb 0.00 in0.0 mm 0.00 in0.0 mm 0.00 in0.0 mm
11:58 AM -8.5°F-22.5°C -14.3°F-25.7°C 75% 2.0 mph WNW3.2 kmh WNW -- 30.44 in1030.8 mb 0.00 in0.0 mm 0.00 in0.0 mm 0.00 in0.0 mm
11:59 AM -8.3°F-22.4°C -14.2°F-25.7°C 75% 3.0 mph W4.8 kmh W -- 30.44 in1030.8 mb 0.00 in0.0 mm 0.00 in0.0 mm 0.00 in0.0 mm
12:01 PM -8.3°F-22.4°C -14.2°F-25.7°C 75% 4.0 mph W6.4 kmh W -- 30.44 in1030.8 mb 0.00 in0.0 mm 0.00 in0.0 mm 0.00 in0.0 mm
12:02 PM -8.3°F-22.4°C -13.9°F-25.5°C 76% 2.0 mph WSW3.2 kmh WSW -- 30.44 in1030.8 mb 0.00 in0.0 mm 0.00 in0.0 mm 0.00 in0.0 mm
12:03 PM -8.0°F-22.2°C -13.8°F-25.4°C 75% 2.0 mph WNW3.2 kmh WNW -- 30.44 in1030.8 mb 0.00 in0.0 mm 0.00 in0.0 mm 0.00 in0.0 mm
12:04 PM -8.0°F-22.2°C -13.8°F-25.4°C 75% 4.0 mph W6.4 kmh W -- 30.44 in1030.8 mb 0.00 in0.0 mm 0.00 in0.0 mm 0.00 in0.0 mm
12:05 PM -8.0°F-22.2°C -13.8°F-25.4°C 75% 4.0 mph WSW6.4 kmh WSW -- 30.44 in1030.8 mb 0.00 in0.0 mm 0.00 in0.0 mm 0.00 in0.0 mm
12:06 PM -8.0°F-22.2°C -13.8°F-25.4°C 75% 4.0 mph W6.4 kmh W -- 30.44 in1030.8 mb 0.00 in0.0 mm 0.00 in0.0 mm 0.00 in0.0 mm
12:08 PM -7.8°F-22.1°C -13.6°F-25.3°C 75% 3.0 mph W4.8 kmh W -- 30.45 in1031.2 mb 0.00 in0.0 mm 0.00 in0.0 mm 0.00 in0.0 mm
12:09 PM -7.4°F-21.9°C -13.3°F-25.2°C 75% 4.0 mph W6.4 kmh W -- 30.44 in1030.8 mb 0.00 in0.0 mm 0.00 in0.0 mm 0.00 in0.0 mm
12:10 PM -7.4°F-21.9°C -13.3°F-25.2°C 75% 3.0 mph W4.8 kmh W -- 30.44 in1030.8 mb 0.00 in0.0 mm 0.00 in0.0 mm 0.00 in0.0 mm
12:11 PM -7.4°F-21.9°C -13.3°F-25.2°C 75% 5.0 mph W8.0 kmh W -- 30.44 in1030.8 mb 0.00 in0.0 mm 0.00 in0.0 mm 0.00 in0.0 mm
12:12 PM -7.8°F-22.1°C -13.6°F-25.3°C 75% 4.0 mph W6.4 kmh W -- 30.44 in1030.8 mb 0.00 in0.0 mm 0.00 in0.0 mm 0.00 in0.0 mm
12:13 PM -8.0°F-22.2°C -13.8°F-25.4°C 75% 3.0 mph W4.8 kmh W -- 30.44 in1030.8 mb 0.00 in0.0 mm 0.00 in0.0 mm 0.00 in0.0 mm
12:14 PM -7.8°F-22.1°C -13.6°F-25.3°C 75% 3.0 mph W4.8 kmh W -- 30.44 in1030.8 mb 0.00 in0.0 mm 0.00 in0.0 mm 0.00 in0.0 mm
12:15 PM -7.5°F-21.9°C -13.3°F-25.2°C 75% 3.0 mph W4.8 kmh W -- 30.45 in1031.2 mb 0.00 in0.0 mm 0.00 in0.0 mm 0.00 in0.0 mm
12:16 PM -7.5°F-21.9°C -13.3°F-25.2°C 75% 3.0 mph WSW4.8 kmh WSW -- 30.44 in1030.8 mb 0.00 in0.0 mm 0.00 in0.0 mm 0.00 in0.0 mm
12:17 PM -7.5°F-21.9°C -13.3°F-25.2°C 75% 5.0 mph SW8.0 kmh SW -- 30.44 in1030.8 mb 0.00 in0.0 mm 0.00 in0.0 mm 0.00 in0.0 mm
12:18 PM -7.5°F-21.9°C -13.3°F-25.2°C 75% 2.0 mph SW3.2 kmh SW -- 30.44 in1030.8 mb 0.00 in0.0 mm 0.00 in0.0 mm 0.00 in0.0 mm
12:19 PM -7.5°F-21.9°C -13.3°F-25.2°C 75% 3.0 mph WNW4.8 kmh WNW -- 30.44 in1030.8 mb 0.00 in0.0 mm 0.00 in0.0 mm 0.00 in0.0 mm
12:20 PM -7.1°F-21.7°C -12.9°F-24.9°C 75% 4.0 mph NW6.4 kmh NW -- 30.44 in1030.8 mb 0.00 in0.0 mm 0.00 in0.0 mm 0.00 in0.0 mm
12:21 PM -7.4°F-21.9°C -13.3°F-25.2°C 75% 2.0 mph WNW3.2 kmh WNW -- 30.44 in1030.8 mb 0.00 in0.0 mm 0.00 in0.0 mm 0.00 in0.0 mm
12:22 PM -7.1°F-21.7°C -12.9°F-24.9°C 75% 2.0 mph W3.2 kmh W -- 30.44 in1030.8 mb 0.00 in0.0 mm 0.00 in0.0 mm 0.00 in0.0 mm
12:23 PM -7.0°F-21.7°C -12.9°F-24.9°C 75% 3.0 mph W4.8 kmh W -- 30.43 in1030.5 mb 0.00 in0.0 mm 0.00 in0.0 mm 0.00 in0.0 mm
12:25 PM -6.6°F-21.4°C -12.4°F-24.7°C 75% 3.0 mph W4.8 kmh W -- 30.43 in1030.5 mb 0.00 in0.0 mm 0.00 in0.0 mm 0.00 in0.0 mm
12:26 PM -6.9°F-21.6°C -12.8°F-24.9°C 75% 3.0 mph W4.8 kmh W -- 30.44 in1030.8 mb 0.00 in0.0 mm 0.00 in0.0 mm 0.00 in0.0 mm
12:27 PM -6.9°F-21.6°C -12.8°F-24.9°C 75% 5.0 mph W8.0 kmh W -- 30.44 in1030.8 mb 0.00 in0.0 mm 0.00 in0.0 mm 0.00 in0.0 mm
12:28 PM -7.1°F-21.7°C -12.9°F-24.9°C 75% 4.0 mph W6.4 kmh W -- 30.44 in1030.8 mb 0.00 in0.0 mm 0.00 in0.0 mm 0.00 in0.0 mm
12:30 PM -7.1°F-21.7°C -12.9°F-24.9°C 75% 3.0 mph W4.8 kmh W -- 30.44 in1030.8 mb 0.00 in0.0 mm 0.00 in0.0 mm 0.00 in0.0 mm
12:32 PM -6.9°F-21.6°C -12.8°F-24.9°C 75% 3.0 mph W4.8 kmh W -- 30.44 in1030.8 mb 0.00 in0.0 mm 0.00 in0.0 mm 0.00 in0.0 mm
12:33 PM -6.6°F-21.4°C -12.4°F-24.7°C 75% 4.0 mph W6.4 kmh W -- 30.44 in1030.8 mb 0.00 in0.0 mm 0.00 in0.0 mm 0.00 in0.0 mm
12:35 PM -6.9°F-21.6°C -12.8°F-24.9°C 75% 4.0 mph W6.4 kmh W -- 30.44 in1030.8 mb 0.00 in0.0 mm 0.00 in0.0 mm 0.00 in0.0 mm
12:36 PM -7.1°F-21.7°C -12.9°F-24.9°C 75% 3.0 mph WNW4.8 kmh WNW -- 30.44 in1030.8 mb 0.00 in0.0 mm 0.00 in0.0 mm 0.00 in0.0 mm
12:37 PM -7.5°F-21.9°C -13.3°F-25.2°C 75% 4.0 mph W6.4 kmh W -- 30.44 in1030.8 mb 0.00 in0.0 mm 0.00 in0.0 mm 0.00 in0.0 mm
12:38 PM -8.0°F-22.2°C -13.8°F-25.4°C 75% 3.0 mph WNW4.8 kmh WNW -- 30.44 in1030.8 mb 0.00 in0.0 mm 0.00 in0.0 mm 0.00 in0.0 mm
12:39 PM -8.5°F-22.5°C -14.3°F-25.7°C 75% 3.0 mph WNW4.8 kmh WNW -- 30.44 in1030.8 mb 0.00 in0.0 mm 0.00 in0.0 mm 0.00 in0.0 mm
12:40 PM -9.0°F-22.8°C -14.9°F-26.1°C 75% 4.0 mph WNW6.4 kmh WNW -- 30.44 in1030.8 mb 0.00 in0.0 mm 0.00 in0.0 mm 0.00 in0.0 mm
12:41 PM -9.1°F-22.8°C -14.9°F-26.1°C 75% 4.0 mph WNW6.4 kmh WNW -- 30.44 in1030.8 mb 0.00 in0.0 mm 0.00 in0.0 mm 0.00 in0.0 mm
12:42 PM -9.8°F-23.2°C -15.6°F-26.4°C 75% 5.0 mph W8.0 kmh W -- 30.44 in1030.8 mb 0.00 in0.0 mm 0.00 in0.0 mm 0.00 in0.0 mm
12:43 PM -9.8°F-23.2°C -15.6°F-26.4°C 75% 4.0 mph WNW6.4 kmh WNW -- 30.44 in1030.8 mb 0.00 in0.0 mm 0.00 in0.0 mm 0.00 in0.0 mm
12:44 PM -9.8°F-23.2°C -15.6°F-26.4°C 75% 4.0 mph NW6.4 kmh NW -- 30.44 in1030.8 mb 0.00 in0.0 mm 0.00 in0.0 mm 0.00 in0.0 mm
12:46 PM -9.8°F-23.2°C -15.6°F-26.4°C 75% 4.0 mph W6.4 kmh W -- 30.44 in1030.8 mb 0.00 in0.0 mm 0.00 in0.0 mm 0.00 in0.0 mm
12:47 PM -9.1°F-22.8°C -14.9°F-26.1°C 75% 4.0 mph W6.4 kmh W -- 30.43 in1030.5 mb 0.00 in0.0 mm 0.00 in0.0 mm 0.00 in0.0 mm
12:48 PM -9.0°F-22.8°C -14.6°F-25.9°C 76% 4.0 mph W6.4 kmh W -- 30.44 in1030.8 mb 0.00 in0.0 mm 0.00 in0.0 mm 0.00 in0.0 mm
12:49 PM -8.6°F-22.6°C -14.2°F-25.7°C 76% 2.0 mph W3.2 kmh W -- 30.43 in1030.5 mb 0.00 in0.0 mm 0.00 in0.0 mm 0.00 in0.0 mm
12:50 PM -8.3°F-22.4°C -13.9°F-25.5°C 76% 3.0 mph W4.8 kmh W -- 30.43 in1030.5 mb 0.00 in0.0 mm 0.00 in0.0 mm 0.00 in0.0 mm
12:51 PM -8.0°F-22.2°C -13.5°F-25.3°C 76% 3.0 mph W4.8 kmh W -- 30.43 in1030.5 mb 0.00 in0.0 mm 0.00 in0.0 mm 0.00 in0.0 mm
12:52 PM -7.8°F-22.1°C -13.4°F-25.2°C 76% 4.0 mph W6.4 kmh W -- 30.44 in1030.8 mb 0.00 in0.0 mm 0.00 in0.0 mm 0.00 in0.0 mm
12:53 PM -8.0°F-22.2°C -13.5°F-25.3°C 76% 2.0 mph W3.2 kmh W -- 30.43 in1030.5 mb 0.00 in0.0 mm 0.00 in0.0 mm 0.00 in0.0 mm
12:54 PM -8.0°F-22.2°C -13.5°F-25.3°C 76% 3.0 mph W4.8 kmh W -- 30.43 in1030.5 mb 0.00 in0.0 mm 0.00 in0.0 mm 0.00 in0.0 mm
12:55 PM -8.1°F-22.3°C -13.7°F-25.4°C 76% 3.0 mph W4.8 kmh W -- 30.43 in1030.5 mb 0.00 in0.0 mm 0.00 in0.0 mm 0.00 in0.0 mm
12:56 PM -8.3°F-22.4°C -13.9°F-25.5°C 76% 2.0 mph W3.2 kmh W -- 30.43 in1030.5 mb 0.00 in0.0 mm 0.00 in0.0 mm 0.00 in0.0 mm
12:57 PM -8.3°F-22.4°C -13.9°F-25.5°C 76% 1.0 mph W1.6 kmh W -- 30.43 in1030.5 mb 0.00 in0.0 mm 0.00 in0.0 mm 0.00 in0.0 mm
12:58 PM -8.1°F-22.3°C -13.7°F-25.4°C 76% Calm Calm -- 30.43 in1030.5 mb 0.00 in0.0 mm 0.00 in0.0 mm 0.00 in0.0 mm
12:59 PM -8.0°F-22.2°C -13.0°F-25.0°C 78% 1.0 mph W1.6 kmh W -- 30.43 in1030.5 mb 0.00 in0.0 mm 0.00 in0.0 mm 0.00 in0.0 mm
01:01 PM -8.0°F-22.2°C -13.0°F-25.0°C 78% 1.0 mph W1.6 kmh W -- 30.42 in1030.1 mb 0.00 in0.0 mm 0.00 in0.0 mm 0.00 in0.0 mm
01:02 PM -8.0°F-22.2°C -12.8°F-24.9°C 79% 2.0 mph W3.2 kmh W -- 30.42 in1030.1 mb 0.00 in0.0 mm 0.00 in0.0 mm 0.00 in0.0 mm
01:04 PM -7.8°F-22.1°C -12.6°F-24.8°C 79% 1.0 mph W1.6 kmh W -- 30.43 in1030.5 mb 0.00 in0.0 mm 0.00 in0.0 mm 0.00 in0.0 mm
01:05 PM -7.4°F-21.9°C -12.2°F-24.6°C 79% 2.0 mph W3.2 kmh W -- 30.42 in1030.1 mb 0.00 in0.0 mm 0.00 in0.0 mm 0.00 in0.0 mm
01:06 PM -6.9°F-21.6°C -11.7°F-24.3°C 79% 2.0 mph NNW3.2 kmh NNW -- 30.43 in1030.5 mb 0.00 in0.0 mm 0.00 in0.0 mm 0.00 in0.0 mm
01:07 PM -6.5°F-21.4°C -11.6°F-24.2°C 78% 2.0 mph WNW3.2 kmh WNW -- 30.43 in1030.5 mb 0.00 in0.0 mm 0.00 in0.0 mm 0.00 in0.0 mm
01:09 PM -6.0°F-21.1°C -11.1°F-23.9°C 78% 2.0 mph 3.2 kmh -- 30.42 in1030.1 mb 0.00 in0.0 mm 0.00 in0.0 mm 0.00 in0.0 mm
01:10 PM -5.8°F-21.0°C -11.5°F-24.2°C 76% 3.0 mph NNW4.8 kmh NNW -- 30.43 in1030.5 mb 0.00 in0.0 mm 0.00 in0.0 mm 0.00 in0.0 mm
01:11 PM -5.4°F-20.8°C -11.1°F-23.9°C 76% 2.0 mph NNW3.2 kmh NNW -- 30.42 in1030.1 mb 0.00 in0.0 mm 0.00 in0.0 mm 0.00 in0.0 mm
01:12 PM -5.4°F-20.8°C -10.8°F-23.8°C 77% 2.0 mph NW3.2 kmh NW -- 30.42 in1030.1 mb 0.00 in0.0 mm 0.00 in0.0 mm 0.00 in0.0 mm
01:13 PM -5.3°F-20.7°C -10.9°F-23.8°C 76% 1.0 mph WNW1.6 kmh WNW -- 30.42 in1030.1 mb 0.00 in0.0 mm 0.00 in0.0 mm 0.00 in0.0 mm
01:14 PM -4.9°F-20.5°C -10.6°F-23.7°C 76% 2.0 mph W3.2 kmh W -- 30.42 in1030.1 mb 0.00 in0.0 mm 0.00 in0.0 mm 0.00 in0.0 mm
01:15 PM -4.5°F-20.3°C -10.2°F-23.4°C 76% 2.0 mph W3.2 kmh W -- 30.41 in1029.8 mb 0.00 in0.0 mm 0.00 in0.0 mm 0.00 in0.0 mm
01:16 PM -4.4°F-20.2°C -10.1°F-23.4°C 76% 3.0 mph W4.8 kmh W -- 30.42 in1030.1 mb 0.00 in0.0 mm 0.00 in0.0 mm 0.00 in0.0 mm
01:17 PM -4.1°F-20.1°C -9.9°F-23.3°C 76% 2.0 mph WNW3.2 kmh WNW -- 30.42 in1030.1 mb 0.00 in0.0 mm 0.00 in0.0 mm 0.00 in0.0 mm
01:18 PM -4.1°F-20.1°C -9.9°F-23.3°C 76% 3.0 mph NNW4.8 kmh NNW -- 30.42 in1030.1 mb 0.00 in0.0 mm 0.00 in0.0 mm 0.00 in0.0 mm
01:19 PM -4.4°F-20.2°C -10.3°F-23.5°C 75% 2.0 mph NW3.2 kmh NW -- 30.42 in1030.1 mb 0.00 in0.0 mm 0.00 in0.0 mm 0.00 in0.0 mm
01:21 PM -4.1°F-20.1°C -9.9°F-23.3°C 76% 2.0 mph NW3.2 kmh NW -- 30.42 in1030.1 mb 0.00 in0.0 mm 0.00 in0.0 mm 0.00 in0.0 mm
01:22 PM -3.7°F-19.8°C -9.4°F-23.0°C 76% 2.0 mph NNW3.2 kmh NNW -- 30.42 in1030.1 mb 0.00 in0.0 mm 0.00 in0.0 mm 0.00 in0.0 mm
01:23 PM -3.7°F-19.8°C -9.4°F-23.0°C 76% 2.0 mph WNW3.2 kmh WNW -- 30.42 in1030.1 mb 0.00 in0.0 mm 0.00 in0.0 mm 0.00 in0.0 mm
01:24 PM -3.5°F-19.7°C -9.2°F-22.9°C 76% 3.0 mph NNW4.8 kmh NNW -- 30.43 in1030.5 mb 0.00 in0.0 mm 0.00 in0.0 mm 0.00 in0.0 mm
01:25 PM -3.5°F-19.7°C -9.2°F-22.9°C 76% 3.0 mph 4.8 kmh -- 30.43 in1030.5 mb 0.00 in0.0 mm 0.00 in0.0 mm 0.00 in0.0 mm
01:26 PM -3.5°F-19.7°C -9.2°F-22.9°C 76% 3.0 mph NNW4.8 kmh NNW -- 30.43 in1030.5 mb 0.00 in0.0 mm 0.00 in0.0 mm 0.00 in0.0 mm
01:27 PM -3.5°F-19.7°C -9.2°F-22.9°C 76% 2.0 mph NNW3.2 kmh NNW -- 30.42 in1030.1 mb 0.00 in0.0 mm 0.00 in0.0 mm 0.00 in0.0 mm
01:28 PM -3.5°F-19.7°C -9.2°F-22.9°C 76% 2.0 mph NW3.2 kmh NW -- 30.42 in1030.1 mb 0.00 in0.0 mm 0.00 in0.0 mm 0.00 in0.0 mm
01:29 PM -3.5°F-19.7°C -8.6°F-22.6°C 78% 2.0 mph NNW3.2 kmh NNW -- 30.41 in1029.8 mb 0.00 in0.0 mm 0.00 in0.0 mm 0.00 in0.0 mm
01:30 PM -3.5°F-19.7°C -8.6°F-22.6°C 78% 2.0 mph NW3.2 kmh NW -- 30.41 in1029.8 mb 0.00 in0.0 mm 0.00 in0.0 mm 0.00 in0.0 mm
01:31 PM -3.5°F-19.7°C -9.2°F-22.9°C 76% 2.0 mph WNW3.2 kmh WNW -- 30.41 in1029.8 mb 0.00 in0.0 mm 0.00 in0.0 mm 0.00 in0.0 mm
01:32 PM -3.2°F-19.6°C -9.0°F-22.8°C 76% 3.0 mph WNW4.8 kmh WNW -- 30.42 in1030.1 mb 0.00 in0.0 mm 0.00 in0.0 mm 0.00 in0.0 mm
01:33 PM -3.2°F-19.6°C -9.0°F-22.8°C 76% 2.0 mph WNW3.2 kmh WNW -- 30.41 in1029.8 mb 0.00 in0.0 mm 0.00 in0.0 mm 0.00 in0.0 mm
01:34 PM -3.0°F-19.4°C -8.7°F-22.6°C 76% 2.0 mph NW3.2 kmh NW -- 30.42 in1030.1 mb 0.00 in0.0 mm 0.00 in0.0 mm 0.00 in0.0 mm
01:35 PM -3.0°F-19.4°C -8.7°F-22.6°C 76% 2.0 mph NW3.2 kmh NW -- 30.41 in1029.8 mb 0.00 in0.0 mm 0.00 in0.0 mm 0.00 in0.0 mm
01:36 PM -3.0°F-19.4°C -8.7°F-22.6°C 76% 2.0 mph WNW3.2 kmh WNW -- 30.41 in1029.8 mb 0.00 in0.0 mm 0.00 in0.0 mm 0.00 in0.0 mm
01:37 PM -3.0°F-19.4°C -8.9°F-22.7°C 75% 2.0 mph WNW3.2 kmh WNW -- 30.41 in1029.8 mb 0.00 in0.0 mm 0.00 in0.0 mm 0.00 in0.0 mm
01:38 PM -3.0°F-19.4°C -8.9°F-22.7°C 75% 2.0 mph W3.2 kmh W -- 30.41 in1029.8 mb 0.00 in0.0 mm 0.00 in0.0 mm 0.00 in0.0 mm
01:39 PM -2.7°F-19.3°C -8.8°F-22.7°C 75% 3.0 mph W4.8 kmh W -- 30.41 in1029.8 mb 0.00 in0.0 mm 0.00 in0.0 mm 0.00 in0.0 mm
01:40 PM -2.7°F-19.3°C -8.8°F-22.7°C 75% 2.0 mph W3.2 kmh W -- 30.41 in1029.8 mb 0.00 in0.0 mm 0.00 in0.0 mm 0.00 in0.0 mm
01:41 PM -2.5°F-19.2°C -8.6°F-22.6°C 75% 2.0 mph W3.2 kmh W -- 30.41 in1029.8 mb 0.00 in0.0 mm 0.00 in0.0 mm 0.00 in0.0 mm
01:44 PM -2.5°F-19.2°C -8.6°F-22.6°C 75% 2.0 mph WNW3.2 kmh WNW -- 30.41 in1029.8 mb 0.00 in0.0 mm 0.00 in0.0 mm 0.00 in0.0 mm
01:45 PM -2.5°F-19.2°C -8.6°F-22.6°C 75% 3.0 mph W4.8 kmh W -- 30.41 in1029.8 mb 0.00 in0.0 mm 0.00 in0.0 mm 0.00 in0.0 mm
01:46 PM -2.5°F-19.2°C -8.6°F-22.6°C 75% 1.0 mph WNW1.6 kmh WNW -- 30.41 in1029.8 mb 0.00 in0.0 mm 0.00 in0.0 mm 0.00 in0.0 mm
01:47 PM -2.5°F-19.2°C -8.6°F-22.6°C 75% Calm Calm -- 30.41 in1029.8 mb 0.00 in0.0 mm 0.00 in0.0 mm 0.00 in0.0 mm
01:48 PM -2.9°F-19.4°C -9.5°F-23.1°C 73% Calm Calm -- 30.40 in1029.5 mb 0.00 in0.0 mm 0.00 in0.0 mm 0.00 in0.0 mm
01:49 PM -2.9°F-19.4°C -10.3°F-23.5°C 70% Calm Calm -- 30.40 in1029.5 mb 0.00 in0.0 mm 0.00 in0.0 mm 0.00 in0.0 mm
01:50 PM -2.7°F-19.3°C -9.9°F-23.3°C 71% Calm Calm -- 30.40 in1029.5 mb 0.00 in0.0 mm 0.00 in0.0 mm 0.00 in0.0 mm
01:51 PM -2.5°F-19.2°C -8.9°F-22.7°C 74% Calm Calm -- 30.40 in1029.5 mb 0.00 in0.0 mm 0.00 in0.0 mm 0.00 in0.0 mm
01:52 PM -2.4°F-19.1°C -8.4°F-22.4°C 75% Calm Calm -- 30.40 in1029.5 mb 0.00 in0.0 mm 0.00 in0.0 mm 0.00 in0.0 mm
01:53 PM -2.4°F-19.1°C -8.1°F-22.3°C 76% Calm Calm -- 30.40 in1029.5 mb 0.00 in0.0 mm 0.00 in0.0 mm 0.00 in0.0 mm
01:54 PM -2.5°F-19.2°C -8.3°F-22.4°C 76% Calm Calm -- 30.41 in1029.8 mb 0.00 in0.0 mm 0.00 in0.0 mm 0.00 in0.0 mm
01:55 PM -2.9°F-19.4°C -8.9°F-22.7°C 75% Calm Calm -- 30.41 in1029.8 mb 0.00 in0.0 mm 0.00 in0.0 mm 0.00 in0.0 mm
01:56 PM -2.9°F-19.4°C -8.9°F-22.7°C 75% Calm Calm -- 30.40 in1029.5 mb 0.00 in0.0 mm 0.00 in0.0 mm 0.00 in0.0 mm
01:57 PM -4.0°F-20.0°C -10.0°F-23.3°C 75% Calm Calm -- 30.41 in1029.8 mb 0.00 in0.0 mm 0.00 in0.0 mm 0.00 in0.0 mm
01:58 PM -4.4°F-20.2°C -10.6°F-23.7°C 74% Calm Calm -- 30.41 in1029.8 mb 0.00 in0.0 mm 0.00 in0.0 mm 0.00 in0.0 mm
01:59 PM -4.9°F-20.5°C -11.1°F-23.9°C 74% Calm Calm -- 30.40 in1029.5 mb 0.00 in0.0 mm 0.00 in0.0 mm 0.00 in0.0 mm
02:00 PM -5.5°F-20.8°C -11.6°F-24.2°C 74% Calm Calm -- 30.40 in1029.5 mb 0.00 in0.0 mm 0.00 in0.0 mm 0.00 in0.0 mm
02:01 PM -6.0°F-21.1°C -12.2°F-24.6°C 74% Calm Calm -- 30.40 in1029.5 mb 0.00 in0.0 mm 0.00 in0.0 mm 0.00 in0.0 mm
02:02 PM -6.5°F-21.4°C -12.7°F-24.8°C 74% Calm Calm -- 30.41 in1029.8 mb 0.00 in0.0 mm 0.00 in0.0 mm 0.00 in0.0 mm
02:03 PM -7.0°F-21.7°C -13.2°F-25.1°C 74% Calm Calm -- 30.41 in1029.8 mb 0.00 in0.0 mm 0.00 in0.0 mm 0.00 in0.0 mm
02:04 PM -7.4°F-21.9°C -13.6°F-25.3°C 74% Calm Calm -- 30.41 in1029.8 mb 0.00 in0.0 mm 0.00 in0.0 mm 0.00 in0.0 mm
02:05 PM -7.8°F-22.1°C -13.9°F-25.5°C 74% Calm Calm -- 30.41 in1029.8 mb 0.00 in0.0 mm 0.00 in0.0 mm 0.00 in0.0 mm
02:06 PM -8.0°F-22.2°C -14.1°F-25.6°C 74% Calm Calm -- 30.40 in1029.5 mb 0.00 in0.0 mm 0.00 in0.0 mm 0.00 in0.0 mm
02:07 PM -8.0°F-22.2°C -13.8°F-25.4°C 75% Calm Calm -- 30.41 in1029.8 mb 0.00 in0.0 mm 0.00 in0.0 mm 0.00 in0.0 mm
02:10 PM -7.8°F-22.1°C -13.6°F-25.3°C 75% Calm Calm -- 30.41 in1029.8 mb 0.00 in0.0 mm 0.00 in0.0 mm 0.00 in0.0 mm
02:11 PM -7.4°F-21.9°C -13.3°F-25.2°C 75% Calm Calm -- 30.41 in1029.8 mb 0.00 in0.0 mm 0.00 in0.0 mm 0.00 in0.0 mm
02:12 PM -7.1°F-21.7°C -12.7°F-24.8°C 76% Calm Calm -- 30.41 in1029.8 mb 0.00 in0.0 mm 0.00 in0.0 mm 0.00 in0.0 mm
02:13 PM -6.9°F-21.6°C -12.5°F-24.7°C 76% Calm Calm -- 30.41 in1029.8 mb 0.00 in0.0 mm 0.00 in0.0 mm 0.00 in0.0 mm
02:14 PM -6.3°F-21.3°C -12.0°F-24.4°C 76% Calm Calm -- 30.41 in1029.8 mb 0.00 in0.0 mm 0.00 in0.0 mm 0.00 in0.0 mm
02:15 PM -6.0°F-21.1°C -11.1°F-23.9°C 78% Calm Calm -- 30.41 in1029.8 mb 0.00 in0.0 mm 0.00 in0.0 mm 0.00 in0.0 mm
02:16 PM -5.5°F-20.8°C -10.6°F-23.7°C 78% Calm Calm -- 30.40 in1029.5 mb 0.00 in0.0 mm 0.00 in0.0 mm 0.00 in0.0 mm
02:17 PM -5.4°F-20.8°C -11.4°F-24.1°C 75% Calm Calm -- 30.41 in1029.8 mb 0.00 in0.0 mm 0.00 in0.0 mm 0.00 in0.0 mm
02:19 PM -5.3°F-20.7°C -11.2°F-24.0°C 75% Calm Calm -- 30.41 in1029.8 mb 0.00 in0.0 mm 0.00 in0.0 mm 0.00 in0.0 mm
02:20 PM -4.9°F-20.5°C -10.6°F-23.7°C 76% Calm Calm -- 30.41 in1029.8 mb 0.00 in0.0 mm 0.00 in0.0 mm 0.00 in0.0 mm
02:21 PM -4.6°F-20.3°C -10.2°F-23.4°C 76% Calm Calm -- 30.41 in1029.8 mb 0.00 in0.0 mm 0.00 in0.0 mm 0.00 in0.0 mm
02:23 PM -4.1°F-20.1°C -9.9°F-23.3°C 76% Calm Calm -- 30.40 in1029.5 mb 0.00 in0.0 mm 0.00 in0.0 mm 0.00 in0.0 mm
02:24 PM -3.7°F-19.8°C -9.4°F-23.0°C 76% Calm Calm -- 30.40 in1029.5 mb 0.00 in0.0 mm 0.00 in0.0 mm 0.00 in0.0 mm
02:25 PM -3.5°F-19.7°C -9.2°F-22.9°C 76% Calm Calm -- 30.40 in1029.5 mb 0.00 in0.0 mm 0.00 in0.0 mm 0.00 in0.0 mm
02:27 PM -2.5°F-19.2°C -7.8°F-22.1°C 78% Calm Calm -- 30.40 in1029.5 mb 0.00 in0.0 mm 0.00 in0.0 mm 0.00 in0.0 mm
02:28 PM -2.4°F-19.1°C -7.6°F-22.0°C 78% Calm Calm -- 30.40 in1029.5 mb 0.00 in0.0 mm 0.00 in0.0 mm 0.00 in0.0 mm
02:29 PM -2.4°F-19.1°C -7.6°F-22.0°C 78% Calm Calm -- 30.40 in1029.5 mb 0.00 in0.0 mm 0.00 in0.0 mm 0.00 in0.0 mm
02:30 PM -2.5°F-19.2°C -8.6°F-22.6°C 75% Calm Calm -- 30.40 in1029.5 mb 0.00 in0.0 mm 0.00 in0.0 mm 0.00 in0.0 mm
02:31 PM -2.7°F-19.3°C -8.8°F-22.7°C 75% Calm Calm -- 30.41 in1029.8 mb 0.00 in0.0 mm 0.00 in0.0 mm 0.00 in0.0 mm
02:32 PM -2.9°F-19.4°C -8.9°F-22.7°C 75% Calm Calm -- 30.41 in1029.8 mb 0.00 in0.0 mm 0.00 in0.0 mm 0.00 in0.0 mm
02:33 PM -2.9°F-19.4°C -8.9°F-22.7°C 75% Calm Calm -- 30.41 in1029.8 mb 0.00 in0.0 mm 0.00 in0.0 mm 0.00 in0.0 mm
02:34 PM -2.9°F-19.4°C -8.9°F-22.7°C 75% Calm Calm -- 30.40 in1029.5 mb 0.00 in0.0 mm 0.00 in0.0 mm 0.00 in0.0 mm
02:36 PM -3.5°F-19.7°C -9.7°F-23.2°C 74% Calm Calm -- 30.40 in1029.5 mb 0.00 in0.0 mm 0.00 in0.0 mm 0.00 in0.0 mm
02:37 PM -3.5°F-19.7°C -9.7°F-23.2°C 74% Calm Calm -- 30.41 in1029.8 mb 0.00 in0.0 mm 0.00 in0.0 mm 0.00 in0.0 mm
02:38 PM -3.5°F-19.7°C -9.7°F-23.2°C 74% Calm Calm -- 30.40 in1029.5 mb 0.00 in0.0 mm 0.00 in0.0 mm 0.00 in0.0 mm
02:39 PM -3.5°F-19.7°C -9.5°F-23.1°C 75% Calm Calm -- 30.40 in1029.5 mb 0.00 in0.0 mm 0.00 in0.0 mm 0.00 in0.0 mm
02:40 PM -3.2°F-19.6°C -9.3°F-22.9°C 75% Calm Calm -- 30.40 in1029.5 mb 0.00 in0.0 mm 0.00 in0.0 mm 0.00 in0.0 mm
02:41 PM -3.2°F-19.6°C -9.3°F-22.9°C 75% Calm Calm -- 30.41 in1029.8 mb 0.00 in0.0 mm 0.00 in0.0 mm 0.00 in0.0 mm
02:42 PM -3.2°F-19.6°C -9.3°F-22.9°C 75% Calm Calm -- 30.41 in1029.8 mb 0.00 in0.0 mm 0.00 in0.0 mm 0.00 in0.0 mm
02:43 PM -3.0°F-19.4°C -8.9°F-22.7°C 75% Calm Calm -- 30.40 in1029.5 mb 0.00 in0.0 mm 0.00 in0.0 mm 0.00 in0.0 mm
02:44 PM -2.9°F-19.4°C -8.9°F-22.7°C 75% Calm Calm -- 30.41 in1029.8 mb 0.00 in0.0 mm 0.00 in0.0 mm 0.00 in0.0 mm
02:45 PM -2.7°F-19.3°C -8.8°F-22.7°C 75% Calm Calm -- 30.40 in1029.5 mb 0.00 in0.0 mm 0.00 in0.0 mm 0.00 in0.0 mm
02:46 PM -2.5°F-19.2°C -8.6°F-22.6°C 75% Calm Calm -- 30.40 in1029.5 mb 0.00 in0.0 mm 0.00 in0.0 mm 0.00 in0.0 mm
02:47 PM -2.4°F-19.1°C -8.4°F-22.4°C 75% Calm Calm -- 30.40 in1029.5 mb 0.00 in0.0 mm 0.00 in0.0 mm 0.00 in0.0 mm
02:48 PM -1.7°F-18.7°C -7.4°F-21.9°C 76% Calm Calm -- 30.41 in1029.8 mb 0.00 in0.0 mm 0.00 in0.0 mm 0.00 in0.0 mm
02:49 PM -1.7°F-18.7°C -7.4°F-21.9°C 76% Calm Calm -- 30.41 in1029.8 mb 0.00 in0.0 mm 0.00 in0.0 mm 0.00 in0.0 mm
02:50 PM -1.5°F-18.6°C -6.7°F-21.5°C 78% Calm Calm -- 30.41 in1029.8 mb 0.00 in0.0 mm 0.00 in0.0 mm 0.00 in0.0 mm
02:51 PM -1.2°F-18.4°C -6.4°F-21.3°C 78% Calm Calm -- 30.40 in1029.5 mb 0.00 in0.0 mm 0.00 in0.0 mm 0.00 in0.0 mm
02:52 PM -1.3°F-18.5°C -6.5°F-21.4°C 78% Calm Calm -- 30.40 in1029.5 mb 0.00 in0.0 mm 0.00 in0.0 mm 0.00 in0.0 mm
02:53 PM -1.2°F-18.4°C -6.9°F-21.6°C 76% Calm Calm -- 30.40 in1029.5 mb 0.00 in0.0 mm 0.00 in0.0 mm 0.00 in0.0 mm
02:54 PM -1.2°F-18.4°C -6.9°F-21.6°C 76% Calm Calm -- 30.40 in1029.5 mb 0.00 in0.0 mm 0.00 in0.0 mm 0.00 in0.0 mm
02:57 PM -1.2°F-18.4°C -6.9°F-21.6°C 76% Calm Calm -- 30.41 in1029.8 mb 0.00 in0.0 mm 0.00 in0.0 mm 0.00 in0.0 mm
02:58 PM -1.1°F-18.4°C -6.9°F-21.6°C 76% Calm Calm -- 30.40 in1029.5 mb 0.00 in0.0 mm 0.00 in0.0 mm 0.00 in0.0 mm
02:59 PM -1.1°F-18.4°C -6.4°F-21.3°C 78% Calm Calm -- 30.40 in1029.5 mb 0.00 in0.0 mm 0.00 in0.0 mm 0.00 in0.0 mm
03:00 PM -0.9°F-18.3°C -6.2°F-21.2°C 78% Calm Calm -- 30.40 in1029.5 mb 0.00 in0.0 mm 0.00 in0.0 mm 0.00 in0.0 mm
03:01 PM -0.9°F-18.3°C -5.7°F-20.9°C 80% Calm Calm -- 30.40 in1029.5 mb 0.00 in0.0 mm 0.00 in0.0 mm 0.00 in0.0 mm
03:02 PM -0.8°F-18.2°C -5.5°F-20.8°C 80% Calm Calm -- 30.40 in1029.5 mb 0.00 in0.0 mm 0.00 in0.0 mm 0.00 in0.0 mm
03:05 PM -0.8°F-18.2°C -5.8°F-21.0°C 79% Calm Calm -- 30.40 in1029.5 mb 0.00 in0.0 mm 0.00 in0.0 mm 0.00 in0.0 mm
03:06 PM -0.8°F-18.2°C -5.8°F-21.0°C 79% Calm Calm -- 30.41 in1029.8 mb 0.00 in0.0 mm 0.00 in0.0 mm 0.00 in0.0 mm
03:07 PM -0.8°F-18.2°C -6.6°F-21.4°C 76% Calm Calm -- 30.41 in1029.8 mb 0.00 in0.0 mm 0.00 in0.0 mm 0.00 in0.0 mm
03:08 PM -0.8°F-18.2°C -6.8°F-21.6°C 75% Calm Calm -- 30.41 in1029.8 mb 0.00 in0.0 mm 0.00 in0.0 mm 0.00 in0.0 mm
03:09 PM -0.6°F-18.1°C -6.4°F-21.3°C 76% Calm Calm -- 30.41 in1029.8 mb 0.00 in0.0 mm 0.00 in0.0 mm 0.00 in0.0 mm
03:10 PM -0.6°F-18.1°C -5.6°F-20.9°C 79% Calm Calm -- 30.39 in1029.1 mb 0.00 in0.0 mm 0.00 in0.0 mm 0.00 in0.0 mm
03:11 PM -0.6°F-18.1°C -5.3°F-20.7°C 80% Calm Calm -- 30.40 in1029.5 mb 0.00 in0.0 mm 0.00 in0.0 mm 0.00 in0.0 mm
03:12 PM -0.6°F-18.1°C -5.1°F-20.6°C 81% Calm Calm -- 30.41 in1029.8 mb 0.00 in0.0 mm 0.00 in0.0 mm 0.00 in0.0 mm
03:13 PM -0.8°F-18.2°C -5.2°F-20.7°C 81% Calm Calm -- 30.41 in1029.8 mb 0.00 in0.0 mm 0.00 in0.0 mm 0.00 in0.0 mm
03:14 PM -0.8°F-18.2°C -5.2°F-20.7°C 81% Calm Calm -- 30.40 in1029.5 mb 0.00 in0.0 mm 0.00 in0.0 mm 0.00 in0.0 mm
03:15 PM -1.1°F-18.4°C -5.6°F-20.9°C 81% Calm Calm -- 30.40 in1029.5 mb 0.00 in0.0 mm 0.00 in0.0 mm 0.00 in0.0 mm
03:16 PM -2.0°F-18.9°C -6.7°F-21.5°C 80% Calm Calm -- 30.41 in1029.8 mb 0.00 in0.0 mm 0.00 in0.0 mm 0.00 in0.0 mm
03:17 PM -2.4°F-19.1°C -7.3°F-21.8°C 79% Calm Calm -- 30.41 in1029.8 mb 0.00 in0.0 mm 0.00 in0.0 mm 0.00 in0.0 mm
03:18 PM -2.5°F-19.2°C -7.8°F-22.1°C 78% Calm Calm -- 30.40 in1029.5 mb 0.00 in0.0 mm 0.00 in0.0 mm 0.00 in0.0 mm
03:19 PM -3.0°F-19.4°C -7.6°F-22.0°C 80% Calm Calm -- 30.40 in1029.5 mb 0.00 in0.0 mm 0.00 in0.0 mm 0.00 in0.0 mm
03:20 PM -3.5°F-19.7°C -8.4°F-22.4°C 79% Calm Calm -- 30.40 in1029.5 mb 0.00 in0.0 mm 0.00 in0.0 mm 0.00 in0.0 mm
03:22 PM -4.0°F-20.0°C -8.4°F-22.4°C 81% Calm Calm -- 30.41 in1029.8 mb 0.00 in0.0 mm 0.00 in0.0 mm 0.00 in0.0 mm
03:23 PM -4.1°F-20.1°C -8.6°F-22.6°C 81% Calm Calm -- 30.41 in1029.8 mb 0.00 in0.0 mm 0.00 in0.0 mm 0.00 in0.0 mm
03:24 PM -4.4°F-20.2°C -8.8°F-22.7°C 81% Calm Calm -- 30.40 in1029.5 mb 0.00 in0.0 mm 0.00 in0.0 mm 0.00 in0.0 mm
03:25 PM -4.5°F-20.3°C -8.9°F-22.7°C 81% Calm Calm -- 30.41 in1029.8 mb 0.00 in0.0 mm 0.00 in0.0 mm 0.00 in0.0 mm
03:26 PM -5.0°F-20.6°C -9.5°F-23.1°C 81% Calm Calm -- 30.40 in1029.5 mb 0.00 in0.0 mm 0.00 in0.0 mm 0.00 in0.0 mm
03:27 PM -5.1°F-20.6°C -9.5°F-23.1°C 81% Calm Calm -- 30.40 in1029.5 mb 0.00 in0.0 mm 0.00 in0.0 mm 0.00 in0.0 mm
03:28 PM -6.1°F-21.2°C -11.0°F-23.9°C 79% Calm Calm -- 30.40 in1029.5 mb 0.00 in0.0 mm 0.00 in0.0 mm 0.00 in0.0 mm
03:29 PM -6.3°F-21.3°C -11.2°F-24.0°C 79% Calm Calm -- 30.40 in1029.5 mb 0.00 in0.0 mm 0.00 in0.0 mm 0.00 in0.0 mm
03:30 PM -7.0°F-21.7°C -11.9°F-24.4°C 79% Calm Calm -- 30.40 in1029.5 mb 0.00 in0.0 mm 0.00 in0.0 mm 0.00 in0.0 mm
03:31 PM -7.0°F-21.7°C -11.9°F-24.4°C 79% Calm Calm -- 30.40 in1029.5 mb 0.00 in0.0 mm 0.00 in0.0 mm 0.00 in0.0 mm
03:32 PM -7.1°F-21.7°C -11.6°F-24.2°C 80% Calm Calm -- 30.40 in1029.5 mb 0.00 in0.0 mm 0.00 in0.0 mm 0.00 in0.0 mm
03:33 PM -7.4°F-21.9°C -12.0°F-24.4°C 80% Calm Calm -- 30.40 in1029.5 mb 0.00 in0.0 mm 0.00 in0.0 mm 0.00 in0.0 mm
03:34 PM -7.4°F-21.9°C -12.0°F-24.4°C 80% Calm Calm -- 30.40 in1029.5 mb 0.00 in0.0 mm 0.00 in0.0 mm 0.00 in0.0 mm
03:35 PM -7.8°F-22.1°C -12.3°F-24.6°C 80% Calm Calm -- 30.40 in1029.5 mb 0.00 in0.0 mm 0.00 in0.0 mm 0.00 in0.0 mm
03:36 PM -8.3°F-22.4°C -12.9°F-24.9°C 80% Calm Calm -- 30.40 in1029.5 mb 0.00 in0.0 mm 0.00 in0.0 mm 0.00 in0.0 mm
03:37 PM -8.3°F-22.4°C -12.9°F-24.9°C 80% Calm Calm -- 30.40 in1029.5 mb 0.00 in0.0 mm 0.00 in0.0 mm 0.00 in0.0 mm
03:38 PM -8.6°F-22.6°C -13.2°F-25.1°C 80% Calm Calm -- 30.41 in1029.8 mb 0.00 in0.0 mm 0.00 in0.0 mm 0.00 in0.0 mm
03:40 PM -8.6°F-22.6°C -13.0°F-25.0°C 81% Calm Calm -- 30.41 in1029.8 mb 0.00 in0.0 mm 0.00 in0.0 mm 0.00 in0.0 mm
03:41 PM -8.8°F-22.7°C -13.1°F-25.1°C 81% Calm Calm -- 30.41 in1029.8 mb 0.00 in0.0 mm 0.00 in0.0 mm 0.00 in0.0 mm
03:43 PM -8.8°F-22.7°C -13.1°F-25.1°C 81% Calm Calm -- 30.41 in1029.8 mb 0.00 in0.0 mm 0.00 in0.0 mm 0.00 in0.0 mm
03:44 PM -9.0°F-22.8°C -13.8°F-25.4°C 79% Calm Calm -- 30.41 in1029.8 mb 0.00 in0.0 mm 0.00 in0.0 mm 0.00 in0.0 mm
03:45 PM -9.0°F-22.8°C -13.8°F-25.4°C 79% Calm Calm -- 30.40 in1029.5 mb 0.00 in0.0 mm 0.00 in0.0 mm 0.00 in0.0 mm
03:46 PM -9.0°F-22.8°C -13.3°F-25.2°C 81% Calm Calm -- 30.41 in1029.8 mb 0.00 in0.0 mm 0.00 in0.0 mm 0.00 in0.0 mm
03:47 PM -9.0°F-22.8°C -12.8°F-24.9°C 83% Calm Calm -- 30.40 in1029.5 mb 0.00 in0.0 mm 0.00 in0.0 mm 0.00 in0.0 mm
03:50 PM -9.0°F-22.8°C -12.8°F-24.9°C 83% Calm Calm -- 30.41 in1029.8 mb 0.00 in0.0 mm 0.00 in0.0 mm 0.00 in0.0 mm
03:53 PM -9.0°F-22.8°C -12.8°F-24.9°C 83% Calm Calm -- 30.40 in1029.5 mb 0.00 in0.0 mm 0.00 in0.0 mm 0.00 in0.0 mm
03:55 PM -9.0°F-22.8°C -12.8°F-24.9°C 83% Calm Calm -- 30.40 in1029.5 mb 0.00 in0.0 mm 0.00 in0.0 mm 0.00 in0.0 mm
03:57 PM -9.0°F-22.8°C -13.3°F-25.2°C 81% Calm Calm -- 30.40 in1029.5 mb 0.00 in0.0 mm 0.00 in0.0 mm 0.00 in0.0 mm
03:58 PM -9.0°F-22.8°C -13.3°F-25.2°C 81% Calm Calm -- 30.41 in1029.8 mb 0.00 in0.0 mm 0.00 in0.0 mm 0.00 in0.0 mm
03:59 PM -9.0°F-22.8°C -13.6°F-25.3°C 80% Calm Calm -- 30.40 in1029.5 mb 0.00 in0.0 mm 0.00 in0.0 mm 0.00 in0.0 mm
04:00 PM -9.0°F-22.8°C -14.1°F-25.6°C 78% Calm Calm -- 30.41 in1029.8 mb 0.00 in0.0 mm 0.00 in0.0 mm 0.00 in0.0 mm
04:01 PM -9.1°F-22.8°C -14.9°F-26.1°C 75% Calm Calm -- 30.40 in1029.5 mb 0.00 in0.0 mm 0.00 in0.0 mm 0.00 in0.0 mm
04:02 PM -9.3°F-22.9°C -15.3°F-26.3°C 74% Calm Calm -- 30.41 in1029.8 mb 0.00 in0.0 mm 0.00 in0.0 mm 0.00 in0.0 mm
04:03 PM -9.3°F-22.9°C -16.1°F-26.7°C 71% Calm Calm -- 30.41 in1029.8 mb 0.00 in0.0 mm 0.00 in0.0 mm 0.00 in0.0 mm
04:05 PM -9.6°F-23.1°C -16.7°F-27.1°C 70% Calm Calm -- 30.40 in1029.5 mb 0.00 in0.0 mm 0.00 in0.0 mm 0.00 in0.0 mm
04:06 PM -9.3°F-22.9°C -15.3°F-26.3°C 74% Calm Calm -- 30.41 in1029.8 mb 0.00 in0.0 mm 0.00 in0.0 mm 0.00 in0.0 mm
04:07 PM -9.1°F-22.8°C -14.6°F-25.9°C 76% Calm Calm -- 30.41 in1029.8 mb 0.00 in0.0 mm 0.00 in0.0 mm 0.00 in0.0 mm
04:08 PM -9.1°F-22.8°C -13.3°F-25.2°C 81% Calm Calm -- 30.41 in1029.8 mb 0.00 in0.0 mm 0.00 in0.0 mm 0.00 in0.0 mm
04:09 PM -9.0°F-22.8°C -12.8°F-24.9°C 83% Calm Calm -- 30.41 in1029.8 mb 0.00 in0.0 mm 0.00 in0.0 mm 0.00 in0.0 mm
04:12 PM -9.0°F-22.8°C -12.8°F-24.9°C 83% Calm Calm -- 30.40 in1029.5 mb 0.00 in0.0 mm 0.00 in0.0 mm 0.00 in0.0 mm
04:13 PM -9.0°F-22.8°C -12.8°F-24.9°C 83% Calm Calm -- 30.40 in1029.5 mb 0.00 in0.0 mm 0.00 in0.0 mm 0.00 in0.0 mm
04:14 PM -9.0°F-22.8°C -12.8°F-24.9°C 83% Calm Calm -- 30.40 in1029.5 mb 0.00 in0.0 mm 0.00 in0.0 mm 0.00 in0.0 mm
04:16 PM -9.0°F-22.8°C -12.8°F-24.9°C 83% Calm Calm -- 30.41 in1029.8 mb 0.00 in0.0 mm 0.00 in0.0 mm 0.00 in0.0 mm
04:17 PM -9.1°F-22.8°C -13.3°F-25.2°C 81% Calm Calm -- 30.41 in1029.8 mb 0.00 in0.0 mm 0.00 in0.0 mm 0.00 in0.0 mm
04:18 PM -9.3°F-22.9°C -14.0°F-25.6°C 79% Calm Calm -- 30.41 in1029.8 mb 0.00 in0.0 mm 0.00 in0.0 mm 0.00 in0.0 mm
04:19 PM -9.6°F-23.1°C -14.6°F-25.9°C 78% Calm Calm -- 30.41 in1029.8 mb 0.00 in0.0 mm 0.00 in0.0 mm 0.00 in0.0 mm
04:20 PM -9.6°F-23.1°C -15.1°F-26.2°C 76% Calm Calm -- 30.41 in1029.8 mb 0.00 in0.0 mm 0.00 in0.0 mm 0.00 in0.0 mm
04:21 PM -9.6°F-23.1°C -15.1°F-26.2°C 76% Calm Calm -- 30.41 in1029.8 mb 0.00 in0.0 mm 0.00 in0.0 mm 0.00 in0.0 mm
04:22 PM -9.8°F-23.2°C -15.6°F-26.4°C 75% Calm Calm -- 30.41 in1029.8 mb 0.00 in0.0 mm 0.00 in0.0 mm 0.00 in0.0 mm
04:23 PM -9.8°F-23.2°C -14.5°F-25.8°C 79% Calm Calm -- 30.41 in1029.8 mb 0.00 in0.0 mm 0.00 in0.0 mm 0.00 in0.0 mm
04:24 PM -9.8°F-23.2°C -14.0°F-25.6°C 81% Calm Calm -- 30.41 in1029.8 mb 0.00 in0.0 mm 0.00 in0.0 mm 0.00 in0.0 mm
04:25 PM -9.8°F-23.2°C -13.5°F-25.3°C 83% Calm Calm -- 30.41 in1029.8 mb 0.00 in0.0 mm 0.00 in0.0 mm 0.00 in0.0 mm
04:29 PM -10.0°F-23.3°C -13.7°F-25.4°C 83% Calm Calm -- 30.41 in1029.8 mb 0.00 in0.0 mm 0.00 in0.0 mm 0.00 in0.0 mm
04:30 PM -10.0°F-23.3°C -13.7°F-25.4°C 83% Calm Calm -- 30.40 in1029.5 mb 0.00 in0.0 mm 0.00 in0.0 mm 0.00 in0.0 mm
04:31 PM -10.2°F-23.4°C -13.9°F-25.5°C 83% Calm Calm -- 30.41 in1029.8 mb 0.00 in0.0 mm 0.00 in0.0 mm 0.00 in0.0 mm
04:32 PM -10.4°F-23.6°C -14.2°F-25.7°C 83% Calm Calm -- 30.40 in1029.5 mb 0.00 in0.0 mm 0.00 in0.0 mm 0.00 in0.0 mm
04:33 PM -10.4°F-23.6°C -14.2°F-25.7°C 83% Calm Calm -- 30.41 in1029.8 mb 0.00 in0.0 mm 0.00 in0.0 mm 0.00 in0.0 mm
04:34 PM -10.4°F-23.6°C -14.2°F-25.7°C 83% Calm Calm -- 30.40 in1029.5 mb 0.00 in0.0 mm 0.00 in0.0 mm 0.00 in0.0 mm
04:35 PM -10.8°F-23.8°C -14.6°F-25.9°C 83% Calm Calm -- 30.41 in1029.8 mb 0.00 in0.0 mm 0.00 in0.0 mm 0.00 in0.0 mm
04:37 PM -11.0°F-23.9°C -14.8°F-26.0°C 83% Calm Calm -- 30.41 in1029.8 mb 0.00 in0.0 mm 0.00 in0.0 mm 0.00 in0.0 mm
04:38 PM -11.0°F-23.9°C -14.8°F-26.0°C 83% Calm Calm -- 30.40 in1029.5 mb 0.00 in0.0 mm 0.00 in0.0 mm 0.00 in0.0 mm
04:39 PM -11.2°F-24.0°C -14.9°F-26.1°C 83% Calm Calm -- 30.41 in1029.8 mb 0.00 in0.0 mm 0.00 in0.0 mm 0.00 in0.0 mm
04:40 PM -11.3°F-24.1°C -15.1°F-26.2°C 83% Calm Calm -- 30.41 in1029.8 mb 0.00 in0.0 mm 0.00 in0.0 mm 0.00 in0.0 mm
04:41 PM -11.6°F-24.2°C -15.3°F-26.3°C 83% Calm Calm -- 30.41 in1029.8 mb 0.00 in0.0 mm 0.00 in0.0 mm 0.00 in0.0 mm
04:42 PM -11.6°F-24.2°C -16.0°F-26.7°C 80% Calm Calm -- 30.41 in1029.8 mb 0.00 in0.0 mm 0.00 in0.0 mm 0.00 in0.0 mm
04:43 PM -11.6°F-24.2°C -15.8°F-26.6°C 81% Calm Calm -- 30.41 in1029.8 mb 0.00 in0.0 mm 0.00 in0.0 mm 0.00 in0.0 mm
04:44 PM -11.6°F-24.2°C -15.3°F-26.3°C 83% Calm Calm -- 30.40 in1029.5 mb 0.00 in0.0 mm 0.00 in0.0 mm 0.00 in0.0 mm
04:45 PM -12.1°F-24.5°C -15.8°F-26.6°C 83% Calm Calm -- 30.40 in1029.5 mb 0.00 in0.0 mm 0.00 in0.0 mm 0.00 in0.0 mm
04:46 PM -12.3°F-24.6°C -16.0°F-26.7°C 83% Calm Calm -- 30.40 in1029.5 mb 0.00 in0.0 mm 0.00 in0.0 mm 0.00 in0.0 mm
04:47 PM -12.5°F-24.7°C -16.2°F-26.8°C 83% Calm Calm -- 30.40 in1029.5 mb 0.00 in0.0 mm 0.00 in0.0 mm 0.00 in0.0 mm
04:49 PM -12.7°F-24.8°C -16.8°F-27.1°C 81% Calm Calm -- 30.41 in1029.8 mb 0.00 in0.0 mm 0.00 in0.0 mm 0.00 in0.0 mm
04:51 PM -13.1°F-25.1°C -17.6°F-27.6°C 80% Calm Calm -- 30.41 in1029.8 mb 0.00 in0.0 mm 0.00 in0.0 mm 0.00 in0.0 mm
04:52 PM -13.3°F-25.2°C -18.0°F-27.8°C 79% Calm Calm -- 30.41 in1029.8 mb 0.00 in0.0 mm 0.00 in0.0 mm 0.00 in0.0 mm
04:53 PM -13.3°F-25.2°C -18.0°F-27.8°C 79% Calm Calm -- 30.40 in1029.5 mb 0.00 in0.0 mm 0.00 in0.0 mm 0.00 in0.0 mm
04:54 PM -13.3°F-25.2°C -17.5°F-27.5°C 81% Calm Calm -- 30.41 in1029.8 mb 0.00 in0.0 mm 0.00 in0.0 mm 0.00 in0.0 mm
04:56 PM -13.3°F-25.2°C -17.1°F-27.3°C 83% Calm Calm -- 30.40 in1029.5 mb 0.00 in0.0 mm 0.00 in0.0 mm 0.00 in0.0 mm
04:58 PM -13.5°F-25.3°C -17.2°F-27.3°C 83% Calm Calm -- 30.41 in1029.8 mb 0.00 in0.0 mm 0.00 in0.0 mm 0.00 in0.0 mm
04:59 PM -13.5°F-25.3°C -17.2°F-27.3°C 83% Calm Calm -- 30.40 in1029.5 mb 0.00 in0.0 mm 0.00 in0.0 mm 0.00 in0.0 mm
05:00 PM -13.6°F-25.3°C -17.2°F-27.3°C 83% Calm Calm -- 30.40 in1029.5 mb 0.00 in0.0 mm 0.00 in0.0 mm 0.00 in0.0 mm
05:02 PM -14.1°F-25.6°C -17.8°F-27.7°C 83% Calm Calm -- 30.40 in1029.5 mb 0.00 in0.0 mm 0.00 in0.0 mm 0.00 in0.0 mm
05:03 PM -14.3°F-25.7°C -17.9°F-27.7°C 83% Calm Calm -- 30.40 in1029.5 mb 0.00 in0.0 mm 0.00 in0.0 mm 0.00 in0.0 mm
05:08 PM -14.6°F-25.9°C -18.3°F-27.9°C 83% Calm Calm -- 30.40 in1029.5 mb 0.00 in0.0 mm 0.00 in0.0 mm 0.00 in0.0 mm
05:09 PM -14.8°F-26.0°C -18.5°F-28.1°C 83% Calm Calm -- 30.40 in1029.5 mb 0.00 in0.0 mm 0.00 in0.0 mm 0.00 in0.0 mm
05:10 PM -14.8°F-26.0°C -18.5°F-28.1°C 83% Calm Calm -- 30.39 in1029.1 mb 0.00 in0.0 mm 0.00 in0.0 mm 0.00 in0.0 mm
05:12 PM -15.0°F-26.1°C -18.6°F-28.1°C 83% Calm Calm -- 30.40 in1029.5 mb 0.00 in0.0 mm 0.00 in0.0 mm 0.00 in0.0 mm
05:14 PM -15.0°F-26.1°C -18.6°F-28.1°C 83% Calm Calm -- 30.39 in1029.1 mb 0.00 in0.0 mm 0.00 in0.0 mm 0.00 in0.0 mm
05:15 PM -15.0°F-26.1°C -18.6°F-28.1°C 83% Calm Calm -- 30.40 in1029.5 mb 0.00 in0.0 mm 0.00 in0.0 mm 0.00 in0.0 mm
05:17 PM -15.0°F-26.1°C -18.6°F-28.1°C 83% Calm Calm -- 30.40 in1029.5 mb 0.00 in0.0 mm 0.00 in0.0 mm 0.00 in0.0 mm
05:18 PM -15.1°F-26.2°C -18.8°F-28.2°C 83% Calm Calm -- 30.40 in1029.5 mb 0.00 in0.0 mm 0.00 in0.0 mm 0.00 in0.0 mm
05:19 PM -15.2°F-26.2°C -18.8°F-28.2°C 83% Calm Calm -- 30.40 in1029.5 mb 0.00 in0.0 mm 0.00 in0.0 mm 0.00 in0.0 mm
05:24 PM -15.4°F-26.3°C -19.0°F-28.3°C 83% Calm Calm -- 30.40 in1029.5 mb 0.00 in0.0 mm 0.00 in0.0 mm 0.00 in0.0 mm
05:25 PM -15.6°F-26.4°C -19.2°F-28.4°C 83% Calm Calm -- 30.40 in1029.5 mb 0.00 in0.0 mm 0.00 in0.0 mm 0.00 in0.0 mm
05:27 PM -15.8°F-26.6°C -19.5°F-28.6°C 83% Calm Calm -- 30.40 in1029.5 mb 0.00 in0.0 mm 0.00 in0.0 mm 0.00 in0.0 mm
05:28 PM -16.2°F-26.8°C -19.9°F-28.8°C 83% Calm Calm -- 30.40 in1029.5 mb 0.00 in0.0 mm 0.00 in0.0 mm 0.00 in0.0 mm
05:29 PM -16.2°F-26.8°C -19.9°F-28.8°C 83% Calm Calm -- 30.41 in1029.8 mb 0.00 in0.0 mm 0.00 in0.0 mm 0.00 in0.0 mm
05:30 PM -16.4°F-26.9°C -20.1°F-28.9°C 83% Calm Calm -- 30.41 in1029.8 mb 0.00 in0.0 mm 0.00 in0.0 mm 0.00 in0.0 mm
05:31 PM -16.6°F-27.0°C -20.2°F-29.0°C 83% Calm Calm -- 30.40 in1029.5 mb 0.00 in0.0 mm 0.00 in0.0 mm 0.00 in0.0 mm
05:32 PM -16.6°F-27.0°C -20.0°F-28.9°C 84% Calm Calm -- 30.41 in1029.8 mb 0.00 in0.0 mm 0.00 in0.0 mm 0.00 in0.0 mm
05:33 PM -16.6°F-27.0°C -20.2°F-29.0°C 83% Calm Calm -- 30.41 in1029.8 mb 0.00 in0.0 mm 0.00 in0.0 mm 0.00 in0.0 mm
05:36 PM -17.0°F-27.2°C -20.6°F-29.2°C 83% Calm Calm -- 30.41 in1029.8 mb 0.00 in0.0 mm 0.00 in0.0 mm 0.00 in0.0 mm
05:37 PM -17.0°F-27.2°C -20.6°F-29.2°C 83% Calm Calm -- 30.40 in1029.5 mb 0.00 in0.0 mm 0.00 in0.0 mm 0.00 in0.0 mm
05:40 PM -17.0°F-27.2°C -20.6°F-29.2°C 83% Calm Calm -- 30.41 in1029.8 mb 0.00 in0.0 mm 0.00 in0.0 mm 0.00 in0.0 mm
05:41 PM -17.1°F-27.3°C -20.8°F-29.3°C 83% Calm Calm -- 30.41 in1029.8 mb 0.00 in0.0 mm 0.00 in0.0 mm 0.00 in0.0 mm
05:42 PM -17.2°F-27.3°C -20.8°F-29.3°C 83% Calm Calm -- 30.41 in1029.8 mb 0.00 in0.0 mm 0.00 in0.0 mm 0.00 in0.0 mm
05:43 PM -17.2°F-27.3°C -20.8°F-29.3°C 83% Calm Calm -- 30.40 in1029.5 mb 0.00 in0.0 mm 0.00 in0.0 mm 0.00 in0.0 mm
05:44 PM -17.2°F-27.3°C -20.8°F-29.3°C 83% Calm Calm -- 30.41 in1029.8 mb 0.00 in0.0 mm 0.00 in0.0 mm 0.00 in0.0 mm
05:45 PM -17.5°F-27.5°C -21.1°F-29.5°C 83% Calm Calm -- 30.40 in1029.5 mb 0.00 in0.0 mm 0.00 in0.0 mm 0.00 in0.0 mm
05:46 PM -17.5°F-27.5°C -21.1°F-29.5°C 83% Calm Calm -- 30.41 in1029.8 mb 0.00 in0.0 mm 0.00 in0.0 mm 0.00 in0.0 mm
05:47 PM -17.5°F-27.5°C -20.9°F-29.4°C 84% Calm Calm -- 30.40 in1029.5 mb 0.00 in0.0 mm 0.00 in0.0 mm 0.00 in0.0 mm
05:48 PM -17.5°F-27.5°C -21.1°F-29.5°C 83% Calm Calm -- 30.40 in1029.5 mb 0.00 in0.0 mm 0.00 in0.0 mm 0.00 in0.0 mm
05:52 PM -17.5°F-27.5°C -20.7°F-29.3°C 85% Calm Calm -- 30.40 in1029.5 mb 0.00 in0.0 mm 0.00 in0.0 mm 0.00 in0.0 mm
05:53 PM -17.7°F-27.6°C -20.8°F-29.3°C 85% Calm Calm -- 30.40 in1029.5 mb 0.00 in0.0 mm 0.00 in0.0 mm 0.00 in0.0 mm
05:56 PM -17.8°F-27.7°C -21.0°F-29.4°C 85% Calm Calm -- 30.40 in1029.5 mb 0.00 in0.0 mm 0.00 in0.0 mm 0.00 in0.0 mm
06:01 PM -17.9°F-27.7°C -21.0°F-29.4°C 85% Calm Calm -- 30.41 in1029.8 mb 0.00 in0.0 mm 0.00 in0.0 mm 0.00 in0.0 mm
06:02 PM -18.2°F-27.9°C -21.4°F-29.7°C 85% Calm Calm -- 30.40 in1029.5 mb 0.00 in0.0 mm 0.00 in0.0 mm 0.00 in0.0 mm
06:03 PM -18.2°F-27.9°C -21.4°F-29.7°C 85% Calm Calm -- 30.41 in1029.8 mb 0.00 in0.0 mm 0.00 in0.0 mm 0.00 in0.0 mm
06:04 PM -18.2°F-27.9°C -21.4°F-29.7°C 85% Calm Calm -- 30.40 in1029.5 mb 0.00 in0.0 mm 0.00 in0.0 mm 0.00 in0.0 mm
06:05 PM -18.2°F-27.9°C -21.4°F-29.7°C 85% Calm Calm -- 30.41 in1029.8 mb 0.00 in0.0 mm 0.00 in0.0 mm 0.00 in0.0 mm
06:11 PM -18.3°F-27.9°C -21.4°F-29.7°C 85% Calm Calm -- 30.41 in1029.8 mb 0.00 in0.0 mm 0.00 in0.0 mm 0.00 in0.0 mm
06:17 PM -18.4°F-28.0°C -21.5°F-29.7°C 85% Calm Calm -- 30.41 in1029.8 mb 0.00 in0.0 mm 0.00 in0.0 mm 0.00 in0.0 mm
06:18 PM -18.3°F-27.9°C -21.4°F-29.7°C 85% Calm Calm -- 30.41 in1029.8 mb 0.00 in0.0 mm 0.00 in0.0 mm 0.00 in0.0 mm
06:22 PM -18.4°F-28.0°C -21.5°F-29.7°C 85% Calm Calm -- 30.41 in1029.8 mb 0.00 in0.0 mm 0.00 in0.0 mm 0.00 in0.0 mm
06:23 PM -18.3°F-27.9°C -21.4°F-29.7°C 85% Calm Calm -- 30.41 in1029.8 mb 0.00 in0.0 mm 0.00 in0.0 mm 0.00 in0.0 mm
06:25 PM -18.2°F-27.9°C -21.1°F-29.5°C 86% Calm Calm -- 30.41 in1029.8 mb 0.00 in0.0 mm 0.00 in0.0 mm 0.00 in0.0 mm
06:26 PM -17.9°F-27.7°C -20.8°F-29.3°C 86% Calm Calm -- 30.41 in1029.8 mb 0.00 in0.0 mm 0.00 in0.0 mm 0.00 in0.0 mm
06:27 PM -17.8°F-27.7°C -20.8°F-29.3°C 86% Calm Calm -- 30.41 in1029.8 mb 0.00 in0.0 mm 0.00 in0.0 mm 0.00 in0.0 mm
06:29 PM -17.5°F-27.5°C -20.4°F-29.1°C 86% Calm Calm -- 30.40 in1029.5 mb 0.00 in0.0 mm 0.00 in0.0 mm 0.00 in0.0 mm
06:30 PM -17.5°F-27.5°C -20.0°F-28.9°C 88% Calm Calm -- 30.41 in1029.8 mb 0.00 in0.0 mm 0.00 in0.0 mm 0.00 in0.0 mm
06:31 PM -17.1°F-27.3°C -19.6°F-28.7°C 88% Calm Calm -- 30.41 in1029.8 mb 0.00 in0.0 mm 0.00 in0.0 mm 0.00 in0.0 mm
06:32 PM -17.0°F-27.2°C -19.5°F-28.6°C 88% Calm Calm -- 30.41 in1029.8 mb 0.00 in0.0 mm 0.00 in0.0 mm 0.00 in0.0 mm
06:33 PM -17.0°F-27.2°C -19.5°F-28.6°C 88% Calm Calm -- 30.40 in1029.5 mb 0.00 in0.0 mm 0.00 in0.0 mm 0.00 in0.0 mm
06:34 PM -16.7°F-27.1°C -19.3°F-28.5°C 88% Calm Calm -- 30.40 in1029.5 mb 0.00 in0.0 mm 0.00 in0.0 mm 0.00 in0.0 mm
06:36 PM -16.6°F-27.0°C -19.1°F-28.4°C 88% Calm Calm -- 30.40 in1029.5 mb 0.00 in0.0 mm 0.00 in0.0 mm 0.00 in0.0 mm
06:39 PM -16.6°F-27.0°C -19.5°F-28.6°C 86% Calm Calm -- 30.40 in1029.5 mb 0.00 in0.0 mm 0.00 in0.0 mm 0.00 in0.0 mm
06:44 PM -16.6°F-27.0°C -19.5°F-28.6°C 86% Calm Calm -- 30.40 in1029.5 mb 0.00 in0.0 mm 0.00 in0.0 mm 0.00 in0.0 mm
06:46 PM -16.6°F-27.0°C -19.5°F-28.6°C 86% Calm Calm -- 30.41 in1029.8 mb 0.00 in0.0 mm 0.00 in0.0 mm 0.00 in0.0 mm
06:47 PM -16.6°F-27.0°C -19.5°F-28.6°C 86% Calm Calm -- 30.40 in1029.5 mb 0.00 in0.0 mm 0.00 in0.0 mm 0.00 in0.0 mm
06:49 PM -16.6°F-27.0°C -19.8°F-28.8°C 85% Calm Calm -- 30.40 in1029.5 mb 0.00 in0.0 mm 0.00 in0.0 mm 0.00 in0.0 mm
06:50 PM -16.6°F-27.0°C -19.8°F-28.8°C 85% Calm Calm -- 30.41 in1029.8 mb 0.00 in0.0 mm 0.00 in0.0 mm 0.00 in0.0 mm
06:51 PM -16.6°F-27.0°C -19.8°F-28.8°C 85% Calm Calm -- 30.40 in1029.5 mb 0.00 in0.0 mm 0.00 in0.0 mm 0.00 in0.0 mm
06:53 PM -16.6°F-27.0°C -19.8°F-28.8°C 85% Calm Calm -- 30.40 in1029.5 mb 0.00 in0.0 mm 0.00 in0.0 mm 0.00 in0.0 mm
06:54 PM -16.6°F-27.0°C -19.5°F-28.6°C 86% Calm Calm -- 30.40 in1029.5 mb 0.00 in0.0 mm 0.00 in0.0 mm 0.00 in0.0 mm
07:03 PM -16.6°F-27.0°C -19.5°F-28.6°C 86% Calm Calm -- 30.40 in1029.5 mb 0.00 in0.0 mm 0.00 in0.0 mm 0.00 in0.0 mm
07:08 PM -16.4°F-26.9°C -19.4°F-28.6°C 86% Calm Calm -- 30.40 in1029.5 mb 0.00 in0.0 mm 0.00 in0.0 mm 0.00 in0.0 mm
07:10 PM -16.2°F-26.8°C -19.2°F-28.4°C 86% Calm Calm -- 30.40 in1029.5 mb 0.00 in0.0 mm 0.00 in0.0 mm 0.00 in0.0 mm
07:14 PM -16.1°F-26.7°C -19.0°F-28.3°C 86% Calm Calm -- 30.40 in1029.5 mb 0.00 in0.0 mm 0.00 in0.0 mm 0.00 in0.0 mm
07:15 PM -16.1°F-26.7°C -19.0°F-28.3°C 86% Calm Calm -- 30.40 in1029.5 mb 0.00 in0.0 mm 0.00 in0.0 mm 0.00 in0.0 mm
07:17 PM -15.8°F-26.6°C -18.8°F-28.2°C 86% Calm Calm -- 30.40 in1029.5 mb 0.00 in0.0 mm 0.00 in0.0 mm 0.00 in0.0 mm
07:18 PM -15.8°F-26.6°C -18.8°F-28.2°C 86% Calm Calm -- 30.40 in1029.5 mb 0.00 in0.0 mm 0.00 in0.0 mm 0.00 in0.0 mm
07:19 PM -15.8°F-26.6°C -18.8°F-28.2°C 86% Calm Calm -- 30.40 in1029.5 mb 0.00 in0.0 mm 0.00 in0.0 mm 0.00 in0.0 mm
07:21 PM -15.8°F-26.6°C -18.8°F-28.2°C 86% Calm Calm -- 30.40 in1029.5 mb 0.00 in0.0 mm 0.00 in0.0 mm 0.00 in0.0 mm
07:22 PM -15.8°F-26.6°C -18.8°F-28.2°C 86% Calm Calm -- 30.40 in1029.5 mb 0.00 in0.0 mm 0.00 in0.0 mm 0.00 in0.0 mm
07:26 PM -15.6°F-26.4°C -18.5°F-28.1°C 86% Calm Calm -- 30.40 in1029.5 mb 0.00 in0.0 mm 0.00 in0.0 mm 0.00 in0.0 mm
07:27 PM -15.6°F-26.4°C -18.5°F-28.1°C 86% Calm Calm -- 30.40 in1029.5 mb 0.00 in0.0 mm 0.00 in0.0 mm 0.00 in0.0 mm
07:28 PM -15.6°F-26.4°C -18.5°F-28.1°C 86% Calm Calm -- 30.41 in1029.8 mb 0.00 in0.0 mm 0.00 in0.0 mm 0.00 in0.0 mm
07:29 PM -15.4°F-26.3°C -18.3°F-27.9°C 86% Calm Calm -- 30.40 in1029.5 mb 0.00 in0.0 mm 0.00 in0.0 mm 0.00 in0.0 mm
07:30 PM -15.4°F-26.3°C -18.3°F-27.9°C 86% Calm Calm -- 30.40 in1029.5 mb 0.00 in0.0 mm 0.00 in0.0 mm 0.00 in0.0 mm
07:32 PM -15.5°F-26.4°C -18.5°F-28.1°C 86% Calm Calm -- 30.40 in1029.5 mb 0.00 in0.0 mm 0.00 in0.0 mm 0.00 in0.0 mm
07:33 PM -15.4°F-26.3°C -18.3°F-27.9°C 86% Calm Calm -- 30.40 in1029.5 mb 0.00 in0.0 mm 0.00 in0.0 mm 0.00 in0.0 mm
07:34 PM -15.4°F-26.3°C -18.3°F-27.9°C 86% Calm Calm -- 30.41 in1029.8 mb 0.00 in0.0 mm 0.00 in0.0 mm 0.00 in0.0 mm
07:36 PM -15.4°F-26.3°C -18.3°F-27.9°C 86% Calm Calm -- 30.40 in1029.5 mb 0.00 in0.0 mm 0.00 in0.0 mm 0.00 in0.0 mm
07:38 PM -15.4°F-26.3°C -18.3°F-27.9°C 86% Calm Calm -- 30.41 in1029.8 mb 0.00 in0.0 mm 0.00 in0.0 mm 0.00 in0.0 mm
07:42 PM -15.4°F-26.3°C -18.3°F-27.9°C 86% Calm Calm -- 30.40 in1029.5 mb 0.00 in0.0 mm 0.00 in0.0 mm 0.00 in0.0 mm
07:43 PM -15.4°F-26.3°C -18.3°F-27.9°C 86% Calm Calm -- 30.41 in1029.8 mb 0.00 in0.0 mm 0.00 in0.0 mm 0.00 in0.0 mm
07:49 PM -15.4°F-26.3°C -18.3°F-27.9°C 86% Calm Calm -- 30.41 in1029.8 mb 0.00 in0.0 mm 0.00 in0.0 mm 0.00 in0.0 mm
07:50 PM -15.4°F-26.3°C -18.3°F-27.9°C 86% Calm Calm -- 30.40 in1029.5 mb 0.00 in0.0 mm 0.00 in0.0 mm 0.00 in0.0 mm
07:51 PM -15.4°F-26.3°C -18.3°F-27.9°C 86% Calm Calm -- 30.41 in1029.8 mb 0.00 in0.0 mm 0.00 in0.0 mm 0.00 in0.0 mm
07:52 PM -15.5°F-26.4°C -18.5°F-28.1°C 86% Calm Calm -- 30.41 in1029.8 mb 0.00 in0.0 mm 0.00 in0.0 mm 0.00 in0.0 mm
07:53 PM -15.4°F-26.3°C -18.3°F-27.9°C 86% Calm Calm -- 30.41 in1029.8 mb 0.00 in0.0 mm 0.00 in0.0 mm 0.00 in0.0 mm
07:54 PM -15.4°F-26.3°C -18.3°F-27.9°C 86% Calm Calm -- 30.41 in1029.8 mb 0.00 in0.0 mm 0.00 in0.0 mm 0.00 in0.0 mm
07:56 PM -15.4°F-26.3°C -18.3°F-27.9°C 86% Calm Calm -- 30.42 in1030.1 mb 0.00 in0.0 mm 0.00 in0.0 mm 0.00 in0.0 mm
07:57 PM -15.4°F-26.3°C -18.3°F-27.9°C 86% Calm Calm -- 30.41 in1029.8 mb 0.00 in0.0 mm 0.00 in0.0 mm 0.00 in0.0 mm
07:59 PM -15.6°F-26.4°C -18.5°F-28.1°C 86% Calm Calm -- 30.41 in1029.8 mb 0.00 in0.0 mm 0.00 in0.0 mm 0.00 in0.0 mm
08:00 PM -15.6°F-26.4°C -18.5°F-28.1°C 86% Calm Calm -- 30.41 in1029.8 mb 0.00 in0.0 mm 0.00 in0.0 mm 0.00 in0.0 mm
08:01 PM -15.6°F-26.4°C -18.5°F-28.1°C 86% Calm Calm -- 30.41 in1029.8 mb 0.00 in0.0 mm 0.00 in0.0 mm 0.00 in0.0 mm
08:02 PM -15.6°F-26.4°C -18.5°F-28.1°C 86% Calm Calm -- 30.41 in1029.8 mb 0.00 in0.0 mm 0.00 in0.0 mm 0.00 in0.0 mm
08:03 PM -15.6°F-26.4°C -18.5°F-28.1°C 86% Calm Calm -- 30.41 in1029.8 mb 0.00 in0.0 mm 0.00 in0.0 mm 0.00 in0.0 mm
08:09 PM -15.6°F-26.4°C -18.5°F-28.1°C 86% Calm Calm -- 30.40 in1029.5 mb 0.00 in0.0 mm 0.00 in0.0 mm 0.00 in0.0 mm
08:10 PM -15.6°F-26.4°C -18.5°F-28.1°C 86% Calm Calm -- 30.40 in1029.5 mb 0.00 in0.0 mm 0.00 in0.0 mm 0.00 in0.0 mm
08:11 PM -15.6°F-26.4°C -18.5°F-28.1°C 86% Calm Calm -- 30.41 in1029.8 mb 0.00 in0.0 mm 0.00 in0.0 mm 0.00 in0.0 mm
08:12 PM -15.6°F-26.4°C -18.5°F-28.1°C 86% Calm Calm -- 30.41 in1029.8 mb 0.00 in0.0 mm 0.00 in0.0 mm 0.00 in0.0 mm
08:13 PM -15.6°F-26.4°C -18.5°F-28.1°C 86% Calm Calm -- 30.40 in1029.5 mb 0.00 in0.0 mm 0.00 in0.0 mm 0.00 in0.0 mm
08:14 PM -15.6°F-26.4°C -18.5°F-28.1°C 86% Calm Calm -- 30.41 in1029.8 mb 0.00 in0.0 mm 0.00 in0.0 mm 0.00 in0.0 mm
08:15 PM -15.6°F-26.4°C -18.5°F-28.1°C 86% Calm Calm -- 30.40 in1029.5 mb 0.00 in0.0 mm 0.00 in0.0 mm 0.00 in0.0 mm
08:17 PM -15.6°F-26.4°C -18.5°F-28.1°C 86% Calm Calm -- 30.41 in1029.8 mb 0.00 in0.0 mm 0.00 in0.0 mm 0.00 in0.0 mm
08:18 PM -15.6°F-26.4°C -18.5°F-28.1°C 86% Calm Calm -- 30.40 in1029.5 mb 0.00 in0.0 mm 0.00 in0.0 mm 0.00 in0.0 mm
08:19 PM -15.4°F-26.3°C -18.3°F-27.9°C 86% Calm Calm -- 30.40 in1029.5 mb 0.00 in0.0 mm 0.00 in0.0 mm 0.00 in0.0 mm
08:21 PM -15.4°F-26.3°C -18.3°F-27.9°C 86% Calm Calm -- 30.40 in1029.5 mb 0.00 in0.0 mm 0.00 in0.0 mm 0.00 in0.0 mm
08:22 PM -15.4°F-26.3°C -18.3°F-27.9°C 86% Calm Calm -- 30.40 in1029.5 mb 0.00 in0.0 mm 0.00 in0.0 mm 0.00 in0.0 mm
08:23 PM -15.4°F-26.3°C -18.3°F-27.9°C 86% Calm Calm -- 30.40 in1029.5 mb 0.00 in0.0 mm 0.00 in0.0 mm 0.00 in0.0 mm
08:24 PM -15.2°F-26.2°C -18.1°F-27.8°C 86% Calm Calm -- 30.40 in1029.5 mb 0.00 in0.0 mm 0.00 in0.0 mm 0.00 in0.0 mm
08:25 PM -15.2°F-26.2°C -18.1°F-27.8°C 86% Calm Calm -- 30.40 in1029.5 mb 0.00 in0.0 mm 0.00 in0.0 mm 0.00 in0.0 mm
08:27 PM -15.2°F-26.2°C -18.1°F-27.8°C 86% Calm Calm -- 30.41 in1029.8 mb 0.00 in0.0 mm 0.00 in0.0 mm 0.00 in0.0 mm
08:30 PM -15.2°F-26.2°C -18.1°F-27.8°C 86% Calm Calm -- 30.41 in1029.8 mb 0.00 in0.0 mm 0.00 in0.0 mm 0.00 in0.0 mm
08:31 PM -15.2°F-26.2°C -18.1°F-27.8°C 86% Calm Calm -- 30.40 in1029.5 mb 0.00 in0.0 mm 0.00 in0.0 mm 0.00 in0.0 mm
08:32 PM -15.1°F-26.2°C -18.1°F-27.8°C 86% Calm Calm -- 30.40 in1029.5 mb 0.00 in0.0 mm 0.00 in0.0 mm 0.00 in0.0 mm
08:33 PM -15.0°F-26.1°C -18.0°F-27.8°C 86% Calm Calm -- 30.41 in1029.8 mb 0.00 in0.0 mm 0.00 in0.0 mm 0.00 in0.0 mm
08:34 PM -15.0°F-26.1°C -18.0°F-27.8°C 86% Calm Calm -- 30.41 in1029.8 mb 0.00 in0.0 mm 0.00 in0.0 mm 0.00 in0.0 mm
08:35 PM -15.0°F-26.1°C -18.0°F-27.8°C 86% Calm Calm -- 30.40 in1029.5 mb 0.00 in0.0 mm 0.00 in0.0 mm 0.00 in0.0 mm
08:36 PM -15.0°F-26.1°C -18.0°F-27.8°C 86% Calm Calm -- 30.40 in1029.5 mb 0.00 in0.0 mm 0.00 in0.0 mm 0.00 in0.0 mm
08:37 PM -14.8°F-26.0°C -17.8°F-27.7°C 86% Calm Calm -- 30.40 in1029.5 mb 0.00 in0.0 mm 0.00 in0.0 mm 0.00 in0.0 mm
08:38 PM -14.8°F-26.0°C -17.8°F-27.7°C 86% Calm Calm -- 30.40 in1029.5 mb 0.00 in0.0 mm 0.00 in0.0 mm 0.00 in0.0 mm
08:39 PM -14.6°F-25.9°C -17.6°F-27.6°C 86% Calm Calm -- 30.40 in1029.5 mb 0.00 in0.0 mm 0.00 in0.0 mm 0.00 in0.0 mm
08:40 PM -14.6°F-25.9°C -17.6°F-27.6°C 86% Calm Calm -- 30.40 in1029.5 mb 0.00 in0.0 mm 0.00 in0.0 mm 0.00 in0.0 mm
08:41 PM -14.6°F-25.9°C -17.6°F-27.6°C 86% Calm Calm -- 30.39 in1029.1 mb 0.00 in0.0 mm 0.00 in0.0 mm 0.00 in0.0 mm
08:42 PM -14.6°F-25.9°C -17.6°F-27.6°C 86% Calm Calm -- 30.40 in1029.5 mb 0.00 in0.0 mm 0.00 in0.0 mm 0.00 in0.0 mm
08:43 PM -14.6°F-25.9°C -17.6°F-27.6°C 86% Calm Calm -- 30.39 in1029.1 mb 0.00 in0.0 mm 0.00 in0.0 mm 0.00 in0.0 mm
08:44 PM -14.3°F-25.7°C -17.2°F-27.3°C 86% Calm Calm -- 30.40 in1029.5 mb 0.00 in0.0 mm 0.00 in0.0 mm 0.00 in0.0 mm
08:47 PM -14.1°F-25.6°C -17.1°F-27.3°C 86% Calm Calm -- 30.40 in1029.5 mb 0.00 in0.0 mm 0.00 in0.0 mm 0.00 in0.0 mm
08:48 PM -14.1°F-25.6°C -17.1°F-27.3°C 86% Calm Calm -- 30.40 in1029.5 mb 0.00 in0.0 mm 0.00 in0.0 mm 0.00 in0.0 mm
08:49 PM -14.1°F-25.6°C -17.1°F-27.3°C 86% Calm Calm -- 30.40 in1029.5 mb 0.00 in0.0 mm 0.00 in0.0 mm 0.00 in0.0 mm
08:52 PM -13.8°F-25.4°C -16.7°F-27.1°C 86% Calm Calm -- 30.40 in1029.5 mb 0.00 in0.0 mm 0.00 in0.0 mm 0.00 in0.0 mm
08:53 PM -13.6°F-25.3°C -16.5°F-26.9°C 86% Calm Calm -- 30.40 in1029.5 mb 0.00 in0.0 mm 0.00 in0.0 mm 0.00 in0.0 mm
08:54 PM -13.6°F-25.3°C -16.5°F-26.9°C 86% Calm Calm -- 30.40 in1029.5 mb 0.00 in0.0 mm 0.00 in0.0 mm 0.00 in0.0 mm
08:55 PM -13.6°F-25.3°C -16.5°F-26.9°C 86% Calm Calm -- 30.40 in1029.5 mb 0.00 in0.0 mm 0.00 in0.0 mm 0.00 in0.0 mm
08:56 PM -13.6°F-25.3°C -16.5°F-26.9°C 86% Calm Calm -- 30.40 in1029.5 mb 0.00 in0.0 mm 0.00 in0.0 mm 0.00 in0.0 mm
08:57 PM -13.6°F-25.3°C -16.5°F-26.9°C 86% Calm Calm -- 30.40 in1029.5 mb 0.00 in0.0 mm 0.00 in0.0 mm 0.00 in0.0 mm
08:58 PM -13.6°F-25.3°C -16.5°F-26.9°C 86% Calm Calm -- 30.40 in1029.5 mb 0.00 in0.0 mm 0.00 in0.0 mm 0.00 in0.0 mm
08:59 PM -13.6°F-25.3°C -16.5°F-26.9°C 86% Calm Calm -- 30.40 in1029.5 mb 0.00 in0.0 mm 0.00 in0.0 mm 0.00 in0.0 mm
09:02 PM -13.6°F-25.3°C -16.5°F-26.9°C 86% Calm Calm -- 30.40 in1029.5 mb 0.00 in0.0 mm 0.00 in0.0 mm 0.00 in0.0 mm
09:03 PM -13.5°F-25.3°C -16.5°F-26.9°C 86% Calm Calm -- 30.40 in1029.5 mb 0.00 in0.0 mm 0.00 in0.0 mm 0.00 in0.0 mm
09:04 PM -13.5°F-25.3°C -16.5°F-26.9°C 86% Calm Calm -- 30.40 in1029.5 mb 0.00 in0.0 mm 0.00 in0.0 mm 0.00 in0.0 mm
09:05 PM -13.5°F-25.3°C -16.5°F-26.9°C 86% Calm Calm -- 30.41 in1029.8 mb 0.00 in0.0 mm 0.00 in0.0 mm 0.00 in0.0 mm
09:06 PM -13.5°F-25.3°C -16.5°F-26.9°C 86% Calm Calm -- 30.40 in1029.5 mb 0.00 in0.0 mm 0.00 in0.0 mm 0.00 in0.0 mm
09:07 PM -13.5°F-25.3°C -16.5°F-26.9°C 86% Calm Calm -- 30.40 in1029.5 mb 0.00 in0.0 mm 0.00 in0.0 mm 0.00 in0.0 mm
09:08 PM -13.5°F-25.3°C -16.5°F-26.9°C 86% Calm Calm -- 30.40 in1029.5 mb 0.00 in0.0 mm 0.00 in0.0 mm 0.00 in0.0 mm
09:11 PM -13.5°F-25.3°C -16.5°F-26.9°C 86% Calm Calm -- 30.40 in1029.5 mb 0.00 in0.0 mm 0.00 in0.0 mm 0.00 in0.0 mm
09:13 PM -13.5°F-25.3°C -16.5°F-26.9°C 86% Calm Calm -- 30.40 in1029.5 mb 0.00 in0.0 mm 0.00 in0.0 mm 0.00 in0.0 mm
09:14 PM -13.3°F-25.2°C -16.4°F-26.9°C 86% Calm Calm -- 30.40 in1029.5 mb 0.00 in0.0 mm 0.00 in0.0 mm 0.00 in0.0 mm
09:16 PM -13.3°F-25.2°C -16.4°F-26.9°C 86% Calm Calm -- 30.40 in1029.5 mb 0.00 in0.0 mm 0.00 in0.0 mm 0.00 in0.0 mm
09:17 PM -13.3°F-25.2°C -16.4°F-26.9°C 86% Calm Calm -- 30.40 in1029.5 mb 0.00 in0.0 mm 0.00 in0.0 mm 0.00 in0.0 mm
09:19 PM -13.3°F-25.2°C -16.4°F-26.9°C 86% Calm Calm -- 30.40 in1029.5 mb 0.00 in0.0 mm 0.00 in0.0 mm 0.00 in0.0 mm
09:21 PM -13.3°F-25.2°C -16.4°F-26.9°C 86% Calm Calm -- 30.40 in1029.5 mb 0.00 in0.0 mm 0.00 in0.0 mm 0.00 in0.0 mm
09:22 PM -13.3°F-25.2°C -16.4°F-26.9°C 86% Calm Calm -- 30.40 in1029.5 mb 0.00 in0.0 mm 0.00 in0.0 mm 0.00 in0.0 mm
09:25 PM -13.3°F-25.2°C -16.4°F-26.9°C 86% Calm Calm -- 30.40 in1029.5 mb 0.00 in0.0 mm 0.00 in0.0 mm 0.00 in0.0 mm
09:27 PM -13.3°F-25.2°C -16.4°F-26.9°C 86% Calm Calm -- 30.40 in1029.5 mb 0.00 in0.0 mm 0.00 in0.0 mm 0.00 in0.0 mm
09:28 PM -13.3°F-25.2°C -16.4°F-26.9°C 86% Calm Calm -- 30.40 in1029.5 mb 0.00 in0.0 mm 0.00 in0.0 mm 0.00 in0.0 mm
09:30 PM -13.3°F-25.2°C -16.4°F-26.9°C 86% Calm Calm -- 30.40 in1029.5 mb 0.00 in0.0 mm 0.00 in0.0 mm 0.00 in0.0 mm
09:33 PM -13.3°F-25.2°C -16.4°F-26.9°C 86% Calm Calm -- 30.39 in1029.1 mb 0.00 in0.0 mm 0.00 in0.0 mm 0.00 in0.0 mm
09:34 PM -13.3°F-25.2°C -16.4°F-26.9°C 86% Calm Calm -- 30.40 in1029.5 mb 0.00 in0.0 mm 0.00 in0.0 mm 0.00 in0.0 mm
09:39 PM -13.3°F-25.2°C -16.4°F-26.9°C 86% Calm Calm -- 30.40 in1029.5 mb 0.00 in0.0 mm 0.00 in0.0 mm 0.00 in0.0 mm
09:42 PM -13.4°F-25.2°C -16.4°F-26.9°C 86% Calm Calm -- 30.40 in1029.5 mb 0.00 in0.0 mm 0.00 in0.0 mm 0.00 in0.0 mm
09:43 PM -13.1°F-25.1°C -16.2°F-26.8°C 86% Calm Calm -- 30.40 in1029.5 mb 0.00 in0.0 mm 0.00 in0.0 mm 0.00 in0.0 mm
09:44 PM -13.1°F-25.1°C -16.2°F-26.8°C 86% Calm Calm -- 30.40 in1029.5 mb 0.00 in0.0 mm 0.00 in0.0 mm 0.00 in0.0 mm
09:48 PM -13.1°F-25.1°C -16.2°F-26.8°C 86% Calm Calm -- 30.40 in1029.5 mb 0.00 in0.0 mm 0.00 in0.0 mm 0.00 in0.0 mm
09:49 PM -13.1°F-25.1°C -16.2°F-26.8°C 86% Calm Calm -- 30.41 in1029.8 mb 0.00 in0.0 mm 0.00 in0.0 mm 0.00 in0.0 mm
09:50 PM -13.1°F-25.1°C -16.2°F-26.8°C 86% Calm Calm -- 30.41 in1029.8 mb 0.00 in0.0 mm 0.00 in0.0 mm 0.00 in0.0 mm
09:51 PM -13.1°F-25.1°C -16.2°F-26.8°C 86% Calm Calm -- 30.41 in1029.8 mb 0.00 in0.0 mm 0.00 in0.0 mm 0.00 in0.0 mm
09:52 PM -13.2°F-25.1°C -16.2°F-26.8°C 86% Calm Calm -- 30.41 in1029.8 mb 0.00 in0.0 mm 0.00 in0.0 mm 0.00 in0.0 mm
09:53 PM -13.1°F-25.1°C -16.2°F-26.8°C 86% Calm Calm -- 30.41 in1029.8 mb 0.00 in0.0 mm 0.00 in0.0 mm 0.00 in0.0 mm
09:54 PM -13.1°F-25.1°C -16.2°F-26.8°C 86% Calm Calm -- 30.40 in1029.5 mb 0.00 in0.0 mm 0.00 in0.0 mm 0.00 in0.0 mm
09:56 PM -13.1°F-25.1°C -16.2°F-26.8°C 86% Calm Calm -- 30.40 in1029.5 mb 0.00 in0.0 mm 0.00 in0.0 mm 0.00 in0.0 mm
09:57 PM -13.1°F-25.1°C -16.2°F-26.8°C 86% Calm Calm -- 30.41 in1029.8 mb 0.00 in0.0 mm 0.00 in0.0 mm 0.00 in0.0 mm
09:58 PM -13.1°F-25.1°C -16.2°F-26.8°C 86% Calm Calm -- 30.41 in1029.8 mb 0.00 in0.0 mm 0.00 in0.0 mm 0.00 in0.0 mm
10:00 PM -13.1°F-25.1°C -16.4°F-26.9°C 85% Calm Calm -- 30.41 in1029.8 mb 0.00 in0.0 mm 0.00 in0.0 mm 0.00 in0.0 mm
10:01 PM -13.1°F-25.1°C -16.4°F-26.9°C 85% Calm Calm -- 30.41 in1029.8 mb 0.00 in0.0 mm 0.00 in0.0 mm 0.00 in0.0 mm
10:03 PM -13.1°F-25.1°C -16.4°F-26.9°C 85% Calm Calm -- 30.41 in1029.8 mb 0.00 in0.0 mm 0.00 in0.0 mm 0.00 in0.0 mm
10:04 PM -13.1°F-25.1°C -16.4°F-26.9°C 85% Calm Calm -- 30.40 in1029.5 mb 0.00 in0.0 mm 0.00 in0.0 mm 0.00 in0.0 mm
10:05 PM -12.9°F-24.9°C -16.1°F-26.7°C 85% Calm Calm -- 30.41 in1029.8 mb 0.00 in0.0 mm 0.00 in0.0 mm 0.00 in0.0 mm
10:06 PM -12.9°F-24.9°C -16.1°F-26.7°C 85% Calm Calm -- 30.41 in1029.8 mb 0.00 in0.0 mm 0.00 in0.0 mm 0.00 in0.0 mm
10:09 PM -12.9°F-24.9°C -16.1°F-26.7°C 85% Calm Calm -- 30.41 in1029.8 mb 0.00 in0.0 mm 0.00 in0.0 mm 0.00 in0.0 mm
10:10 PM -12.9°F-24.9°C -16.1°F-26.7°C 85% Calm Calm -- 30.41 in1029.8 mb 0.00 in0.0 mm 0.00 in0.0 mm 0.00 in0.0 mm
10:12 PM -13.0°F-25.0°C -16.2°F-26.8°C 85% Calm Calm -- 30.41 in1029.8 mb 0.00 in0.0 mm 0.00 in0.0 mm 0.00 in0.0 mm
10:13 PM -12.9°F-24.9°C -16.1°F-26.7°C 85% Calm Calm -- 30.41 in1029.8 mb 0.00 in0.0 mm 0.00 in0.0 mm 0.00 in0.0 mm
10:15 PM -12.9°F-24.9°C -16.1°F-26.7°C 85% Calm Calm -- 30.41 in1029.8 mb 0.00 in0.0 mm 0.00 in0.0 mm 0.00 in0.0 mm
10:16 PM -12.9°F-24.9°C -16.1°F-26.7°C 85% Calm Calm -- 30.41 in1029.8 mb 0.00 in0.0 mm 0.00 in0.0 mm 0.00 in0.0 mm
10:17 PM -12.9°F-24.9°C -16.1°F-26.7°C 85% Calm Calm -- 30.40 in1029.5 mb 0.00 in0.0 mm 0.00 in0.0 mm 0.00 in0.0 mm
10:18 PM -12.9°F-24.9°C -16.1°F-26.7°C 85% Calm Calm -- 30.41 in1029.8 mb 0.00 in0.0 mm 0.00 in0.0 mm 0.00 in0.0 mm
10:19 PM -12.9°F-24.9°C -16.1°F-26.7°C 85% Calm Calm -- 30.41 in1029.8 mb 0.00 in0.0 mm 0.00 in0.0 mm 0.00 in0.0 mm
10:20 PM -12.9°F-24.9°C -16.1°F-26.7°C 85% Calm Calm -- 30.41 in1029.8 mb 0.00 in0.0 mm 0.00 in0.0 mm 0.00 in0.0 mm
10:21 PM -12.9°F-24.9°C -16.1°F-26.7°C 85% Calm Calm -- 30.40 in1029.5 mb 0.00 in0.0 mm 0.00 in0.0 mm 0.00 in0.0 mm
10:22 PM -12.7°F-24.8°C -15.9°F-26.6°C 85% Calm Calm -- 30.41 in1029.8 mb 0.00 in0.0 mm 0.00 in0.0 mm 0.00 in0.0 mm
10:23 PM -12.5°F-24.7°C -15.7°F-26.5°C 85% Calm Calm -- 30.41 in1029.8 mb 0.00 in0.0 mm 0.00 in0.0 mm 0.00 in0.0 mm
10:25 PM -12.5°F-24.7°C -15.7°F-26.5°C 85% Calm Calm -- 30.40 in1029.5 mb 0.00 in0.0 mm 0.00 in0.0 mm 0.00 in0.0 mm
10:26 PM -12.5°F-24.7°C -15.7°F-26.5°C 85% Calm Calm -- 30.41 in1029.8 mb 0.00 in0.0 mm 0.00 in0.0 mm 0.00 in0.0 mm
10:27 PM -12.5°F-24.7°C -15.7°F-26.5°C 85% Calm Calm -- 30.41 in1029.8 mb 0.00 in0.0 mm 0.00 in0.0 mm 0.00 in0.0 mm
10:28 PM -12.5°F-24.7°C -15.7°F-26.5°C 85% Calm Calm -- 30.41 in1029.8 mb 0.00 in0.0 mm 0.00 in0.0 mm 0.00 in0.0 mm
10:29 PM -12.5°F-24.7°C -15.7°F-26.5°C 85% Calm Calm -- 30.41 in1029.8 mb 0.00 in0.0 mm 0.00 in0.0 mm 0.00 in0.0 mm
10:31 PM -12.5°F-24.7°C -15.7°F-26.5°C 85% Calm Calm -- 30.40 in1029.5 mb 0.00 in0.0 mm 0.00 in0.0 mm 0.00 in0.0 mm
10:32 PM -12.6°F-24.8°C -15.9°F-26.6°C 85% Calm Calm -- 30.40 in1029.5 mb 0.00 in0.0 mm 0.00 in0.0 mm 0.00 in0.0 mm
10:33 PM -12.5°F-24.7°C -15.7°F-26.5°C 85% Calm Calm -- 30.40 in1029.5 mb 0.00 in0.0 mm 0.00 in0.0 mm 0.00 in0.0 mm
10:34 PM -12.5°F-24.7°C -15.7°F-26.5°C 85% Calm Calm -- 30.40 in1029.5 mb 0.00 in0.0 mm 0.00 in0.0 mm 0.00 in0.0 mm
10:35 PM -12.5°F-24.7°C -15.7°F-26.5°C 85% Calm Calm -- 30.40 in1029.5 mb 0.00 in0.0 mm 0.00 in0.0 mm 0.00 in0.0 mm
10:36 PM -12.5°F-24.7°C -15.7°F-26.5°C 85% Calm Calm -- 30.40 in1029.5 mb 0.00 in0.0 mm 0.00 in0.0 mm 0.00 in0.0 mm
10:37 PM -12.5°F-24.7°C -15.7°F-26.5°C 85% Calm Calm -- 30.39 in1029.1 mb 0.00 in0.0 mm 0.00 in0.0 mm 0.00 in0.0 mm
10:38 PM -12.5°F-24.7°C -15.7°F-26.5°C 85% Calm Calm -- 30.39 in1029.1 mb 0.00 in0.0 mm 0.00 in0.0 mm 0.00 in0.0 mm
10:39 PM -12.5°F-24.7°C -15.7°F-26.5°C 85% Calm Calm -- 30.40 in1029.5 mb 0.00 in0.0 mm 0.00 in0.0 mm 0.00 in0.0 mm
10:40 PM -12.5°F-24.7°C -15.7°F-26.5°C 85% Calm Calm -- 30.40 in1029.5 mb 0.00 in0.0 mm 0.00 in0.0 mm 0.00 in0.0 mm
10:42 PM -12.5°F-24.7°C -15.7°F-26.5°C 85% Calm Calm -- 30.40 in1029.5 mb 0.00 in0.0 mm 0.00 in0.0 mm 0.00 in0.0 mm
10:45 PM -12.3°F-24.6°C -15.5°F-26.4°C 85% Calm Calm -- 30.40 in1029.5 mb 0.00 in0.0 mm 0.00 in0.0 mm 0.00 in0.0 mm
10:46 PM -12.3°F-24.6°C -15.5°F-26.4°C 85% Calm Calm -- 30.40 in1029.5 mb 0.00 in0.0 mm 0.00 in0.0 mm 0.00 in0.0 mm
10:48 PM -12.3°F-24.6°C -15.5°F-26.4°C 85% Calm Calm -- 30.40 in1029.5 mb 0.00 in0.0 mm 0.00 in0.0 mm 0.00 in0.0 mm
10:49 PM -12.3°F-24.6°C -15.5°F-26.4°C 85% Calm Calm -- 30.40 in1029.5 mb 0.00 in0.0 mm 0.00 in0.0 mm 0.00 in0.0 mm
10:50 PM -12.3°F-24.6°C -15.5°F-26.4°C 85% Calm Calm -- 30.40 in1029.5 mb 0.00 in0.0 mm 0.00 in0.0 mm 0.00 in0.0 mm
10:51 PM -12.3°F-24.6°C -15.5°F-26.4°C 85% Calm Calm -- 30.41 in1029.8 mb 0.00 in0.0 mm 0.00 in0.0 mm 0.00 in0.0 mm
10:52 PM -12.3°F-24.6°C -15.5°F-26.4°C 85% Calm Calm -- 30.40 in1029.5 mb 0.00 in0.0 mm 0.00 in0.0 mm 0.00 in0.0 mm
10:53 PM -12.3°F-24.6°C -15.5°F-26.4°C 85% Calm Calm -- 30.40 in1029.5 mb 0.00 in0.0 mm 0.00 in0.0 mm 0.00 in0.0 mm
10:54 PM -12.3°F-24.6°C -15.5°F-26.4°C 85% Calm Calm -- 30.40 in1029.5 mb 0.00 in0.0 mm 0.00 in0.0 mm 0.00 in0.0 mm
10:55 PM -12.3°F-24.6°C -15.5°F-26.4°C 85% Calm Calm -- 30.40 in1029.5 mb 0.00 in0.0 mm 0.00 in0.0 mm 0.00 in0.0 mm
10:57 PM -12.3°F-24.6°C -15.5°F-26.4°C 85% Calm Calm -- 30.41 in1029.8 mb 0.00 in0.0 mm 0.00 in0.0 mm 0.00 in0.0 mm
10:58 PM -12.3°F-24.6°C -15.5°F-26.4°C 85% Calm Calm -- 30.40 in1029.5 mb 0.00 in0.0 mm 0.00 in0.0 mm 0.00 in0.0 mm
11:00 PM -12.3°F-24.6°C -15.5°F-26.4°C 85% Calm Calm -- 30.39 in1029.1 mb 0.00 in0.0 mm 0.00 in0.0 mm 0.00 in0.0 mm
11:01 PM -12.3°F-24.6°C -15.5°F-26.4°C 85% Calm Calm -- 30.40 in1029.5 mb 0.00 in0.0 mm 0.00 in0.0 mm 0.00 in0.0 mm
11:02 PM -12.3°F-24.6°C -15.5°F-26.4°C 85% Calm Calm -- 30.39 in1029.1 mb 0.00 in0.0 mm 0.00 in0.0 mm 0.00 in0.0 mm
11:03 PM -12.3°F-24.6°C -15.5°F-26.4°C 85% Calm Calm -- 30.40 in1029.5 mb 0.00 in0.0 mm 0.00 in0.0 mm 0.00 in0.0 mm
11:04 PM -12.3°F-24.6°C -15.3°F-26.3°C 86% Calm Calm -- 30.39 in1029.1 mb 0.00 in0.0 mm 0.00 in0.0 mm 0.00 in0.0 mm
11:05 PM -12.3°F-24.6°C -15.3°F-26.3°C 86% Calm Calm -- 30.40 in1029.5 mb 0.00 in0.0 mm 0.00 in0.0 mm 0.00 in0.0 mm
11:06 PM -12.3°F-24.6°C -15.3°F-26.3°C 86% Calm Calm -- 30.40 in1029.5 mb 0.00 in0.0 mm 0.00 in0.0 mm 0.00 in0.0 mm
11:07 PM -12.1°F-24.5°C -15.1°F-26.2°C 86% Calm Calm -- 30.40 in1029.5 mb 0.00 in0.0 mm 0.00 in0.0 mm 0.00 in0.0 mm
11:10 PM -12.1°F-24.5°C -15.1°F-26.2°C 86% 7.0 mph SE11.3 kmh SE -- 30.39 in1029.1 mb 0.00 in0.0 mm 0.00 in0.0 mm 0.00 in0.0 mm
11:11 PM -12.1°F-24.5°C -15.1°F-26.2°C 86% 6.0 mph ESE9.7 kmh ESE -- 30.40 in1029.5 mb 0.00 in0.0 mm 0.00 in0.0 mm 0.00 in0.0 mm
11:12 PM -12.1°F-24.5°C -15.1°F-26.2°C 86% 5.0 mph SE8.0 kmh SE -- 30.39 in1029.1 mb 0.00 in0.0 mm 0.00 in0.0 mm 0.00 in0.0 mm
11:13 PM -12.1°F-24.5°C -15.1°F-26.2°C 86% 5.0 mph ESE8.0 kmh ESE -- 30.40 in1029.5 mb 0.00 in0.0 mm 0.00 in0.0 mm 0.00 in0.0 mm
11:14 PM -12.1°F-24.5°C -15.1°F-26.2°C 86% 8.0 mph ESE12.9 kmh ESE -- 30.39 in1029.1 mb 0.00 in0.0 mm 0.00 in0.0 mm 0.00 in0.0 mm
11:15 PM -12.1°F-24.5°C -15.1°F-26.2°C 86% 5.0 mph ESE8.0 kmh ESE -- 30.39 in1029.1 mb 0.00 in0.0 mm 0.00 in0.0 mm 0.00 in0.0 mm
11:16 PM -12.1°F-24.5°C -15.1°F-26.2°C 86% 6.0 mph SE9.7 kmh SE -- 30.39 in1029.1 mb 0.00 in0.0 mm 0.00 in0.0 mm 0.00 in0.0 mm
11:17 PM -12.1°F-24.5°C -15.1°F-26.2°C 86% 3.0 mph ESE4.8 kmh ESE -- 30.39 in1029.1 mb 0.00 in0.0 mm 0.00 in0.0 mm 0.00 in0.0 mm
11:18 PM -12.1°F-24.5°C -15.1°F-26.2°C 86% 4.0 mph E6.4 kmh E -- 30.38 in1028.8 mb 0.00 in0.0 mm 0.00 in0.0 mm 0.00 in0.0 mm
11:19 PM -12.1°F-24.5°C -15.1°F-26.2°C 86% 6.0 mph ESE9.7 kmh ESE -- 30.39 in1029.1 mb 0.00 in0.0 mm 0.00 in0.0 mm 0.00 in0.0 mm
11:20 PM -12.1°F-24.5°C -15.1°F-26.2°C 86% 5.0 mph ESE8.0 kmh ESE -- 30.39 in1029.1 mb 0.00 in0.0 mm 0.00 in0.0 mm 0.00 in0.0 mm
11:21 PM -11.8°F-24.3°C -14.8°F-26.0°C 86% 3.0 mph SSE4.8 kmh SSE -- 30.39 in1029.1 mb 0.00 in0.0 mm 0.00 in0.0 mm 0.00 in0.0 mm
11:22 PM -11.8°F-24.3°C -14.8°F-26.0°C 86% 6.0 mph ESE9.7 kmh ESE -- 30.39 in1029.1 mb 0.00 in0.0 mm 0.00 in0.0 mm 0.00 in0.0 mm
11:23 PM -11.8°F-24.3°C -14.8°F-26.0°C 86% 7.0 mph ESE11.3 kmh ESE -- 30.39 in1029.1 mb 0.00 in0.0 mm 0.00 in0.0 mm 0.00 in0.0 mm
11:24 PM -11.8°F-24.3°C -14.8°F-26.0°C 86% 6.0 mph ESE9.7 kmh ESE -- 30.39 in1029.1 mb 0.00 in0.0 mm 0.00 in0.0 mm 0.00 in0.0 mm
11:25 PM -11.8°F-24.3°C -14.8°F-26.0°C 86% 5.0 mph ESE8.0 kmh ESE -- 30.39 in1029.1 mb 0.00 in0.0 mm 0.00 in0.0 mm 0.00 in0.0 mm
11:27 PM -11.8°F-24.3°C -14.8°F-26.0°C 86% 3.0 mph SE4.8 kmh SE -- 30.38 in1028.8 mb 0.00 in0.0 mm 0.00 in0.0 mm 0.00 in0.0 mm
11:28 PM -11.8°F-24.3°C -14.8°F-26.0°C 86% 4.0 mph ESE6.4 kmh ESE -- 30.38 in1028.8 mb 0.00 in0.0 mm 0.00 in0.0 mm 0.00 in0.0 mm
11:29 PM -11.8°F-24.3°C -14.8°F-26.0°C 86% 2.0 mph ESE3.2 kmh ESE -- 30.38 in1028.8 mb 0.00 in0.0 mm 0.00 in0.0 mm 0.00 in0.0 mm
11:30 PM -11.8°F-24.3°C -14.8°F-26.0°C 86% 2.0 mph ESE3.2 kmh ESE -- 30.39 in1029.1 mb 0.00 in0.0 mm 0.00 in0.0 mm 0.00 in0.0 mm
11:31 PM -11.8°F-24.3°C -14.8°F-26.0°C 86% 4.0 mph SE6.4 kmh SE -- 30.39 in1029.1 mb 0.00 in0.0 mm 0.00 in0.0 mm 0.00 in0.0 mm
11:32 PM -11.8°F-24.3°C -14.8°F-26.0°C 86% 6.0 mph SE9.7 kmh SE -- 30.39 in1029.1 mb 0.00 in0.0 mm 0.00 in0.0 mm 0.00 in0.0 mm
11:33 PM -11.8°F-24.3°C -14.8°F-26.0°C 86% 4.0 mph ESE6.4 kmh ESE -- 30.39 in1029.1 mb 0.00 in0.0 mm 0.00 in0.0 mm 0.00 in0.0 mm
11:34 PM -11.8°F-24.3°C -14.8°F-26.0°C 86% 4.0 mph SSE6.4 kmh SSE -- 30.39 in1029.1 mb 0.00 in0.0 mm 0.00 in0.0 mm 0.00 in0.0 mm
11:35 PM -11.8°F-24.3°C -14.8°F-26.0°C 86% 4.0 mph ESE6.4 kmh ESE -- 30.39 in1029.1 mb 0.00 in0.0 mm 0.00 in0.0 mm 0.00 in0.0 mm
11:36 PM -11.8°F-24.3°C -14.8°F-26.0°C 86% 2.0 mph ESE3.2 kmh ESE -- 30.39 in1029.1 mb 0.00 in0.0 mm 0.00 in0.0 mm 0.00 in0.0 mm
11:37 PM -11.8°F-24.3°C -14.8°F-26.0°C 86% 5.0 mph ESE8.0 kmh ESE -- 30.39 in1029.1 mb 0.00 in0.0 mm 0.00 in0.0 mm 0.00 in0.0 mm
11:38 PM -11.8°F-24.3°C -14.8°F-26.0°C 86% 3.0 mph ESE4.8 kmh ESE -- 30.39 in1029.1 mb 0.00 in0.0 mm 0.00 in0.0 mm 0.00 in0.0 mm
11:39 PM -11.8°F-24.3°C -14.8°F-26.0°C 86% 4.0 mph ESE6.4 kmh ESE -- 30.38 in1028.8 mb 0.00 in0.0 mm 0.00 in0.0 mm 0.00 in0.0 mm
11:41 PM -11.8°F-24.3°C -14.8°F-26.0°C 86% 2.0 mph ESE3.2 kmh ESE -- 30.39 in1029.1 mb 0.00 in0.0 mm 0.00 in0.0 mm 0.00 in0.0 mm
11:42 PM -11.8°F-24.3°C -14.8°F-26.0°C 86% 5.0 mph SE8.0 kmh SE -- 30.39 in1029.1 mb 0.00 in0.0 mm 0.00 in0.0 mm 0.00 in0.0 mm
11:43 PM -11.8°F-24.3°C -14.8°F-26.0°C 86% 4.0 mph SE6.4 kmh SE -- 30.38 in1028.8 mb 0.00 in0.0 mm 0.00 in0.0 mm 0.00 in0.0 mm
11:44 PM -11.8°F-24.3°C -14.8°F-26.0°C 86% 3.0 mph ESE4.8 kmh ESE -- 30.38 in1028.8 mb 0.00 in0.0 mm 0.00 in0.0 mm 0.00 in0.0 mm
11:45 PM -11.6°F-24.2°C -14.6°F-25.9°C 86% 4.0 mph SSE6.4 kmh SSE -- 30.38 in1028.8 mb 0.00 in0.0 mm 0.00 in0.0 mm 0.00 in0.0 mm
11:46 PM -11.6°F-24.2°C -14.6°F-25.9°C 86% 4.0 mph ESE6.4 kmh ESE -- 30.38 in1028.8 mb 0.00 in0.0 mm 0.00 in0.0 mm 0.00 in0.0 mm
11:47 PM -11.6°F-24.2°C -14.6°F-25.9°C 86% 4.0 mph ENE6.4 kmh ENE -- 30.38 in1028.8 mb 0.00 in0.0 mm 0.00 in0.0 mm 0.00 in0.0 mm
11:48 PM -11.6°F-24.2°C -14.6°F-25.9°C 86% 1.0 mph ESE1.6 kmh ESE -- 30.38 in1028.8 mb 0.00 in0.0 mm 0.00 in0.0 mm 0.00 in0.0 mm
11:49 PM -11.6°F-24.2°C -14.6°F-25.9°C 86% 2.0 mph S3.2 kmh S -- 30.38 in1028.8 mb 0.00 in0.0 mm 0.00 in0.0 mm 0.00 in0.0 mm
11:50 PM -11.6°F-24.2°C -14.6°F-25.9°C 86% 1.0 mph SSE1.6 kmh SSE -- 30.38 in1028.8 mb 0.00 in0.0 mm 0.00 in0.0 mm 0.00 in0.0 mm
11:51 PM -11.6°F-24.2°C -14.6°F-25.9°C 86% 3.0 mph ESE4.8 kmh ESE -- 30.38 in1028.8 mb 0.00 in0.0 mm 0.00 in0.0 mm 0.00 in0.0 mm
11:52 PM -11.6°F-24.2°C -14.6°F-25.9°C 86% 6.0 mph E9.7 kmh E -- 30.38 in1028.8 mb 0.00 in0.0 mm 0.00 in0.0 mm 0.00 in0.0 mm
11:53 PM -11.6°F-24.2°C -14.6°F-25.9°C 86% 6.0 mph ESE9.7 kmh ESE -- 30.38 in1028.8 mb 0.00 in0.0 mm 0.00 in0.0 mm 0.00 in0.0 mm
11:54 PM -11.6°F-24.2°C -14.6°F-25.9°C 86% 3.0 mph SE4.8 kmh SE -- 30.39 in1029.1 mb 0.00 in0.0 mm 0.00 in0.0 mm 0.00 in0.0 mm
11:55 PM -11.6°F-24.2°C -14.6°F-25.9°C 86% 2.0 mph ESE3.2 kmh ESE -- 30.38 in1028.8 mb 0.00 in0.0 mm 0.00 in0.0 mm 0.00 in0.0 mm
11:56 PM -11.6°F-24.2°C -14.6°F-25.9°C 86% 2.0 mph SE3.2 kmh SE -- 30.38 in1028.8 mb 0.00 in0.0 mm 0.00 in0.0 mm 0.00 in0.0 mm
11:57 PM -11.6°F-24.2°C -14.6°F-25.9°C 86% 4.0 mph SSE6.4 kmh SSE -- 30.38 in1028.8 mb 0.00 in0.0 mm 0.00 in0.0 mm 0.00 in0.0 mm
11:58 PM -11.6°F-24.2°C -14.6°F-25.9°C 86% 2.0 mph ESE3.2 kmh ESE -- 30.39 in1029.1 mb 0.00 in0.0 mm 0.00 in0.0 mm 0.00 in0.0 mm
11:59 PM -11.8°F-24.3°C -14.8°F-26.0°C 86% 3.0 mph ESE4.8 kmh ESE -- 30.38 in1028.8 mb 0.00 in0.0 mm 0.00 in0.0 mm 0.00 in0.0 mm